<?xml version="1.0" encoding="UTF-8" standalone="no" ?>
<gpx xmlns="http://www.topografix.com/GPX/1/1" xmlns:xsi="http://www.w3.org/2001/XMLSchema-instance" xsi:schemaLocation="http://www.topografix.com/GPX/1/1 http://www.topografix.com/GPX/1/1/gpx.xsd" version="1.1" creator="VisuGPX - https://www.visugpx.com">
  <metadata>
    <name>Circuit de la Senancole</name>
    <desc><![CDATA[Une jolie balade avec des points de vue variés, à partir de l abbaye de Sénanque]]></desc>
  </metadata>
  <trk>
    <name><![CDATA[Senanque -mur de la peste]]></name>
    <trkseg>
      <trkpt lat="43.93089" lon="5.18878">
        <ele>368.8</ele>
        <time>2014-11-01T08:58:06Z</time>
      </trkpt>
      <trkpt lat="43.93087" lon="5.18877">
        <ele>369.76</ele>
        <time>2014-11-01T08:58:31Z</time>
      </trkpt>
      <trkpt lat="43.93088" lon="5.18877">
        <ele>369.76</ele>
        <time>2014-11-01T08:58:56Z</time>
      </trkpt>
      <trkpt lat="43.93086" lon="5.18886">
        <ele>369.76</ele>
        <time>2014-11-01T08:59:19Z</time>
      </trkpt>
      <trkpt lat="43.93087" lon="5.18887">
        <ele>368.8</ele>
        <time>2014-11-01T08:59:30Z</time>
      </trkpt>
      <trkpt lat="43.93087" lon="5.18887">
        <ele>368.8</ele>
        <time>2014-11-01T08:59:31Z</time>
      </trkpt>
      <trkpt lat="43.93087" lon="5.18887">
        <ele>368.32</ele>
        <time>2014-11-01T08:59:32Z</time>
      </trkpt>
      <trkpt lat="43.93086" lon="5.18891">
        <ele>369.76</ele>
        <time>2014-11-01T08:59:42Z</time>
      </trkpt>
      <trkpt lat="43.93086" lon="5.18891">
        <ele>369.76</ele>
        <time>2014-11-01T08:59:58Z</time>
      </trkpt>
      <trkpt lat="43.93091" lon="5.18888">
        <ele>369.76</ele>
        <time>2014-11-01T09:00:13Z</time>
      </trkpt>
      <trkpt lat="43.93108" lon="5.18885">
        <ele>369.76</ele>
        <time>2014-11-01T09:00:28Z</time>
      </trkpt>
      <trkpt lat="43.93129" lon="5.18889">
        <ele>370.24</ele>
        <time>2014-11-01T09:00:44Z</time>
      </trkpt>
      <trkpt lat="43.93151" lon="5.18893">
        <ele>371.21</ele>
        <time>2014-11-01T09:01:03Z</time>
      </trkpt>
      <trkpt lat="43.93171" lon="5.189">
        <ele>371.69</ele>
        <time>2014-11-01T09:01:21Z</time>
      </trkpt>
      <trkpt lat="43.93186" lon="5.18903">
        <ele>372.17</ele>
        <time>2014-11-01T09:01:36Z</time>
      </trkpt>
      <trkpt lat="43.93207" lon="5.18911">
        <ele>372.65</ele>
        <time>2014-11-01T09:01:54Z</time>
      </trkpt>
      <trkpt lat="43.93225" lon="5.18915">
        <ele>372.65</ele>
        <time>2014-11-01T09:02:12Z</time>
      </trkpt>
      <trkpt lat="43.93235" lon="5.18916">
        <ele>371.69</ele>
        <time>2014-11-01T09:02:20Z</time>
      </trkpt>
      <trkpt lat="43.93258" lon="5.1891">
        <ele>370.73</ele>
        <time>2014-11-01T09:02:39Z</time>
      </trkpt>
      <trkpt lat="43.9327" lon="5.18906">
        <ele>372.17</ele>
        <time>2014-11-01T09:02:54Z</time>
      </trkpt>
      <trkpt lat="43.93271" lon="5.18905">
        <ele>372.17</ele>
        <time>2014-11-01T09:02:55Z</time>
      </trkpt>
      <trkpt lat="43.93275" lon="5.18903">
        <ele>372.17</ele>
        <time>2014-11-01T09:02:59Z</time>
      </trkpt>
      <trkpt lat="43.93296" lon="5.18898">
        <ele>374.09</ele>
        <time>2014-11-01T09:03:17Z</time>
      </trkpt>
      <trkpt lat="43.93319" lon="5.18889">
        <ele>376.01</ele>
        <time>2014-11-01T09:03:39Z</time>
      </trkpt>
      <trkpt lat="43.93337" lon="5.1888">
        <ele>377.45</ele>
        <time>2014-11-01T09:03:56Z</time>
      </trkpt>
      <trkpt lat="43.93357" lon="5.18871">
        <ele>379.38</ele>
        <time>2014-11-01T09:04:13Z</time>
      </trkpt>
      <trkpt lat="43.93374" lon="5.18871">
        <ele>380.34</ele>
        <time>2014-11-01T09:04:28Z</time>
      </trkpt>
      <trkpt lat="43.93392" lon="5.18873">
        <ele>381.78</ele>
        <time>2014-11-01T09:04:43Z</time>
      </trkpt>
      <trkpt lat="43.93398" lon="5.18859">
        <ele>384.18</ele>
        <time>2014-11-01T09:04:56Z</time>
      </trkpt>
      <trkpt lat="43.93385" lon="5.18841">
        <ele>384.66</ele>
        <time>2014-11-01T09:05:12Z</time>
      </trkpt>
      <trkpt lat="43.93368" lon="5.18829">
        <ele>384.66</ele>
        <time>2014-11-01T09:05:33Z</time>
      </trkpt>
      <trkpt lat="43.93356" lon="5.18816">
        <ele>385.15</ele>
        <time>2014-11-01T09:05:47Z</time>
      </trkpt>
      <trkpt lat="43.93346" lon="5.18806">
        <ele>385.63</ele>
        <time>2014-11-01T09:05:57Z</time>
      </trkpt>
      <trkpt lat="43.93337" lon="5.18795">
        <ele>386.11</ele>
        <time>2014-11-01T09:06:11Z</time>
      </trkpt>
      <trkpt lat="43.93332" lon="5.1878">
        <ele>388.51</ele>
        <time>2014-11-01T09:06:27Z</time>
      </trkpt>
      <trkpt lat="43.9333" lon="5.18768">
        <ele>391.39</ele>
        <time>2014-11-01T09:06:42Z</time>
      </trkpt>
      <trkpt lat="43.93339" lon="5.18762">
        <ele>393.8</ele>
        <time>2014-11-01T09:06:56Z</time>
      </trkpt>
      <trkpt lat="43.93348" lon="5.18759">
        <ele>395.72</ele>
        <time>2014-11-01T09:07:12Z</time>
      </trkpt>
      <trkpt lat="43.93363" lon="5.18756">
        <ele>398.12</ele>
        <time>2014-11-01T09:07:26Z</time>
      </trkpt>
      <trkpt lat="43.93374" lon="5.18752">
        <ele>401.01</ele>
        <time>2014-11-01T09:07:42Z</time>
      </trkpt>
      <trkpt lat="43.93382" lon="5.18748">
        <ele>403.41</ele>
        <time>2014-11-01T09:07:57Z</time>
      </trkpt>
      <trkpt lat="43.93396" lon="5.18751">
        <ele>405.33</ele>
        <time>2014-11-01T09:08:14Z</time>
      </trkpt>
      <trkpt lat="43.9341" lon="5.18746">
        <ele>408.22</ele>
        <time>2014-11-01T09:08:32Z</time>
      </trkpt>
      <trkpt lat="43.93419" lon="5.18738">
        <ele>411.1</ele>
        <time>2014-11-01T09:08:50Z</time>
      </trkpt>
      <trkpt lat="43.93434" lon="5.18742">
        <ele>413.5</ele>
        <time>2014-11-01T09:09:09Z</time>
      </trkpt>
      <trkpt lat="43.93444" lon="5.1875">
        <ele>415.91</ele>
        <time>2014-11-01T09:09:26Z</time>
      </trkpt>
      <trkpt lat="43.93455" lon="5.18752">
        <ele>417.83</ele>
        <time>2014-11-01T09:09:41Z</time>
      </trkpt>
      <trkpt lat="43.93467" lon="5.18753">
        <ele>420.71</ele>
        <time>2014-11-01T09:09:59Z</time>
      </trkpt>
      <trkpt lat="43.93482" lon="5.18752">
        <ele>423.12</ele>
        <time>2014-11-01T09:10:20Z</time>
      </trkpt>
      <trkpt lat="43.93492" lon="5.18752">
        <ele>425.52</ele>
        <time>2014-11-01T09:10:37Z</time>
      </trkpt>
      <trkpt lat="43.93508" lon="5.18748">
        <ele>427.92</ele>
        <time>2014-11-01T09:10:59Z</time>
      </trkpt>
      <trkpt lat="43.93524" lon="5.18742">
        <ele>430.33</ele>
        <time>2014-11-01T09:11:18Z</time>
      </trkpt>
      <trkpt lat="43.93536" lon="5.18735">
        <ele>431.77</ele>
        <time>2014-11-01T09:11:36Z</time>
      </trkpt>
      <trkpt lat="43.93544" lon="5.18725">
        <ele>434.17</ele>
        <time>2014-11-01T09:11:54Z</time>
      </trkpt>
      <trkpt lat="43.93541" lon="5.18728">
        <ele>434.17</ele>
        <time>2014-11-01T09:12:16Z</time>
      </trkpt>
      <trkpt lat="43.9354" lon="5.18724">
        <ele>434.17</ele>
        <time>2014-11-01T09:12:53Z</time>
      </trkpt>
      <trkpt lat="43.9354" lon="5.1873">
        <ele>434.17</ele>
        <time>2014-11-01T09:13:11Z</time>
      </trkpt>
      <trkpt lat="43.93535" lon="5.18724">
        <ele>436.58</ele>
        <time>2014-11-01T09:13:20Z</time>
      </trkpt>
      <trkpt lat="43.93527" lon="5.18722">
        <ele>433.69</ele>
        <time>2014-11-01T09:13:35Z</time>
      </trkpt>
      <trkpt lat="43.93526" lon="5.18721">
        <ele>435.13</ele>
        <time>2014-11-01T09:13:37Z</time>
      </trkpt>
      <trkpt lat="43.93519" lon="5.18716">
        <ele>433.69</ele>
        <time>2014-11-01T09:13:45Z</time>
      </trkpt>
      <trkpt lat="43.93518" lon="5.18715">
        <ele>433.69</ele>
        <time>2014-11-01T09:13:48Z</time>
      </trkpt>
      <trkpt lat="43.93506" lon="5.18708">
        <ele>432.73</ele>
        <time>2014-11-01T09:14:03Z</time>
      </trkpt>
      <trkpt lat="43.93491" lon="5.18697">
        <ele>430.81</ele>
        <time>2014-11-01T09:14:19Z</time>
      </trkpt>
      <trkpt lat="43.93475" lon="5.18686">
        <ele>430.81</ele>
        <time>2014-11-01T09:14:36Z</time>
      </trkpt>
      <trkpt lat="43.93461" lon="5.18679">
        <ele>430.33</ele>
        <time>2014-11-01T09:14:52Z</time>
      </trkpt>
      <trkpt lat="43.93447" lon="5.18671">
        <ele>429.37</ele>
        <time>2014-11-01T09:15:05Z</time>
      </trkpt>
      <trkpt lat="43.93428" lon="5.18663">
        <ele>430.33</ele>
        <time>2014-11-01T09:15:23Z</time>
      </trkpt>
      <trkpt lat="43.93412" lon="5.18659">
        <ele>432.25</ele>
        <time>2014-11-01T09:15:39Z</time>
      </trkpt>
      <trkpt lat="43.93396" lon="5.18653">
        <ele>432.73</ele>
        <time>2014-11-01T09:15:56Z</time>
      </trkpt>
      <trkpt lat="43.93373" lon="5.18639">
        <ele>432.25</ele>
        <time>2014-11-01T09:16:15Z</time>
      </trkpt>
      <trkpt lat="43.9337" lon="5.18637">
        <ele>433.21</ele>
        <time>2014-11-01T09:16:18Z</time>
      </trkpt>
      <trkpt lat="43.93351" lon="5.18627">
        <ele>434.65</ele>
        <time>2014-11-01T09:16:34Z</time>
      </trkpt>
      <trkpt lat="43.93349" lon="5.18627">
        <ele>434.65</ele>
        <time>2014-11-01T09:16:36Z</time>
      </trkpt>
      <trkpt lat="43.93331" lon="5.18618">
        <ele>433.69</ele>
        <time>2014-11-01T09:16:53Z</time>
      </trkpt>
      <trkpt lat="43.93327" lon="5.18618">
        <ele>434.17</ele>
        <time>2014-11-01T09:16:56Z</time>
      </trkpt>
      <trkpt lat="43.9331" lon="5.18609">
        <ele>433.69</ele>
        <time>2014-11-01T09:17:10Z</time>
      </trkpt>
      <trkpt lat="43.93306" lon="5.18606">
        <ele>433.69</ele>
        <time>2014-11-01T09:17:14Z</time>
      </trkpt>
      <trkpt lat="43.93302" lon="5.18599">
        <ele>432.73</ele>
        <time>2014-11-01T09:17:17Z</time>
      </trkpt>
      <trkpt lat="43.93285" lon="5.18589">
        <ele>430.81</ele>
        <time>2014-11-01T09:17:34Z</time>
      </trkpt>
      <trkpt lat="43.93277" lon="5.18583">
        <ele>431.77</ele>
        <time>2014-11-01T09:17:43Z</time>
      </trkpt>
      <trkpt lat="43.93274" lon="5.18581">
        <ele>430.33</ele>
        <time>2014-11-01T09:17:45Z</time>
      </trkpt>
      <trkpt lat="43.93257" lon="5.18571">
        <ele>429.85</ele>
        <time>2014-11-01T09:18:03Z</time>
      </trkpt>
      <trkpt lat="43.93246" lon="5.18563">
        <ele>429.37</ele>
        <time>2014-11-01T09:18:14Z</time>
      </trkpt>
      <trkpt lat="43.93228" lon="5.18538">
        <ele>426.96</ele>
        <time>2014-11-01T09:18:34Z</time>
      </trkpt>
      <trkpt lat="43.93217" lon="5.18522">
        <ele>426</ele>
        <time>2014-11-01T09:18:49Z</time>
      </trkpt>
      <trkpt lat="43.93211" lon="5.18501">
        <ele>427.44</ele>
        <time>2014-11-01T09:19:03Z</time>
      </trkpt>
      <trkpt lat="43.93196" lon="5.1849">
        <ele>428.89</ele>
        <time>2014-11-01T09:19:20Z</time>
      </trkpt>
      <trkpt lat="43.93179" lon="5.18469">
        <ele>430.33</ele>
        <time>2014-11-01T09:19:38Z</time>
      </trkpt>
      <trkpt lat="43.93163" lon="5.18448">
        <ele>430.81</ele>
        <time>2014-11-01T09:19:56Z</time>
      </trkpt>
      <trkpt lat="43.9316" lon="5.18446">
        <ele>429.37</ele>
        <time>2014-11-01T09:19:59Z</time>
      </trkpt>
      <trkpt lat="43.93142" lon="5.18435">
        <ele>428.89</ele>
        <time>2014-11-01T09:20:16Z</time>
      </trkpt>
      <trkpt lat="43.93141" lon="5.18436">
        <ele>428.89</ele>
        <time>2014-11-01T09:20:17Z</time>
      </trkpt>
      <trkpt lat="43.93133" lon="5.18451">
        <ele>428.89</ele>
        <time>2014-11-01T09:20:33Z</time>
      </trkpt>
      <trkpt lat="43.93126" lon="5.18463">
        <ele>427.92</ele>
        <time>2014-11-01T09:20:41Z</time>
      </trkpt>
      <trkpt lat="43.93117" lon="5.18472">
        <ele>427.44</ele>
        <time>2014-11-01T09:20:50Z</time>
      </trkpt>
      <trkpt lat="43.93093" lon="5.18474">
        <ele>426.96</ele>
        <time>2014-11-01T09:21:08Z</time>
      </trkpt>
      <trkpt lat="43.93074" lon="5.18466">
        <ele>428.4</ele>
        <time>2014-11-01T09:21:25Z</time>
      </trkpt>
      <trkpt lat="43.93056" lon="5.18461">
        <ele>428.4</ele>
        <time>2014-11-01T09:21:41Z</time>
      </trkpt>
      <trkpt lat="43.93039" lon="5.18457">
        <ele>428.4</ele>
        <time>2014-11-01T09:21:56Z</time>
      </trkpt>
      <trkpt lat="43.93037" lon="5.18457">
        <ele>426.96</ele>
        <time>2014-11-01T09:21:58Z</time>
      </trkpt>
      <trkpt lat="43.93018" lon="5.18452">
        <ele>426.96</ele>
        <time>2014-11-01T09:22:13Z</time>
      </trkpt>
      <trkpt lat="43.93001" lon="5.1845">
        <ele>426.96</ele>
        <time>2014-11-01T09:22:29Z</time>
      </trkpt>
      <trkpt lat="43.9298" lon="5.18449">
        <ele>426</ele>
        <time>2014-11-01T09:22:46Z</time>
      </trkpt>
      <trkpt lat="43.92959" lon="5.18449">
        <ele>425.04</ele>
        <time>2014-11-01T09:23:03Z</time>
      </trkpt>
      <trkpt lat="43.92947" lon="5.18449">
        <ele>424.08</ele>
        <time>2014-11-01T09:23:13Z</time>
      </trkpt>
      <trkpt lat="43.92943" lon="5.1845">
        <ele>423.6</ele>
        <time>2014-11-01T09:23:17Z</time>
      </trkpt>
      <trkpt lat="43.92928" lon="5.18449">
        <ele>422.64</ele>
        <time>2014-11-01T09:23:31Z</time>
      </trkpt>
      <trkpt lat="43.92926" lon="5.18449">
        <ele>422.64</ele>
        <time>2014-11-01T09:23:32Z</time>
      </trkpt>
      <trkpt lat="43.92903" lon="5.18438">
        <ele>422.16</ele>
        <time>2014-11-01T09:23:50Z</time>
      </trkpt>
      <trkpt lat="43.92885" lon="5.18423">
        <ele>422.64</ele>
        <time>2014-11-01T09:24:07Z</time>
      </trkpt>
      <trkpt lat="43.92866" lon="5.18411">
        <ele>421.68</ele>
        <time>2014-11-01T09:24:24Z</time>
      </trkpt>
      <trkpt lat="43.92845" lon="5.18402">
        <ele>420.71</ele>
        <time>2014-11-01T09:24:41Z</time>
      </trkpt>
      <trkpt lat="43.92824" lon="5.18391">
        <ele>420.71</ele>
        <time>2014-11-01T09:25:00Z</time>
      </trkpt>
      <trkpt lat="43.92806" lon="5.18386">
        <ele>419.27</ele>
        <time>2014-11-01T09:25:16Z</time>
      </trkpt>
      <trkpt lat="43.92786" lon="5.18371">
        <ele>418.79</ele>
        <time>2014-11-01T09:25:33Z</time>
      </trkpt>
      <trkpt lat="43.92771" lon="5.18356">
        <ele>418.79</ele>
        <time>2014-11-01T09:25:48Z</time>
      </trkpt>
      <trkpt lat="43.92756" lon="5.18347">
        <ele>418.79</ele>
        <time>2014-11-01T09:26:03Z</time>
      </trkpt>
      <trkpt lat="43.92738" lon="5.18338">
        <ele>418.31</ele>
        <time>2014-11-01T09:26:19Z</time>
      </trkpt>
      <trkpt lat="43.9272" lon="5.18333">
        <ele>416.87</ele>
        <time>2014-11-01T09:26:34Z</time>
      </trkpt>
      <trkpt lat="43.92698" lon="5.1833">
        <ele>415.43</ele>
        <time>2014-11-01T09:26:51Z</time>
      </trkpt>
      <trkpt lat="43.9268" lon="5.18323">
        <ele>415.43</ele>
        <time>2014-11-01T09:27:09Z</time>
      </trkpt>
      <trkpt lat="43.92663" lon="5.18315">
        <ele>415.43</ele>
        <time>2014-11-01T09:27:24Z</time>
      </trkpt>
      <trkpt lat="43.9266" lon="5.18314">
        <ele>415.43</ele>
        <time>2014-11-01T09:27:27Z</time>
      </trkpt>
      <trkpt lat="43.92655" lon="5.18308">
        <ele>415.43</ele>
        <time>2014-11-01T09:27:32Z</time>
      </trkpt>
      <trkpt lat="43.92649" lon="5.18305">
        <ele>415.43</ele>
        <time>2014-11-01T09:27:38Z</time>
      </trkpt>
      <trkpt lat="43.92646" lon="5.18302">
        <ele>416.87</ele>
        <time>2014-11-01T09:27:41Z</time>
      </trkpt>
      <trkpt lat="43.92633" lon="5.18285">
        <ele>419.27</ele>
        <time>2014-11-01T09:27:56Z</time>
      </trkpt>
      <trkpt lat="43.92623" lon="5.18274">
        <ele>421.19</ele>
        <time>2014-11-01T09:28:09Z</time>
      </trkpt>
      <trkpt lat="43.92618" lon="5.18266">
        <ele>422.64</ele>
        <time>2014-11-01T09:28:16Z</time>
      </trkpt>
      <trkpt lat="43.92603" lon="5.18249">
        <ele>424.56</ele>
        <time>2014-11-01T09:28:33Z</time>
      </trkpt>
      <trkpt lat="43.9259" lon="5.18241">
        <ele>424.56</ele>
        <time>2014-11-01T09:28:46Z</time>
      </trkpt>
      <trkpt lat="43.92584" lon="5.18236">
        <ele>424.56</ele>
        <time>2014-11-01T09:28:53Z</time>
      </trkpt>
      <trkpt lat="43.92571" lon="5.18215">
        <ele>426</ele>
        <time>2014-11-01T09:29:09Z</time>
      </trkpt>
      <trkpt lat="43.92564" lon="5.182">
        <ele>427.92</ele>
        <time>2014-11-01T09:29:22Z</time>
      </trkpt>
      <trkpt lat="43.92553" lon="5.18189">
        <ele>427.92</ele>
        <time>2014-11-01T09:29:35Z</time>
      </trkpt>
      <trkpt lat="43.92538" lon="5.18176">
        <ele>427.92</ele>
        <time>2014-11-01T09:29:50Z</time>
      </trkpt>
      <trkpt lat="43.92523" lon="5.18169">
        <ele>426.48</ele>
        <time>2014-11-01T09:30:04Z</time>
      </trkpt>
      <trkpt lat="43.92508" lon="5.18165">
        <ele>424.56</ele>
        <time>2014-11-01T09:30:19Z</time>
      </trkpt>
      <trkpt lat="43.92506" lon="5.18165">
        <ele>423.6</ele>
        <time>2014-11-01T09:30:21Z</time>
      </trkpt>
      <trkpt lat="43.92503" lon="5.18166">
        <ele>423.6</ele>
        <time>2014-11-01T09:30:24Z</time>
      </trkpt>
      <trkpt lat="43.92493" lon="5.18169">
        <ele>420.23</ele>
        <time>2014-11-01T09:30:36Z</time>
      </trkpt>
      <trkpt lat="43.92479" lon="5.18175">
        <ele>416.87</ele>
        <time>2014-11-01T09:30:50Z</time>
      </trkpt>
      <trkpt lat="43.9246" lon="5.18179">
        <ele>414.47</ele>
        <time>2014-11-01T09:31:06Z</time>
      </trkpt>
      <trkpt lat="43.92439" lon="5.1817">
        <ele>415.91</ele>
        <time>2014-11-01T09:31:24Z</time>
      </trkpt>
      <trkpt lat="43.92437" lon="5.18169">
        <ele>415.91</ele>
        <time>2014-11-01T09:31:26Z</time>
      </trkpt>
      <trkpt lat="43.92421" lon="5.18157">
        <ele>416.39</ele>
        <time>2014-11-01T09:31:44Z</time>
      </trkpt>
      <trkpt lat="43.9241" lon="5.18142">
        <ele>417.83</ele>
        <time>2014-11-01T09:31:57Z</time>
      </trkpt>
      <trkpt lat="43.92401" lon="5.18126">
        <ele>417.35</ele>
        <time>2014-11-01T09:32:12Z</time>
      </trkpt>
      <trkpt lat="43.92401" lon="5.18123">
        <ele>417.35</ele>
        <time>2014-11-01T09:32:42Z</time>
      </trkpt>
      <trkpt lat="43.92396" lon="5.18117">
        <ele>417.35</ele>
        <time>2014-11-01T09:33:03Z</time>
      </trkpt>
      <trkpt lat="43.92388" lon="5.18104">
        <ele>418.31</ele>
        <time>2014-11-01T09:33:17Z</time>
      </trkpt>
      <trkpt lat="43.92385" lon="5.18095">
        <ele>418.31</ele>
        <time>2014-11-01T09:33:24Z</time>
      </trkpt>
      <trkpt lat="43.92384" lon="5.18087">
        <ele>416.87</ele>
        <time>2014-11-01T09:33:28Z</time>
      </trkpt>
      <trkpt lat="43.92377" lon="5.18066">
        <ele>418.31</ele>
        <time>2014-11-01T09:33:44Z</time>
      </trkpt>
      <trkpt lat="43.92376" lon="5.18063">
        <ele>416.87</ele>
        <time>2014-11-01T09:33:46Z</time>
      </trkpt>
      <trkpt lat="43.92373" lon="5.18049">
        <ele>416.87</ele>
        <time>2014-11-01T09:33:56Z</time>
      </trkpt>
      <trkpt lat="43.92364" lon="5.18028">
        <ele>416.39</ele>
        <time>2014-11-01T09:34:12Z</time>
      </trkpt>
      <trkpt lat="43.9236" lon="5.18019">
        <ele>416.39</ele>
        <time>2014-11-01T09:34:18Z</time>
      </trkpt>
      <trkpt lat="43.92356" lon="5.18015">
        <ele>416.39</ele>
        <time>2014-11-01T09:34:22Z</time>
      </trkpt>
      <trkpt lat="43.92352" lon="5.18006">
        <ele>416.39</ele>
        <time>2014-11-01T09:34:29Z</time>
      </trkpt>
      <trkpt lat="43.92344" lon="5.17995">
        <ele>416.39</ele>
        <time>2014-11-01T09:34:38Z</time>
      </trkpt>
      <trkpt lat="43.9234" lon="5.17968">
        <ele>416.39</ele>
        <time>2014-11-01T09:34:53Z</time>
      </trkpt>
      <trkpt lat="43.92339" lon="5.17958">
        <ele>417.35</ele>
        <time>2014-11-01T09:34:59Z</time>
      </trkpt>
      <trkpt lat="43.92337" lon="5.17945">
        <ele>417.83</ele>
        <time>2014-11-01T09:35:08Z</time>
      </trkpt>
      <trkpt lat="43.92329" lon="5.17927">
        <ele>418.31</ele>
        <time>2014-11-01T09:35:24Z</time>
      </trkpt>
      <trkpt lat="43.92329" lon="5.17912">
        <ele>417.83</ele>
        <time>2014-11-01T09:35:38Z</time>
      </trkpt>
      <trkpt lat="43.92331" lon="5.17907">
        <ele>418.79</ele>
        <time>2014-11-01T09:35:43Z</time>
      </trkpt>
      <trkpt lat="43.9234" lon="5.1789">
        <ele>419.75</ele>
        <time>2014-11-01T09:35:58Z</time>
      </trkpt>
      <trkpt lat="43.92349" lon="5.17887">
        <ele>421.68</ele>
        <time>2014-11-01T09:36:08Z</time>
      </trkpt>
      <trkpt lat="43.92361" lon="5.17881">
        <ele>423.12</ele>
        <time>2014-11-01T09:36:23Z</time>
      </trkpt>
      <trkpt lat="43.92377" lon="5.1788">
        <ele>424.56</ele>
        <time>2014-11-01T09:36:39Z</time>
      </trkpt>
      <trkpt lat="43.9239" lon="5.17882">
        <ele>425.52</ele>
        <time>2014-11-01T09:36:54Z</time>
      </trkpt>
      <trkpt lat="43.92403" lon="5.17887">
        <ele>427.92</ele>
        <time>2014-11-01T09:37:08Z</time>
      </trkpt>
      <trkpt lat="43.92422" lon="5.17887">
        <ele>429.37</ele>
        <time>2014-11-01T09:37:25Z</time>
      </trkpt>
      <trkpt lat="43.92434" lon="5.17886">
        <ele>430.81</ele>
        <time>2014-11-01T09:37:40Z</time>
      </trkpt>
      <trkpt lat="43.92449" lon="5.17888">
        <ele>432.25</ele>
        <time>2014-11-01T09:37:53Z</time>
      </trkpt>
      <trkpt lat="43.92464" lon="5.17894">
        <ele>433.69</ele>
        <time>2014-11-01T09:38:08Z</time>
      </trkpt>
      <trkpt lat="43.92476" lon="5.17898">
        <ele>435.13</ele>
        <time>2014-11-01T09:38:25Z</time>
      </trkpt>
      <trkpt lat="43.92494" lon="5.17899">
        <ele>437.54</ele>
        <time>2014-11-01T09:38:43Z</time>
      </trkpt>
      <trkpt lat="43.92508" lon="5.17894">
        <ele>439.46</ele>
        <time>2014-11-01T09:39:00Z</time>
      </trkpt>
      <trkpt lat="43.9252" lon="5.1789">
        <ele>440.9</ele>
        <time>2014-11-01T09:39:13Z</time>
      </trkpt>
      <trkpt lat="43.92535" lon="5.17887">
        <ele>442.82</ele>
        <time>2014-11-01T09:39:30Z</time>
      </trkpt>
      <trkpt lat="43.92551" lon="5.1788">
        <ele>444.27</ele>
        <time>2014-11-01T09:39:45Z</time>
      </trkpt>
      <trkpt lat="43.92561" lon="5.17884">
        <ele>446.67</ele>
        <time>2014-11-01T09:40:00Z</time>
      </trkpt>
      <trkpt lat="43.92572" lon="5.17897">
        <ele>448.11</ele>
        <time>2014-11-01T09:40:14Z</time>
      </trkpt>
      <trkpt lat="43.92581" lon="5.17913">
        <ele>450.03</ele>
        <time>2014-11-01T09:40:29Z</time>
      </trkpt>
      <trkpt lat="43.92592" lon="5.17924">
        <ele>453.4</ele>
        <time>2014-11-01T09:40:47Z</time>
      </trkpt>
      <trkpt lat="43.92602" lon="5.17935">
        <ele>454.36</ele>
        <time>2014-11-01T09:41:01Z</time>
      </trkpt>
      <trkpt lat="43.92611" lon="5.17938">
        <ele>456.76</ele>
        <time>2014-11-01T09:41:15Z</time>
      </trkpt>
      <trkpt lat="43.92621" lon="5.17939">
        <ele>459.17</ele>
        <time>2014-11-01T09:41:29Z</time>
      </trkpt>
      <trkpt lat="43.92627" lon="5.17946">
        <ele>460.13</ele>
        <time>2014-11-01T09:41:40Z</time>
      </trkpt>
      <trkpt lat="43.92642" lon="5.17965">
        <ele>461.57</ele>
        <time>2014-11-01T09:41:56Z</time>
      </trkpt>
      <trkpt lat="43.92654" lon="5.1798">
        <ele>462.05</ele>
        <time>2014-11-01T09:42:10Z</time>
      </trkpt>
      <trkpt lat="43.92667" lon="5.17993">
        <ele>463.01</ele>
        <time>2014-11-01T09:42:25Z</time>
      </trkpt>
      <trkpt lat="43.92681" lon="5.1801">
        <ele>463.97</ele>
        <time>2014-11-01T09:42:43Z</time>
      </trkpt>
      <trkpt lat="43.92695" lon="5.18018">
        <ele>464.93</ele>
        <time>2014-11-01T09:42:57Z</time>
      </trkpt>
      <trkpt lat="43.9271" lon="5.1803">
        <ele>465.9</ele>
        <time>2014-11-01T09:43:15Z</time>
      </trkpt>
      <trkpt lat="43.92725" lon="5.18042">
        <ele>466.38</ele>
        <time>2014-11-01T09:43:32Z</time>
      </trkpt>
      <trkpt lat="43.92741" lon="5.1805">
        <ele>467.34</ele>
        <time>2014-11-01T09:43:48Z</time>
      </trkpt>
      <trkpt lat="43.92757" lon="5.18065">
        <ele>467.82</ele>
        <time>2014-11-01T09:44:04Z</time>
      </trkpt>
      <trkpt lat="43.92773" lon="5.18075">
        <ele>467.82</ele>
        <time>2014-11-01T09:44:20Z</time>
      </trkpt>
      <trkpt lat="43.92788" lon="5.1809">
        <ele>468.3</ele>
        <time>2014-11-01T09:44:36Z</time>
      </trkpt>
      <trkpt lat="43.92792" lon="5.18091">
        <ele>468.3</ele>
        <time>2014-11-01T09:44:39Z</time>
      </trkpt>
      <trkpt lat="43.92808" lon="5.18101">
        <ele>468.78</ele>
        <time>2014-11-01T09:44:55Z</time>
      </trkpt>
      <trkpt lat="43.92825" lon="5.18107">
        <ele>468.78</ele>
        <time>2014-11-01T09:45:10Z</time>
      </trkpt>
      <trkpt lat="43.92844" lon="5.18112">
        <ele>469.74</ele>
        <time>2014-11-01T09:45:28Z</time>
      </trkpt>
      <trkpt lat="43.92862" lon="5.18124">
        <ele>468.3</ele>
        <time>2014-11-01T09:45:46Z</time>
      </trkpt>
      <trkpt lat="43.92878" lon="5.1813">
        <ele>468.3</ele>
        <time>2014-11-01T09:46:03Z</time>
      </trkpt>
      <trkpt lat="43.92896" lon="5.18135">
        <ele>468.3</ele>
        <time>2014-11-01T09:46:19Z</time>
      </trkpt>
      <trkpt lat="43.92905" lon="5.18143">
        <ele>471.18</ele>
        <time>2014-11-01T09:46:33Z</time>
      </trkpt>
      <trkpt lat="43.92917" lon="5.18158">
        <ele>472.63</ele>
        <time>2014-11-01T09:46:48Z</time>
      </trkpt>
      <trkpt lat="43.92928" lon="5.1817">
        <ele>474.55</ele>
        <time>2014-11-01T09:47:05Z</time>
      </trkpt>
      <trkpt lat="43.9294" lon="5.18184">
        <ele>476.47</ele>
        <time>2014-11-01T09:47:22Z</time>
      </trkpt>
      <trkpt lat="43.92953" lon="5.18198">
        <ele>476.47</ele>
        <time>2014-11-01T09:47:37Z</time>
      </trkpt>
      <trkpt lat="43.92968" lon="5.18208">
        <ele>476.47</ele>
        <time>2014-11-01T09:47:53Z</time>
      </trkpt>
      <trkpt lat="43.92978" lon="5.18213">
        <ele>476.47</ele>
        <time>2014-11-01T09:48:04Z</time>
      </trkpt>
      <trkpt lat="43.92983" lon="5.18215">
        <ele>476.47</ele>
        <time>2014-11-01T09:48:08Z</time>
      </trkpt>
      <trkpt lat="43.92997" lon="5.18215">
        <ele>478.39</ele>
        <time>2014-11-01T09:48:23Z</time>
      </trkpt>
      <trkpt lat="43.9301" lon="5.18216">
        <ele>479.84</ele>
        <time>2014-11-01T09:48:38Z</time>
      </trkpt>
      <trkpt lat="43.93019" lon="5.18215">
        <ele>482.24</ele>
        <time>2014-11-01T09:48:51Z</time>
      </trkpt>
      <trkpt lat="43.93032" lon="5.1821">
        <ele>485.12</ele>
        <time>2014-11-01T09:49:07Z</time>
      </trkpt>
      <trkpt lat="43.93045" lon="5.18208">
        <ele>488.01</ele>
        <time>2014-11-01T09:49:23Z</time>
      </trkpt>
      <trkpt lat="43.93057" lon="5.18207">
        <ele>489.93</ele>
        <time>2014-11-01T09:49:38Z</time>
      </trkpt>
      <trkpt lat="43.93072" lon="5.18208">
        <ele>491.85</ele>
        <time>2014-11-01T09:49:54Z</time>
      </trkpt>
      <trkpt lat="43.93084" lon="5.1821">
        <ele>492.33</ele>
        <time>2014-11-01T09:50:07Z</time>
      </trkpt>
      <trkpt lat="43.93087" lon="5.18212">
        <ele>492.33</ele>
        <time>2014-11-01T09:50:11Z</time>
      </trkpt>
      <trkpt lat="43.93102" lon="5.18216">
        <ele>494.26</ele>
        <time>2014-11-01T09:50:26Z</time>
      </trkpt>
      <trkpt lat="43.93119" lon="5.1822">
        <ele>495.7</ele>
        <time>2014-11-01T09:50:42Z</time>
      </trkpt>
      <trkpt lat="43.93135" lon="5.18226">
        <ele>496.66</ele>
        <time>2014-11-01T09:50:58Z</time>
      </trkpt>
      <trkpt lat="43.93149" lon="5.18229">
        <ele>497.62</ele>
        <time>2014-11-01T09:51:13Z</time>
      </trkpt>
      <trkpt lat="43.93151" lon="5.18228">
        <ele>498.58</ele>
        <time>2014-11-01T09:51:15Z</time>
      </trkpt>
      <trkpt lat="43.93166" lon="5.18223">
        <ele>500.02</ele>
        <time>2014-11-01T09:51:31Z</time>
      </trkpt>
      <trkpt lat="43.93178" lon="5.18216">
        <ele>501.46</ele>
        <time>2014-11-01T09:51:45Z</time>
      </trkpt>
      <trkpt lat="43.9319" lon="5.18209">
        <ele>502.91</ele>
        <time>2014-11-01T09:51:58Z</time>
      </trkpt>
      <trkpt lat="43.932" lon="5.182">
        <ele>504.35</ele>
        <time>2014-11-01T09:52:10Z</time>
      </trkpt>
      <trkpt lat="43.9321" lon="5.18188">
        <ele>505.79</ele>
        <time>2014-11-01T09:52:25Z</time>
      </trkpt>
      <trkpt lat="43.93221" lon="5.18178">
        <ele>507.71</ele>
        <time>2014-11-01T09:52:38Z</time>
      </trkpt>
      <trkpt lat="43.93232" lon="5.18167">
        <ele>509.16</ele>
        <time>2014-11-01T09:52:52Z</time>
      </trkpt>
      <trkpt lat="43.93234" lon="5.18165">
        <ele>509.64</ele>
        <time>2014-11-01T09:52:55Z</time>
      </trkpt>
      <trkpt lat="43.93245" lon="5.18154">
        <ele>511.08</ele>
        <time>2014-11-01T09:53:08Z</time>
      </trkpt>
      <trkpt lat="43.93258" lon="5.18143">
        <ele>512.04</ele>
        <time>2014-11-01T09:53:24Z</time>
      </trkpt>
      <trkpt lat="43.93271" lon="5.18133">
        <ele>512.52</ele>
        <time>2014-11-01T09:53:38Z</time>
      </trkpt>
      <trkpt lat="43.93279" lon="5.18121">
        <ele>513.48</ele>
        <time>2014-11-01T09:53:52Z</time>
      </trkpt>
      <trkpt lat="43.93293" lon="5.18102">
        <ele>513.48</ele>
        <time>2014-11-01T09:54:08Z</time>
      </trkpt>
      <trkpt lat="43.93312" lon="5.18096">
        <ele>512.52</ele>
        <time>2014-11-01T09:54:25Z</time>
      </trkpt>
      <trkpt lat="43.93328" lon="5.181">
        <ele>512.52</ele>
        <time>2014-11-01T09:54:39Z</time>
      </trkpt>
      <trkpt lat="43.93335" lon="5.181">
        <ele>513.48</ele>
        <time>2014-11-01T09:54:46Z</time>
      </trkpt>
      <trkpt lat="43.93347" lon="5.18099">
        <ele>514.92</ele>
        <time>2014-11-01T09:55:01Z</time>
      </trkpt>
      <trkpt lat="43.93359" lon="5.18091">
        <ele>516.37</ele>
        <time>2014-11-01T09:55:16Z</time>
      </trkpt>
      <trkpt lat="43.93374" lon="5.18078">
        <ele>518.29</ele>
        <time>2014-11-01T09:55:31Z</time>
      </trkpt>
      <trkpt lat="43.93384" lon="5.18071">
        <ele>519.73</ele>
        <time>2014-11-01T09:55:44Z</time>
      </trkpt>
      <trkpt lat="43.93392" lon="5.18062">
        <ele>521.17</ele>
        <time>2014-11-01T09:55:57Z</time>
      </trkpt>
      <trkpt lat="43.93402" lon="5.1805">
        <ele>522.61</ele>
        <time>2014-11-01T09:56:12Z</time>
      </trkpt>
      <trkpt lat="43.93413" lon="5.18035">
        <ele>523.58</ele>
        <time>2014-11-01T09:56:27Z</time>
      </trkpt>
      <trkpt lat="43.93424" lon="5.18022">
        <ele>525.02</ele>
        <time>2014-11-01T09:56:41Z</time>
      </trkpt>
      <trkpt lat="43.93437" lon="5.18011">
        <ele>525.98</ele>
        <time>2014-11-01T09:56:56Z</time>
      </trkpt>
      <trkpt lat="43.9345" lon="5.18014">
        <ele>527.9</ele>
        <time>2014-11-01T09:57:10Z</time>
      </trkpt>
      <trkpt lat="43.93464" lon="5.18029">
        <ele>529.34</ele>
        <time>2014-11-01T09:57:28Z</time>
      </trkpt>
      <trkpt lat="43.93476" lon="5.18039">
        <ele>529.82</ele>
        <time>2014-11-01T09:57:42Z</time>
      </trkpt>
      <trkpt lat="43.93489" lon="5.18057">
        <ele>530.3</ele>
        <time>2014-11-01T09:57:56Z</time>
      </trkpt>
      <trkpt lat="43.93506" lon="5.18064">
        <ele>530.79</ele>
        <time>2014-11-01T09:58:12Z</time>
      </trkpt>
      <trkpt lat="43.93515" lon="5.18077">
        <ele>531.27</ele>
        <time>2014-11-01T09:58:25Z</time>
      </trkpt>
      <trkpt lat="43.93529" lon="5.18083">
        <ele>531.27</ele>
        <time>2014-11-01T09:58:39Z</time>
      </trkpt>
      <trkpt lat="43.93532" lon="5.18106">
        <ele>531.27</ele>
        <time>2014-11-01T09:58:54Z</time>
      </trkpt>
      <trkpt lat="43.93539" lon="5.18114">
        <ele>531.27</ele>
        <time>2014-11-01T09:59:07Z</time>
      </trkpt>
      <trkpt lat="43.93547" lon="5.18131">
        <ele>532.23</ele>
        <time>2014-11-01T09:59:21Z</time>
      </trkpt>
      <trkpt lat="43.93557" lon="5.18158">
        <ele>532.71</ele>
        <time>2014-11-01T09:59:37Z</time>
      </trkpt>
      <trkpt lat="43.93557" lon="5.18179">
        <ele>533.19</ele>
        <time>2014-11-01T09:59:51Z</time>
      </trkpt>
      <trkpt lat="43.93559" lon="5.18177">
        <ele>534.15</ele>
        <time>2014-11-01T10:00:02Z</time>
      </trkpt>
      <trkpt lat="43.93567" lon="5.18173">
        <ele>536.07</ele>
        <time>2014-11-01T10:00:15Z</time>
      </trkpt>
      <trkpt lat="43.93583" lon="5.18179">
        <ele>537.99</ele>
        <time>2014-11-01T10:00:30Z</time>
      </trkpt>
      <trkpt lat="43.93594" lon="5.18185">
        <ele>539.92</ele>
        <time>2014-11-01T10:00:43Z</time>
      </trkpt>
      <trkpt lat="43.93607" lon="5.18187">
        <ele>541.36</ele>
        <time>2014-11-01T10:00:56Z</time>
      </trkpt>
      <trkpt lat="43.93616" lon="5.1819">
        <ele>543.28</ele>
        <time>2014-11-01T10:01:11Z</time>
      </trkpt>
      <trkpt lat="43.93632" lon="5.18196">
        <ele>545.69</ele>
        <time>2014-11-01T10:01:26Z</time>
      </trkpt>
      <trkpt lat="43.93645" lon="5.18204">
        <ele>547.13</ele>
        <time>2014-11-01T10:01:41Z</time>
      </trkpt>
      <trkpt lat="43.93661" lon="5.18207">
        <ele>549.05</ele>
        <time>2014-11-01T10:01:57Z</time>
      </trkpt>
      <trkpt lat="43.93676" lon="5.18209">
        <ele>550.97</ele>
        <time>2014-11-01T10:02:12Z</time>
      </trkpt>
      <trkpt lat="43.93687" lon="5.1821">
        <ele>552.41</ele>
        <time>2014-11-01T10:02:25Z</time>
      </trkpt>
      <trkpt lat="43.93704" lon="5.1821">
        <ele>554.34</ele>
        <time>2014-11-01T10:02:42Z</time>
      </trkpt>
      <trkpt lat="43.93718" lon="5.18209">
        <ele>556.26</ele>
        <time>2014-11-01T10:02:56Z</time>
      </trkpt>
      <trkpt lat="43.93732" lon="5.1821">
        <ele>557.22</ele>
        <time>2014-11-01T10:03:11Z</time>
      </trkpt>
      <trkpt lat="43.93744" lon="5.18213">
        <ele>558.66</ele>
        <time>2014-11-01T10:03:28Z</time>
      </trkpt>
      <trkpt lat="43.93746" lon="5.18213">
        <ele>558.66</ele>
        <time>2014-11-01T10:03:30Z</time>
      </trkpt>
      <trkpt lat="43.9376" lon="5.18222">
        <ele>559.14</ele>
        <time>2014-11-01T10:03:46Z</time>
      </trkpt>
      <trkpt lat="43.93776" lon="5.18224">
        <ele>560.11</ele>
        <time>2014-11-01T10:04:03Z</time>
      </trkpt>
      <trkpt lat="43.93792" lon="5.18229">
        <ele>561.55</ele>
        <time>2014-11-01T10:04:20Z</time>
      </trkpt>
      <trkpt lat="43.9381" lon="5.18224">
        <ele>563.47</ele>
        <time>2014-11-01T10:04:39Z</time>
      </trkpt>
      <trkpt lat="43.93822" lon="5.18227">
        <ele>564.91</ele>
        <time>2014-11-01T10:04:52Z</time>
      </trkpt>
      <trkpt lat="43.93838" lon="5.18231">
        <ele>566.83</ele>
        <time>2014-11-01T10:05:06Z</time>
      </trkpt>
      <trkpt lat="43.93853" lon="5.18238">
        <ele>568.76</ele>
        <time>2014-11-01T10:05:23Z</time>
      </trkpt>
      <trkpt lat="43.9387" lon="5.18248">
        <ele>570.2</ele>
        <time>2014-11-01T10:05:41Z</time>
      </trkpt>
      <trkpt lat="43.93886" lon="5.18256">
        <ele>572.12</ele>
        <time>2014-11-01T10:05:56Z</time>
      </trkpt>
      <trkpt lat="43.93905" lon="5.18259">
        <ele>572.12</ele>
        <time>2014-11-01T10:06:15Z</time>
      </trkpt>
      <trkpt lat="43.93924" lon="5.18257">
        <ele>572.6</ele>
        <time>2014-11-01T10:06:31Z</time>
      </trkpt>
      <trkpt lat="43.93927" lon="5.18259">
        <ele>573.56</ele>
        <time>2014-11-01T10:06:35Z</time>
      </trkpt>
      <trkpt lat="43.93948" lon="5.18257">
        <ele>571.64</ele>
        <time>2014-11-01T10:06:52Z</time>
      </trkpt>
      <trkpt lat="43.93962" lon="5.18259">
        <ele>570.2</ele>
        <time>2014-11-01T10:07:12Z</time>
      </trkpt>
      <trkpt lat="43.93964" lon="5.18258">
        <ele>570.2</ele>
        <time>2014-11-01T10:07:32Z</time>
      </trkpt>
      <trkpt lat="43.93966" lon="5.1826">
        <ele>570.68</ele>
        <time>2014-11-01T10:08:05Z</time>
      </trkpt>
      <trkpt lat="43.93959" lon="5.18262">
        <ele>571.64</ele>
        <time>2014-11-01T10:08:22Z</time>
      </trkpt>
      <trkpt lat="43.93953" lon="5.18262">
        <ele>573.08</ele>
        <time>2014-11-01T10:08:29Z</time>
      </trkpt>
      <trkpt lat="43.93943" lon="5.18262">
        <ele>573.56</ele>
        <time>2014-11-01T10:08:43Z</time>
      </trkpt>
      <trkpt lat="43.93927" lon="5.18259">
        <ele>573.56</ele>
        <time>2014-11-01T10:08:57Z</time>
      </trkpt>
      <trkpt lat="43.93919" lon="5.1826">
        <ele>573.56</ele>
        <time>2014-11-01T10:09:19Z</time>
      </trkpt>
      <trkpt lat="43.93927" lon="5.18258">
        <ele>573.56</ele>
        <time>2014-11-01T10:09:51Z</time>
      </trkpt>
      <trkpt lat="43.93934" lon="5.18258">
        <ele>574.53</ele>
        <time>2014-11-01T10:10:06Z</time>
      </trkpt>
      <trkpt lat="43.93936" lon="5.18261">
        <ele>574.53</ele>
        <time>2014-11-01T10:10:32Z</time>
      </trkpt>
      <trkpt lat="43.93938" lon="5.18261">
        <ele>574.53</ele>
        <time>2014-11-01T10:10:59Z</time>
      </trkpt>
      <trkpt lat="43.93936" lon="5.1826">
        <ele>573.08</ele>
        <time>2014-11-01T10:11:20Z</time>
      </trkpt>
      <trkpt lat="43.93943" lon="5.18257">
        <ele>573.08</ele>
        <time>2014-11-01T10:11:39Z</time>
      </trkpt>
      <trkpt lat="43.93956" lon="5.18255">
        <ele>570.68</ele>
        <time>2014-11-01T10:11:53Z</time>
      </trkpt>
      <trkpt lat="43.93978" lon="5.1825">
        <ele>567.8</ele>
        <time>2014-11-01T10:12:11Z</time>
      </trkpt>
      <trkpt lat="43.93989" lon="5.18249">
        <ele>567.32</ele>
        <time>2014-11-01T10:12:24Z</time>
      </trkpt>
      <trkpt lat="43.93991" lon="5.18247">
        <ele>568.76</ele>
        <time>2014-11-01T10:12:27Z</time>
      </trkpt>
      <trkpt lat="43.93994" lon="5.18236">
        <ele>569.72</ele>
        <time>2014-11-01T10:12:45Z</time>
      </trkpt>
      <trkpt lat="43.94" lon="5.18246">
        <ele>568.28</ele>
        <time>2014-11-01T10:12:58Z</time>
      </trkpt>
      <trkpt lat="43.9401" lon="5.18251">
        <ele>566.83</ele>
        <time>2014-11-01T10:13:15Z</time>
      </trkpt>
      <trkpt lat="43.94023" lon="5.18247">
        <ele>566.83</ele>
        <time>2014-11-01T10:13:29Z</time>
      </trkpt>
      <trkpt lat="43.94036" lon="5.18237">
        <ele>566.83</ele>
        <time>2014-11-01T10:13:40Z</time>
      </trkpt>
      <trkpt lat="43.94054" lon="5.18231">
        <ele>568.76</ele>
        <time>2014-11-01T10:13:56Z</time>
      </trkpt>
      <trkpt lat="43.94071" lon="5.1823">
        <ele>569.72</ele>
        <time>2014-11-01T10:14:12Z</time>
      </trkpt>
      <trkpt lat="43.94087" lon="5.18232">
        <ele>571.16</ele>
        <time>2014-11-01T10:14:27Z</time>
      </trkpt>
      <trkpt lat="43.94104" lon="5.18237">
        <ele>573.08</ele>
        <time>2014-11-01T10:14:44Z</time>
      </trkpt>
      <trkpt lat="43.94118" lon="5.18239">
        <ele>574.53</ele>
        <time>2014-11-01T10:14:59Z</time>
      </trkpt>
      <trkpt lat="43.94136" lon="5.18236">
        <ele>576.93</ele>
        <time>2014-11-01T10:15:18Z</time>
      </trkpt>
      <trkpt lat="43.94154" lon="5.18233">
        <ele>577.89</ele>
        <time>2014-11-01T10:15:37Z</time>
      </trkpt>
      <trkpt lat="43.94177" lon="5.1823">
        <ele>579.33</ele>
        <time>2014-11-01T10:15:58Z</time>
      </trkpt>
      <trkpt lat="43.94194" lon="5.18224">
        <ele>581.25</ele>
        <time>2014-11-01T10:16:16Z</time>
      </trkpt>
      <trkpt lat="43.94205" lon="5.18234">
        <ele>581.73</ele>
        <time>2014-11-01T10:16:33Z</time>
      </trkpt>
      <trkpt lat="43.94214" lon="5.18227">
        <ele>582.7</ele>
        <time>2014-11-01T10:17:01Z</time>
      </trkpt>
      <trkpt lat="43.94214" lon="5.18227">
        <ele>582.7</ele>
        <time>2014-11-01T10:17:02Z</time>
      </trkpt>
      <trkpt lat="43.94234" lon="5.1822">
        <ele>585.1</ele>
        <time>2014-11-01T10:17:24Z</time>
      </trkpt>
      <trkpt lat="43.94248" lon="5.18215">
        <ele>587.02</ele>
        <time>2014-11-01T10:17:40Z</time>
      </trkpt>
      <trkpt lat="43.94265" lon="5.1821">
        <ele>589.91</ele>
        <time>2014-11-01T10:17:59Z</time>
      </trkpt>
      <trkpt lat="43.94284" lon="5.18199">
        <ele>591.83</ele>
        <time>2014-11-01T10:18:17Z</time>
      </trkpt>
      <trkpt lat="43.94304" lon="5.18187">
        <ele>593.27</ele>
        <time>2014-11-01T10:18:38Z</time>
      </trkpt>
      <trkpt lat="43.94324" lon="5.18181">
        <ele>595.19</ele>
        <time>2014-11-01T10:18:55Z</time>
      </trkpt>
      <trkpt lat="43.94337" lon="5.18179">
        <ele>597.12</ele>
        <time>2014-11-01T10:19:10Z</time>
      </trkpt>
      <trkpt lat="43.94338" lon="5.18178">
        <ele>597.12</ele>
        <time>2014-11-01T10:19:11Z</time>
      </trkpt>
      <trkpt lat="43.94344" lon="5.18176">
        <ele>597.6</ele>
        <time>2014-11-01T10:19:16Z</time>
      </trkpt>
      <trkpt lat="43.94364" lon="5.18175">
        <ele>599.04</ele>
        <time>2014-11-01T10:19:34Z</time>
      </trkpt>
      <trkpt lat="43.94385" lon="5.18169">
        <ele>600.96</ele>
        <time>2014-11-01T10:19:54Z</time>
      </trkpt>
      <trkpt lat="43.94399" lon="5.18163">
        <ele>601.92</ele>
        <time>2014-11-01T10:20:10Z</time>
      </trkpt>
      <trkpt lat="43.94424" lon="5.1815">
        <ele>603.85</ele>
        <time>2014-11-01T10:20:33Z</time>
      </trkpt>
      <trkpt lat="43.94443" lon="5.18128">
        <ele>605.29</ele>
        <time>2014-11-01T10:20:54Z</time>
      </trkpt>
      <trkpt lat="43.94448" lon="5.18118">
        <ele>605.77</ele>
        <time>2014-11-01T10:21:13Z</time>
      </trkpt>
      <trkpt lat="43.94451" lon="5.18124">
        <ele>606.25</ele>
        <time>2014-11-01T10:21:33Z</time>
      </trkpt>
      <trkpt lat="43.94462" lon="5.18119">
        <ele>606.25</ele>
        <time>2014-11-01T10:21:46Z</time>
      </trkpt>
      <trkpt lat="43.94463" lon="5.18118">
        <ele>606.25</ele>
        <time>2014-11-01T10:21:47Z</time>
      </trkpt>
      <trkpt lat="43.94478" lon="5.18111">
        <ele>606.25</ele>
        <time>2014-11-01T10:22:03Z</time>
      </trkpt>
      <trkpt lat="43.9449" lon="5.1811">
        <ele>604.81</ele>
        <time>2014-11-01T10:22:13Z</time>
      </trkpt>
      <trkpt lat="43.94495" lon="5.1811">
        <ele>604.81</ele>
        <time>2014-11-01T10:22:18Z</time>
      </trkpt>
      <trkpt lat="43.94503" lon="5.18107">
        <ele>604.81</ele>
        <time>2014-11-01T10:22:25Z</time>
      </trkpt>
      <trkpt lat="43.9452" lon="5.18102">
        <ele>604.81</ele>
        <time>2014-11-01T10:22:39Z</time>
      </trkpt>
      <trkpt lat="43.94539" lon="5.18098">
        <ele>604.81</ele>
        <time>2014-11-01T10:22:55Z</time>
      </trkpt>
      <trkpt lat="43.94553" lon="5.18096">
        <ele>604.33</ele>
        <time>2014-11-01T10:23:09Z</time>
      </trkpt>
      <trkpt lat="43.9457" lon="5.18095">
        <ele>605.77</ele>
        <time>2014-11-01T10:23:23Z</time>
      </trkpt>
      <trkpt lat="43.94584" lon="5.18092">
        <ele>605.77</ele>
        <time>2014-11-01T10:23:36Z</time>
      </trkpt>
      <trkpt lat="43.94595" lon="5.1809">
        <ele>606.25</ele>
        <time>2014-11-01T10:23:47Z</time>
      </trkpt>
      <trkpt lat="43.94611" lon="5.18091">
        <ele>606.73</ele>
        <time>2014-11-01T10:23:58Z</time>
      </trkpt>
      <trkpt lat="43.94627" lon="5.18091">
        <ele>606.73</ele>
        <time>2014-11-01T10:24:14Z</time>
      </trkpt>
      <trkpt lat="43.94645" lon="5.1809">
        <ele>606.73</ele>
        <time>2014-11-01T10:24:30Z</time>
      </trkpt>
      <trkpt lat="43.94655" lon="5.1809">
        <ele>606.73</ele>
        <time>2014-11-01T10:24:42Z</time>
      </trkpt>
      <trkpt lat="43.94671" lon="5.18092">
        <ele>607.21</ele>
        <time>2014-11-01T10:24:57Z</time>
      </trkpt>
      <trkpt lat="43.94686" lon="5.18093">
        <ele>607.21</ele>
        <time>2014-11-01T10:25:10Z</time>
      </trkpt>
      <trkpt lat="43.94706" lon="5.18094">
        <ele>607.69</ele>
        <time>2014-11-01T10:25:21Z</time>
      </trkpt>
      <trkpt lat="43.94723" lon="5.1809">
        <ele>608.17</ele>
        <time>2014-11-01T10:25:38Z</time>
      </trkpt>
      <trkpt lat="43.94738" lon="5.18091">
        <ele>608.65</ele>
        <time>2014-11-01T10:25:52Z</time>
      </trkpt>
      <trkpt lat="43.94759" lon="5.18089">
        <ele>608.65</ele>
        <time>2014-11-01T10:26:07Z</time>
      </trkpt>
      <trkpt lat="43.94778" lon="5.18087">
        <ele>609.13</ele>
        <time>2014-11-01T10:26:20Z</time>
      </trkpt>
      <trkpt lat="43.94795" lon="5.18085">
        <ele>609.61</ele>
        <time>2014-11-01T10:26:33Z</time>
      </trkpt>
      <trkpt lat="43.94813" lon="5.18083">
        <ele>609.61</ele>
        <time>2014-11-01T10:26:48Z</time>
      </trkpt>
      <trkpt lat="43.94831" lon="5.18087">
        <ele>609.61</ele>
        <time>2014-11-01T10:27:02Z</time>
      </trkpt>
      <trkpt lat="43.94846" lon="5.18088">
        <ele>609.13</ele>
        <time>2014-11-01T10:27:16Z</time>
      </trkpt>
      <trkpt lat="43.94856" lon="5.18085">
        <ele>609.13</ele>
        <time>2014-11-01T10:27:31Z</time>
      </trkpt>
      <trkpt lat="43.94875" lon="5.18085">
        <ele>609.13</ele>
        <time>2014-11-01T10:27:43Z</time>
      </trkpt>
      <trkpt lat="43.94888" lon="5.18089">
        <ele>609.13</ele>
        <time>2014-11-01T10:27:55Z</time>
      </trkpt>
      <trkpt lat="43.94901" lon="5.18092">
        <ele>609.61</ele>
        <time>2014-11-01T10:28:08Z</time>
      </trkpt>
      <trkpt lat="43.94922" lon="5.18095">
        <ele>610.09</ele>
        <time>2014-11-01T10:28:24Z</time>
      </trkpt>
      <trkpt lat="43.94937" lon="5.18103">
        <ele>610.09</ele>
        <time>2014-11-01T10:28:39Z</time>
      </trkpt>
      <trkpt lat="43.94949" lon="5.18108">
        <ele>610.57</ele>
        <time>2014-11-01T10:28:53Z</time>
      </trkpt>
      <trkpt lat="43.94953" lon="5.18108">
        <ele>610.57</ele>
        <time>2014-11-01T10:28:56Z</time>
      </trkpt>
      <trkpt lat="43.94975" lon="5.18113">
        <ele>610.57</ele>
        <time>2014-11-01T10:29:09Z</time>
      </trkpt>
      <trkpt lat="43.94996" lon="5.18117">
        <ele>611.06</ele>
        <time>2014-11-01T10:29:24Z</time>
      </trkpt>
      <trkpt lat="43.95012" lon="5.18118">
        <ele>611.06</ele>
        <time>2014-11-01T10:29:37Z</time>
      </trkpt>
      <trkpt lat="43.95028" lon="5.18116">
        <ele>611.06</ele>
        <time>2014-11-01T10:29:50Z</time>
      </trkpt>
      <trkpt lat="43.95048" lon="5.18122">
        <ele>611.54</ele>
        <time>2014-11-01T10:30:06Z</time>
      </trkpt>
      <trkpt lat="43.95053" lon="5.18123">
        <ele>611.54</ele>
        <time>2014-11-01T10:30:10Z</time>
      </trkpt>
      <trkpt lat="43.9507" lon="5.18122">
        <ele>612.02</ele>
        <time>2014-11-01T10:30:23Z</time>
      </trkpt>
      <trkpt lat="43.95089" lon="5.18122">
        <ele>612.02</ele>
        <time>2014-11-01T10:30:36Z</time>
      </trkpt>
      <trkpt lat="43.95105" lon="5.1812">
        <ele>611.54</ele>
        <time>2014-11-01T10:30:49Z</time>
      </trkpt>
      <trkpt lat="43.95123" lon="5.18119">
        <ele>612.02</ele>
        <time>2014-11-01T10:31:03Z</time>
      </trkpt>
      <trkpt lat="43.95137" lon="5.18117">
        <ele>612.5</ele>
        <time>2014-11-01T10:31:14Z</time>
      </trkpt>
      <trkpt lat="43.95158" lon="5.1812">
        <ele>612.5</ele>
        <time>2014-11-01T10:31:29Z</time>
      </trkpt>
      <trkpt lat="43.95176" lon="5.18124">
        <ele>612.5</ele>
        <time>2014-11-01T10:31:43Z</time>
      </trkpt>
      <trkpt lat="43.95184" lon="5.18123">
        <ele>612.5</ele>
        <time>2014-11-01T10:31:49Z</time>
      </trkpt>
      <trkpt lat="43.95203" lon="5.18122">
        <ele>612.98</ele>
        <time>2014-11-01T10:32:04Z</time>
      </trkpt>
      <trkpt lat="43.95213" lon="5.18122">
        <ele>613.46</ele>
        <time>2014-11-01T10:32:11Z</time>
      </trkpt>
      <trkpt lat="43.95231" lon="5.18112">
        <ele>613.46</ele>
        <time>2014-11-01T10:32:25Z</time>
      </trkpt>
      <trkpt lat="43.95238" lon="5.18091">
        <ele>613.46</ele>
        <time>2014-11-01T10:32:38Z</time>
      </trkpt>
      <trkpt lat="43.95239" lon="5.18079">
        <ele>613.46</ele>
        <time>2014-11-01T10:32:43Z</time>
      </trkpt>
      <trkpt lat="43.9524" lon="5.18051">
        <ele>613.94</ele>
        <time>2014-11-01T10:32:59Z</time>
      </trkpt>
      <trkpt lat="43.95244" lon="5.18036">
        <ele>614.42</ele>
        <time>2014-11-01T10:33:11Z</time>
      </trkpt>
      <trkpt lat="43.95249" lon="5.18004">
        <ele>614.42</ele>
        <time>2014-11-01T10:33:27Z</time>
      </trkpt>
      <trkpt lat="43.95254" lon="5.17973">
        <ele>615.38</ele>
        <time>2014-11-01T10:33:44Z</time>
      </trkpt>
      <trkpt lat="43.95254" lon="5.17969">
        <ele>615.38</ele>
        <time>2014-11-01T10:33:46Z</time>
      </trkpt>
      <trkpt lat="43.95258" lon="5.17943">
        <ele>615.86</ele>
        <time>2014-11-01T10:34:01Z</time>
      </trkpt>
      <trkpt lat="43.95258" lon="5.17917">
        <ele>616.34</ele>
        <time>2014-11-01T10:34:16Z</time>
      </trkpt>
      <trkpt lat="43.95265" lon="5.17891">
        <ele>616.82</ele>
        <time>2014-11-01T10:34:32Z</time>
      </trkpt>
      <trkpt lat="43.95272" lon="5.17873">
        <ele>617.3</ele>
        <time>2014-11-01T10:34:44Z</time>
      </trkpt>
      <trkpt lat="43.95276" lon="5.17854">
        <ele>617.78</ele>
        <time>2014-11-01T10:34:57Z</time>
      </trkpt>
      <trkpt lat="43.95276" lon="5.17845">
        <ele>617.78</ele>
        <time>2014-11-01T10:35:03Z</time>
      </trkpt>
      <trkpt lat="43.95274" lon="5.17837">
        <ele>617.3</ele>
        <time>2014-11-01T10:35:07Z</time>
      </trkpt>
      <trkpt lat="43.95269" lon="5.17802">
        <ele>617.78</ele>
        <time>2014-11-01T10:35:23Z</time>
      </trkpt>
      <trkpt lat="43.95261" lon="5.17768">
        <ele>617.78</ele>
        <time>2014-11-01T10:35:40Z</time>
      </trkpt>
      <trkpt lat="43.95261" lon="5.17767">
        <ele>617.78</ele>
        <time>2014-11-01T10:35:41Z</time>
      </trkpt>
      <trkpt lat="43.9526" lon="5.17737">
        <ele>617.3</ele>
        <time>2014-11-01T10:35:56Z</time>
      </trkpt>
      <trkpt lat="43.95267" lon="5.17711">
        <ele>617.3</ele>
        <time>2014-11-01T10:36:11Z</time>
      </trkpt>
      <trkpt lat="43.95286" lon="5.17697">
        <ele>617.3</ele>
        <time>2014-11-01T10:36:26Z</time>
      </trkpt>
      <trkpt lat="43.95291" lon="5.17697">
        <ele>617.3</ele>
        <time>2014-11-01T10:36:39Z</time>
      </trkpt>
      <trkpt lat="43.95292" lon="5.17696">
        <ele>617.3</ele>
        <time>2014-11-01T10:36:57Z</time>
      </trkpt>
      <trkpt lat="43.95292" lon="5.17695">
        <ele>617.3</ele>
        <time>2014-11-01T10:37:19Z</time>
      </trkpt>
      <trkpt lat="43.95292" lon="5.17696">
        <ele>617.3</ele>
        <time>2014-11-01T10:37:30Z</time>
      </trkpt>
      <trkpt lat="43.95313" lon="5.17684">
        <ele>615.86</ele>
        <time>2014-11-01T10:37:48Z</time>
      </trkpt>
      <trkpt lat="43.95331" lon="5.17671">
        <ele>615.86</ele>
        <time>2014-11-01T10:38:05Z</time>
      </trkpt>
      <trkpt lat="43.95344" lon="5.17644">
        <ele>614.42</ele>
        <time>2014-11-01T10:38:24Z</time>
      </trkpt>
      <trkpt lat="43.95357" lon="5.17608">
        <ele>613.94</ele>
        <time>2014-11-01T10:38:46Z</time>
      </trkpt>
      <trkpt lat="43.95363" lon="5.17589">
        <ele>613.94</ele>
        <time>2014-11-01T10:38:58Z</time>
      </trkpt>
      <trkpt lat="43.95378" lon="5.17565">
        <ele>613.46</ele>
        <time>2014-11-01T10:39:15Z</time>
      </trkpt>
      <trkpt lat="43.95394" lon="5.17544">
        <ele>612.5</ele>
        <time>2014-11-01T10:39:32Z</time>
      </trkpt>
      <trkpt lat="43.95415" lon="5.17522">
        <ele>611.54</ele>
        <time>2014-11-01T10:39:52Z</time>
      </trkpt>
      <trkpt lat="43.9543" lon="5.17508">
        <ele>610.57</ele>
        <time>2014-11-01T10:40:06Z</time>
      </trkpt>
      <trkpt lat="43.95446" lon="5.17483">
        <ele>609.13</ele>
        <time>2014-11-01T10:40:25Z</time>
      </trkpt>
      <trkpt lat="43.95456" lon="5.17465">
        <ele>607.69</ele>
        <time>2014-11-01T10:40:38Z</time>
      </trkpt>
      <trkpt lat="43.95463" lon="5.17459">
        <ele>606.73</ele>
        <time>2014-11-01T10:40:46Z</time>
      </trkpt>
      <trkpt lat="43.95481" lon="5.1746">
        <ele>605.29</ele>
        <time>2014-11-01T10:41:01Z</time>
      </trkpt>
      <trkpt lat="43.95489" lon="5.17458">
        <ele>604.33</ele>
        <time>2014-11-01T10:41:18Z</time>
      </trkpt>
      <trkpt lat="43.95488" lon="5.17456">
        <ele>604.33</ele>
        <time>2014-11-01T10:41:55Z</time>
      </trkpt>
      <trkpt lat="43.9549" lon="5.17455">
        <ele>604.33</ele>
        <time>2014-11-01T10:42:30Z</time>
      </trkpt>
      <trkpt lat="43.9549" lon="5.17456">
        <ele>604.33</ele>
        <time>2014-11-01T10:42:50Z</time>
      </trkpt>
      <trkpt lat="43.9549" lon="5.17458">
        <ele>604.33</ele>
        <time>2014-11-01T10:43:18Z</time>
      </trkpt>
      <trkpt lat="43.95488" lon="5.17456">
        <ele>604.33</ele>
        <time>2014-11-01T10:43:47Z</time>
      </trkpt>
      <trkpt lat="43.9549" lon="5.17455">
        <ele>605.77</ele>
        <time>2014-11-01T10:44:03Z</time>
      </trkpt>
      <trkpt lat="43.95491" lon="5.17452">
        <ele>604.33</ele>
        <time>2014-11-01T10:44:29Z</time>
      </trkpt>
      <trkpt lat="43.95492" lon="5.17455">
        <ele>604.33</ele>
        <time>2014-11-01T10:44:56Z</time>
      </trkpt>
      <trkpt lat="43.95496" lon="5.17457">
        <ele>604.33</ele>
        <time>2014-11-01T10:45:05Z</time>
      </trkpt>
      <trkpt lat="43.95504" lon="5.17457">
        <ele>603.85</ele>
        <time>2014-11-01T10:45:21Z</time>
      </trkpt>
      <trkpt lat="43.95508" lon="5.17455">
        <ele>603.85</ele>
        <time>2014-11-01T10:45:38Z</time>
      </trkpt>
      <trkpt lat="43.95509" lon="5.17451">
        <ele>603.36</ele>
        <time>2014-11-01T10:45:41Z</time>
      </trkpt>
      <trkpt lat="43.95511" lon="5.17433">
        <ele>602.4</ele>
        <time>2014-11-01T10:45:54Z</time>
      </trkpt>
      <trkpt lat="43.95516" lon="5.17429">
        <ele>600.96</ele>
        <time>2014-11-01T10:46:04Z</time>
      </trkpt>
      <trkpt lat="43.95527" lon="5.17423">
        <ele>599.04</ele>
        <time>2014-11-01T10:46:18Z</time>
      </trkpt>
      <trkpt lat="43.95538" lon="5.17416">
        <ele>596.15</ele>
        <time>2014-11-01T10:46:31Z</time>
      </trkpt>
      <trkpt lat="43.95548" lon="5.17402">
        <ele>594.23</ele>
        <time>2014-11-01T10:46:44Z</time>
      </trkpt>
      <trkpt lat="43.95553" lon="5.17396">
        <ele>593.75</ele>
        <time>2014-11-01T10:46:56Z</time>
      </trkpt>
      <trkpt lat="43.95555" lon="5.17387">
        <ele>593.27</ele>
        <time>2014-11-01T10:47:24Z</time>
      </trkpt>
      <trkpt lat="43.95556" lon="5.17377">
        <ele>592.79</ele>
        <time>2014-11-01T10:47:31Z</time>
      </trkpt>
      <trkpt lat="43.95564" lon="5.17355">
        <ele>591.83</ele>
        <time>2014-11-01T10:47:47Z</time>
      </trkpt>
      <trkpt lat="43.95572" lon="5.17338">
        <ele>591.35</ele>
        <time>2014-11-01T10:48:02Z</time>
      </trkpt>
      <trkpt lat="43.95575" lon="5.17328">
        <ele>590.87</ele>
        <time>2014-11-01T10:48:08Z</time>
      </trkpt>
      <trkpt lat="43.95581" lon="5.173">
        <ele>590.39</ele>
        <time>2014-11-01T10:48:25Z</time>
      </trkpt>
      <trkpt lat="43.95584" lon="5.17273">
        <ele>589.91</ele>
        <time>2014-11-01T10:48:42Z</time>
      </trkpt>
      <trkpt lat="43.95585" lon="5.17266">
        <ele>589.91</ele>
        <time>2014-11-01T10:48:46Z</time>
      </trkpt>
      <trkpt lat="43.9559" lon="5.1726">
        <ele>589.91</ele>
        <time>2014-11-01T10:48:59Z</time>
      </trkpt>
      <trkpt lat="43.95585" lon="5.17265">
        <ele>589.91</ele>
        <time>2014-11-01T10:49:22Z</time>
      </trkpt>
      <trkpt lat="43.95589" lon="5.17263">
        <ele>589.43</ele>
        <time>2014-11-01T10:49:50Z</time>
      </trkpt>
      <trkpt lat="43.95597" lon="5.17279">
        <ele>588.95</ele>
        <time>2014-11-01T10:50:05Z</time>
      </trkpt>
      <trkpt lat="43.95607" lon="5.17297">
        <ele>587.5</ele>
        <time>2014-11-01T10:50:21Z</time>
      </trkpt>
      <trkpt lat="43.95608" lon="5.17317">
        <ele>587.02</ele>
        <time>2014-11-01T10:50:35Z</time>
      </trkpt>
      <trkpt lat="43.9561" lon="5.17341">
        <ele>586.06</ele>
        <time>2014-11-01T10:50:48Z</time>
      </trkpt>
      <trkpt lat="43.95617" lon="5.17357">
        <ele>585.58</ele>
        <time>2014-11-01T10:51:01Z</time>
      </trkpt>
      <trkpt lat="43.95624" lon="5.17373">
        <ele>584.62</ele>
        <time>2014-11-01T10:51:13Z</time>
      </trkpt>
      <trkpt lat="43.95635" lon="5.17393">
        <ele>583.66</ele>
        <time>2014-11-01T10:51:27Z</time>
      </trkpt>
      <trkpt lat="43.95644" lon="5.17409">
        <ele>582.22</ele>
        <time>2014-11-01T10:51:41Z</time>
      </trkpt>
      <trkpt lat="43.95658" lon="5.17428">
        <ele>581.25</ele>
        <time>2014-11-01T10:51:55Z</time>
      </trkpt>
      <trkpt lat="43.95669" lon="5.17445">
        <ele>580.29</ele>
        <time>2014-11-01T10:52:10Z</time>
      </trkpt>
      <trkpt lat="43.95681" lon="5.17457">
        <ele>578.85</ele>
        <time>2014-11-01T10:52:26Z</time>
      </trkpt>
      <trkpt lat="43.95689" lon="5.17466">
        <ele>577.89</ele>
        <time>2014-11-01T10:52:33Z</time>
      </trkpt>
      <trkpt lat="43.95695" lon="5.17473">
        <ele>577.41</ele>
        <time>2014-11-01T10:52:39Z</time>
      </trkpt>
      <trkpt lat="43.95712" lon="5.17492">
        <ele>576.45</ele>
        <time>2014-11-01T10:52:56Z</time>
      </trkpt>
      <trkpt lat="43.95719" lon="5.1751">
        <ele>575.97</ele>
        <time>2014-11-01T10:53:09Z</time>
      </trkpt>
      <trkpt lat="43.95737" lon="5.1753">
        <ele>575.01</ele>
        <time>2014-11-01T10:53:26Z</time>
      </trkpt>
      <trkpt lat="43.95746" lon="5.17543">
        <ele>574.53</ele>
        <time>2014-11-01T10:53:39Z</time>
      </trkpt>
      <trkpt lat="43.95756" lon="5.17564">
        <ele>574.04</ele>
        <time>2014-11-01T10:53:54Z</time>
      </trkpt>
      <trkpt lat="43.95763" lon="5.17587">
        <ele>573.56</ele>
        <time>2014-11-01T10:54:11Z</time>
      </trkpt>
      <trkpt lat="43.95776" lon="5.17611">
        <ele>573.56</ele>
        <time>2014-11-01T10:54:27Z</time>
      </trkpt>
      <trkpt lat="43.95789" lon="5.17631">
        <ele>573.56</ele>
        <time>2014-11-01T10:54:42Z</time>
      </trkpt>
      <trkpt lat="43.95793" lon="5.17636">
        <ele>573.56</ele>
        <time>2014-11-01T10:54:46Z</time>
      </trkpt>
      <trkpt lat="43.95801" lon="5.17643">
        <ele>573.56</ele>
        <time>2014-11-01T10:54:53Z</time>
      </trkpt>
      <trkpt lat="43.95809" lon="5.17659">
        <ele>573.08</ele>
        <time>2014-11-01T10:55:04Z</time>
      </trkpt>
      <trkpt lat="43.95826" lon="5.17673">
        <ele>574.53</ele>
        <time>2014-11-01T10:55:20Z</time>
      </trkpt>
      <trkpt lat="43.95846" lon="5.17689">
        <ele>574.53</ele>
        <time>2014-11-01T10:55:38Z</time>
      </trkpt>
      <trkpt lat="43.95862" lon="5.17704">
        <ele>575.01</ele>
        <time>2014-11-01T10:55:56Z</time>
      </trkpt>
      <trkpt lat="43.95866" lon="5.17706">
        <ele>575.01</ele>
        <time>2014-11-01T10:56:00Z</time>
      </trkpt>
      <trkpt lat="43.95887" lon="5.1771">
        <ele>575.01</ele>
        <time>2014-11-01T10:56:17Z</time>
      </trkpt>
      <trkpt lat="43.95897" lon="5.1772">
        <ele>573.56</ele>
        <time>2014-11-01T10:56:28Z</time>
      </trkpt>
      <trkpt lat="43.95904" lon="5.1773">
        <ele>573.56</ele>
        <time>2014-11-01T10:56:38Z</time>
      </trkpt>
      <trkpt lat="43.95911" lon="5.17746">
        <ele>573.08</ele>
        <time>2014-11-01T10:56:50Z</time>
      </trkpt>
      <trkpt lat="43.95915" lon="5.17772">
        <ele>572.6</ele>
        <time>2014-11-01T10:57:07Z</time>
      </trkpt>
      <trkpt lat="43.95914" lon="5.17778">
        <ele>571.64</ele>
        <time>2014-11-01T10:57:11Z</time>
      </trkpt>
      <trkpt lat="43.9591" lon="5.17808">
        <ele>571.64</ele>
        <time>2014-11-01T10:57:29Z</time>
      </trkpt>
      <trkpt lat="43.95911" lon="5.17832">
        <ele>571.64</ele>
        <time>2014-11-01T10:57:44Z</time>
      </trkpt>
      <trkpt lat="43.95914" lon="5.17851">
        <ele>571.64</ele>
        <time>2014-11-01T10:57:56Z</time>
      </trkpt>
      <trkpt lat="43.95923" lon="5.17882">
        <ele>573.56</ele>
        <time>2014-11-01T10:58:16Z</time>
      </trkpt>
      <trkpt lat="43.95943" lon="5.17905">
        <ele>574.53</ele>
        <time>2014-11-01T10:58:35Z</time>
      </trkpt>
      <trkpt lat="43.95957" lon="5.17921">
        <ele>575.01</ele>
        <time>2014-11-01T10:58:50Z</time>
      </trkpt>
      <trkpt lat="43.95972" lon="5.1794">
        <ele>575.97</ele>
        <time>2014-11-01T10:59:06Z</time>
      </trkpt>
      <trkpt lat="43.95983" lon="5.17958">
        <ele>576.93</ele>
        <time>2014-11-01T10:59:21Z</time>
      </trkpt>
      <trkpt lat="43.95984" lon="5.1796">
        <ele>576.93</ele>
        <time>2014-11-01T10:59:22Z</time>
      </trkpt>
      <trkpt lat="43.95998" lon="5.17982">
        <ele>577.41</ele>
        <time>2014-11-01T10:59:40Z</time>
      </trkpt>
      <trkpt lat="43.96004" lon="5.1799">
        <ele>578.37</ele>
        <time>2014-11-01T10:59:55Z</time>
      </trkpt>
      <trkpt lat="43.96005" lon="5.17993">
        <ele>578.37</ele>
        <time>2014-11-01T11:00:22Z</time>
      </trkpt>
      <trkpt lat="43.96004" lon="5.17997">
        <ele>578.37</ele>
        <time>2014-11-01T11:00:51Z</time>
      </trkpt>
      <trkpt lat="43.96007" lon="5.17998">
        <ele>578.85</ele>
        <time>2014-11-01T11:01:27Z</time>
      </trkpt>
      <trkpt lat="43.96006" lon="5.17998">
        <ele>578.85</ele>
        <time>2014-11-01T11:01:57Z</time>
      </trkpt>
      <trkpt lat="43.96011" lon="5.18004">
        <ele>578.85</ele>
        <time>2014-11-01T11:02:11Z</time>
      </trkpt>
      <trkpt lat="43.96009" lon="5.18006">
        <ele>579.33</ele>
        <time>2014-11-01T11:02:37Z</time>
      </trkpt>
      <trkpt lat="43.9601" lon="5.18006">
        <ele>579.33</ele>
        <time>2014-11-01T11:03:08Z</time>
      </trkpt>
      <trkpt lat="43.96017" lon="5.18017">
        <ele>579.33</ele>
        <time>2014-11-01T11:03:20Z</time>
      </trkpt>
      <trkpt lat="43.96024" lon="5.18046">
        <ele>579.81</ele>
        <time>2014-11-01T11:03:40Z</time>
      </trkpt>
      <trkpt lat="43.96023" lon="5.18055">
        <ele>579.81</ele>
        <time>2014-11-01T11:03:53Z</time>
      </trkpt>
      <trkpt lat="43.96023" lon="5.18079">
        <ele>581.25</ele>
        <time>2014-11-01T11:04:09Z</time>
      </trkpt>
      <trkpt lat="43.96023" lon="5.18114">
        <ele>582.22</ele>
        <time>2014-11-01T11:04:30Z</time>
      </trkpt>
      <trkpt lat="43.96027" lon="5.18135">
        <ele>582.7</ele>
        <time>2014-11-01T11:04:46Z</time>
      </trkpt>
      <trkpt lat="43.9603" lon="5.18153">
        <ele>582.7</ele>
        <time>2014-11-01T11:05:04Z</time>
      </trkpt>
      <trkpt lat="43.96036" lon="5.18184">
        <ele>582.7</ele>
        <time>2014-11-01T11:05:23Z</time>
      </trkpt>
      <trkpt lat="43.96046" lon="5.18213">
        <ele>580.77</ele>
        <time>2014-11-01T11:05:41Z</time>
      </trkpt>
      <trkpt lat="43.96053" lon="5.18238">
        <ele>578.85</ele>
        <time>2014-11-01T11:05:58Z</time>
      </trkpt>
      <trkpt lat="43.96062" lon="5.18267">
        <ele>576.45</ele>
        <time>2014-11-01T11:06:17Z</time>
      </trkpt>
      <trkpt lat="43.96063" lon="5.1827">
        <ele>576.45</ele>
        <time>2014-11-01T11:06:19Z</time>
      </trkpt>
      <trkpt lat="43.9607" lon="5.18293">
        <ele>574.53</ele>
        <time>2014-11-01T11:06:35Z</time>
      </trkpt>
      <trkpt lat="43.96074" lon="5.18313">
        <ele>571.64</ele>
        <time>2014-11-01T11:06:50Z</time>
      </trkpt>
      <trkpt lat="43.96076" lon="5.18318">
        <ele>571.16</ele>
        <time>2014-11-01T11:06:54Z</time>
      </trkpt>
      <trkpt lat="43.9609" lon="5.1834">
        <ele>569.72</ele>
        <time>2014-11-01T11:07:11Z</time>
      </trkpt>
      <trkpt lat="43.96096" lon="5.18348">
        <ele>568.76</ele>
        <time>2014-11-01T11:07:18Z</time>
      </trkpt>
      <trkpt lat="43.96099" lon="5.18355">
        <ele>567.8</ele>
        <time>2014-11-01T11:07:23Z</time>
      </trkpt>
      <trkpt lat="43.96107" lon="5.1837">
        <ele>565.87</ele>
        <time>2014-11-01T11:07:35Z</time>
      </trkpt>
      <trkpt lat="43.96113" lon="5.18375">
        <ele>565.39</ele>
        <time>2014-11-01T11:07:41Z</time>
      </trkpt>
      <trkpt lat="43.96128" lon="5.18392">
        <ele>563.47</ele>
        <time>2014-11-01T11:07:58Z</time>
      </trkpt>
      <trkpt lat="43.96143" lon="5.18407">
        <ele>562.51</ele>
        <time>2014-11-01T11:08:14Z</time>
      </trkpt>
      <trkpt lat="43.9616" lon="5.18424">
        <ele>561.55</ele>
        <time>2014-11-01T11:08:31Z</time>
      </trkpt>
      <trkpt lat="43.96176" lon="5.1844">
        <ele>560.11</ele>
        <time>2014-11-01T11:08:48Z</time>
      </trkpt>
      <trkpt lat="43.9619" lon="5.18458">
        <ele>558.66</ele>
        <time>2014-11-01T11:09:04Z</time>
      </trkpt>
      <trkpt lat="43.96206" lon="5.18478">
        <ele>556.74</ele>
        <time>2014-11-01T11:09:22Z</time>
      </trkpt>
      <trkpt lat="43.96217" lon="5.18497">
        <ele>554.82</ele>
        <time>2014-11-01T11:09:38Z</time>
      </trkpt>
      <trkpt lat="43.96218" lon="5.18501">
        <ele>554.82</ele>
        <time>2014-11-01T11:09:41Z</time>
      </trkpt>
      <trkpt lat="43.96235" lon="5.18519">
        <ele>552.9</ele>
        <time>2014-11-01T11:10:00Z</time>
      </trkpt>
      <trkpt lat="43.96255" lon="5.18534">
        <ele>551.45</ele>
        <time>2014-11-01T11:10:19Z</time>
      </trkpt>
      <trkpt lat="43.96273" lon="5.18547">
        <ele>550.49</ele>
        <time>2014-11-01T11:10:36Z</time>
      </trkpt>
      <trkpt lat="43.96289" lon="5.18557">
        <ele>549.53</ele>
        <time>2014-11-01T11:10:52Z</time>
      </trkpt>
      <trkpt lat="43.96311" lon="5.18561">
        <ele>548.57</ele>
        <time>2014-11-01T11:11:09Z</time>
      </trkpt>
      <trkpt lat="43.96328" lon="5.18559">
        <ele>548.09</ele>
        <time>2014-11-01T11:11:24Z</time>
      </trkpt>
      <trkpt lat="43.96352" lon="5.18556">
        <ele>548.09</ele>
        <time>2014-11-01T11:11:43Z</time>
      </trkpt>
      <trkpt lat="43.96365" lon="5.18554">
        <ele>548.09</ele>
        <time>2014-11-01T11:11:53Z</time>
      </trkpt>
      <trkpt lat="43.96384" lon="5.18545">
        <ele>546.17</ele>
        <time>2014-11-01T11:12:11Z</time>
      </trkpt>
      <trkpt lat="43.96397" lon="5.18542">
        <ele>545.69</ele>
        <time>2014-11-01T11:12:23Z</time>
      </trkpt>
      <trkpt lat="43.96419" lon="5.1855">
        <ele>546.17</ele>
        <time>2014-11-01T11:12:41Z</time>
      </trkpt>
      <trkpt lat="43.96434" lon="5.18562">
        <ele>546.17</ele>
        <time>2014-11-01T11:12:56Z</time>
      </trkpt>
      <trkpt lat="43.96438" lon="5.18568">
        <ele>544.72</ele>
        <time>2014-11-01T11:13:01Z</time>
      </trkpt>
      <trkpt lat="43.96453" lon="5.18584">
        <ele>544.24</ele>
        <time>2014-11-01T11:13:17Z</time>
      </trkpt>
      <trkpt lat="43.96476" lon="5.18594">
        <ele>543.28</ele>
        <time>2014-11-01T11:13:35Z</time>
      </trkpt>
      <trkpt lat="43.96498" lon="5.186">
        <ele>541.84</ele>
        <time>2014-11-01T11:13:53Z</time>
      </trkpt>
      <trkpt lat="43.96502" lon="5.18601">
        <ele>541.84</ele>
        <time>2014-11-01T11:13:56Z</time>
      </trkpt>
      <trkpt lat="43.9652" lon="5.18602">
        <ele>541.36</ele>
        <time>2014-11-01T11:14:10Z</time>
      </trkpt>
      <trkpt lat="43.96545" lon="5.18602">
        <ele>539.92</ele>
        <time>2014-11-01T11:14:28Z</time>
      </trkpt>
      <trkpt lat="43.96555" lon="5.18604">
        <ele>539.44</ele>
        <time>2014-11-01T11:14:37Z</time>
      </trkpt>
      <trkpt lat="43.96571" lon="5.18603">
        <ele>539.44</ele>
        <time>2014-11-01T11:14:50Z</time>
      </trkpt>
      <trkpt lat="43.96589" lon="5.18608">
        <ele>538.96</ele>
        <time>2014-11-01T11:15:05Z</time>
      </trkpt>
      <trkpt lat="43.9659" lon="5.18609">
        <ele>538.96</ele>
        <time>2014-11-01T11:15:06Z</time>
      </trkpt>
      <trkpt lat="43.96607" lon="5.18617">
        <ele>538.48</ele>
        <time>2014-11-01T11:15:19Z</time>
      </trkpt>
      <trkpt lat="43.96627" lon="5.18627">
        <ele>537.51</ele>
        <time>2014-11-01T11:15:36Z</time>
      </trkpt>
      <trkpt lat="43.96639" lon="5.1863">
        <ele>537.03</ele>
        <time>2014-11-01T11:15:46Z</time>
      </trkpt>
      <trkpt lat="43.96653" lon="5.18634">
        <ele>536.55</ele>
        <time>2014-11-01T11:16:01Z</time>
      </trkpt>
      <trkpt lat="43.96667" lon="5.18639">
        <ele>535.11</ele>
        <time>2014-11-01T11:16:15Z</time>
      </trkpt>
      <trkpt lat="43.96673" lon="5.18639">
        <ele>535.11</ele>
        <time>2014-11-01T11:16:28Z</time>
      </trkpt>
      <trkpt lat="43.96675" lon="5.18639">
        <ele>535.11</ele>
        <time>2014-11-01T11:16:59Z</time>
      </trkpt>
      <trkpt lat="43.96692" lon="5.18648">
        <ele>533.67</ele>
        <time>2014-11-01T11:17:14Z</time>
      </trkpt>
      <trkpt lat="43.96709" lon="5.18667">
        <ele>531.75</ele>
        <time>2014-11-01T11:17:32Z</time>
      </trkpt>
      <trkpt lat="43.96723" lon="5.18682">
        <ele>529.34</ele>
        <time>2014-11-01T11:17:47Z</time>
      </trkpt>
      <trkpt lat="43.96738" lon="5.18697">
        <ele>526.94</ele>
        <time>2014-11-01T11:18:03Z</time>
      </trkpt>
      <trkpt lat="43.9675" lon="5.18711">
        <ele>524.54</ele>
        <time>2014-11-01T11:18:18Z</time>
      </trkpt>
      <trkpt lat="43.96766" lon="5.18724">
        <ele>522.13</ele>
        <time>2014-11-01T11:18:35Z</time>
      </trkpt>
      <trkpt lat="43.96779" lon="5.18738">
        <ele>520.69</ele>
        <time>2014-11-01T11:18:49Z</time>
      </trkpt>
      <trkpt lat="43.96781" lon="5.18744">
        <ele>520.21</ele>
        <time>2014-11-01T11:18:54Z</time>
      </trkpt>
      <trkpt lat="43.96779" lon="5.18756">
        <ele>518.77</ele>
        <time>2014-11-01T11:19:03Z</time>
      </trkpt>
      <trkpt lat="43.96774" lon="5.18778">
        <ele>515.4</ele>
        <time>2014-11-01T11:19:21Z</time>
      </trkpt>
      <trkpt lat="43.9677" lon="5.1879">
        <ele>514.44</ele>
        <time>2014-11-01T11:19:30Z</time>
      </trkpt>
      <trkpt lat="43.96764" lon="5.18814">
        <ele>512.04</ele>
        <time>2014-11-01T11:19:46Z</time>
      </trkpt>
      <trkpt lat="43.96764" lon="5.18817">
        <ele>512.04</ele>
        <time>2014-11-01T11:19:48Z</time>
      </trkpt>
      <trkpt lat="43.96763" lon="5.18838">
        <ele>510.12</ele>
        <time>2014-11-01T11:20:02Z</time>
      </trkpt>
      <trkpt lat="43.96763" lon="5.18841">
        <ele>509.64</ele>
        <time>2014-11-01T11:20:04Z</time>
      </trkpt>
      <trkpt lat="43.96757" lon="5.18859">
        <ele>507.71</ele>
        <time>2014-11-01T11:20:19Z</time>
      </trkpt>
      <trkpt lat="43.96749" lon="5.18872">
        <ele>505.79</ele>
        <time>2014-11-01T11:20:33Z</time>
      </trkpt>
      <trkpt lat="43.9674" lon="5.18892">
        <ele>504.35</ele>
        <time>2014-11-01T11:20:48Z</time>
      </trkpt>
      <trkpt lat="43.96739" lon="5.18896">
        <ele>504.35</ele>
        <time>2014-11-01T11:20:51Z</time>
      </trkpt>
      <trkpt lat="43.96729" lon="5.18916">
        <ele>504.35</ele>
        <time>2014-11-01T11:21:06Z</time>
      </trkpt>
      <trkpt lat="43.96721" lon="5.1894">
        <ele>505.79</ele>
        <time>2014-11-01T11:21:24Z</time>
      </trkpt>
      <trkpt lat="43.96712" lon="5.18961">
        <ele>506.27</ele>
        <time>2014-11-01T11:21:40Z</time>
      </trkpt>
      <trkpt lat="43.96697" lon="5.18988">
        <ele>508.19</ele>
        <time>2014-11-01T11:21:59Z</time>
      </trkpt>
      <trkpt lat="43.96694" lon="5.18994">
        <ele>508.67</ele>
        <time>2014-11-01T11:22:04Z</time>
      </trkpt>
      <trkpt lat="43.96686" lon="5.18999">
        <ele>509.16</ele>
        <time>2014-11-01T11:22:12Z</time>
      </trkpt>
      <trkpt lat="43.96672" lon="5.19005">
        <ele>510.12</ele>
        <time>2014-11-01T11:22:26Z</time>
      </trkpt>
      <trkpt lat="43.96664" lon="5.19019">
        <ele>512.04</ele>
        <time>2014-11-01T11:22:40Z</time>
      </trkpt>
      <trkpt lat="43.96659" lon="5.19032">
        <ele>513</ele>
        <time>2014-11-01T11:22:51Z</time>
      </trkpt>
      <trkpt lat="43.96648" lon="5.19049">
        <ele>514.44</ele>
        <time>2014-11-01T11:23:06Z</time>
      </trkpt>
      <trkpt lat="43.96636" lon="5.19066">
        <ele>515.4</ele>
        <time>2014-11-01T11:23:22Z</time>
      </trkpt>
      <trkpt lat="43.96623" lon="5.19078">
        <ele>515.88</ele>
        <time>2014-11-01T11:23:36Z</time>
      </trkpt>
      <trkpt lat="43.96607" lon="5.1909">
        <ele>516.37</ele>
        <time>2014-11-01T11:23:52Z</time>
      </trkpt>
      <trkpt lat="43.9659" lon="5.19098">
        <ele>516.85</ele>
        <time>2014-11-01T11:24:07Z</time>
      </trkpt>
      <trkpt lat="43.96572" lon="5.19106">
        <ele>516.85</ele>
        <time>2014-11-01T11:24:24Z</time>
      </trkpt>
      <trkpt lat="43.96565" lon="5.1911">
        <ele>516.85</ele>
        <time>2014-11-01T11:24:32Z</time>
      </trkpt>
      <trkpt lat="43.96553" lon="5.19123">
        <ele>517.33</ele>
        <time>2014-11-01T11:24:47Z</time>
      </trkpt>
      <trkpt lat="43.9655" lon="5.19122">
        <ele>517.33</ele>
        <time>2014-11-01T11:25:06Z</time>
      </trkpt>
      <trkpt lat="43.9655" lon="5.19121">
        <ele>517.33</ele>
        <time>2014-11-01T11:25:08Z</time>
      </trkpt>
      <trkpt lat="43.96544" lon="5.1912">
        <ele>517.33</ele>
        <time>2014-11-01T11:25:13Z</time>
      </trkpt>
      <trkpt lat="43.96526" lon="5.1912">
        <ele>517.33</ele>
        <time>2014-11-01T11:25:31Z</time>
      </trkpt>
      <trkpt lat="43.96508" lon="5.19122">
        <ele>519.73</ele>
        <time>2014-11-01T11:25:49Z</time>
      </trkpt>
      <trkpt lat="43.96492" lon="5.19129">
        <ele>522.13</ele>
        <time>2014-11-01T11:26:06Z</time>
      </trkpt>
      <trkpt lat="43.96476" lon="5.19135">
        <ele>522.61</ele>
        <time>2014-11-01T11:26:22Z</time>
      </trkpt>
      <trkpt lat="43.9646" lon="5.19146">
        <ele>523.58</ele>
        <time>2014-11-01T11:26:38Z</time>
      </trkpt>
      <trkpt lat="43.96443" lon="5.19154">
        <ele>523.58</ele>
        <time>2014-11-01T11:26:54Z</time>
      </trkpt>
      <trkpt lat="43.96428" lon="5.19166">
        <ele>524.06</ele>
        <time>2014-11-01T11:27:10Z</time>
      </trkpt>
      <trkpt lat="43.96422" lon="5.1917">
        <ele>524.06</ele>
        <time>2014-11-01T11:27:15Z</time>
      </trkpt>
      <trkpt lat="43.96402" lon="5.19179">
        <ele>524.06</ele>
        <time>2014-11-01T11:27:32Z</time>
      </trkpt>
      <trkpt lat="43.96386" lon="5.19184">
        <ele>521.65</ele>
        <time>2014-11-01T11:27:47Z</time>
      </trkpt>
      <trkpt lat="43.96375" lon="5.19194">
        <ele>521.65</ele>
        <time>2014-11-01T11:27:57Z</time>
      </trkpt>
      <trkpt lat="43.96365" lon="5.19203">
        <ele>522.61</ele>
        <time>2014-11-01T11:28:12Z</time>
      </trkpt>
      <trkpt lat="43.96357" lon="5.19206">
        <ele>522.61</ele>
        <time>2014-11-01T11:28:22Z</time>
      </trkpt>
      <trkpt lat="43.96348" lon="5.19211">
        <ele>522.61</ele>
        <time>2014-11-01T11:28:31Z</time>
      </trkpt>
      <trkpt lat="43.96327" lon="5.19229">
        <ele>523.09</ele>
        <time>2014-11-01T11:28:53Z</time>
      </trkpt>
      <trkpt lat="43.96305" lon="5.19241">
        <ele>523.58</ele>
        <time>2014-11-01T11:29:14Z</time>
      </trkpt>
      <trkpt lat="43.96289" lon="5.19248">
        <ele>525.02</ele>
        <time>2014-11-01T11:29:31Z</time>
      </trkpt>
      <trkpt lat="43.96272" lon="5.19256">
        <ele>525.5</ele>
        <time>2014-11-01T11:29:46Z</time>
      </trkpt>
      <trkpt lat="43.96271" lon="5.19256">
        <ele>525.5</ele>
        <time>2014-11-01T11:29:47Z</time>
      </trkpt>
      <trkpt lat="43.96252" lon="5.19266">
        <ele>526.46</ele>
        <time>2014-11-01T11:30:03Z</time>
      </trkpt>
      <trkpt lat="43.96247" lon="5.19268">
        <ele>526.94</ele>
        <time>2014-11-01T11:30:08Z</time>
      </trkpt>
      <trkpt lat="43.96227" lon="5.19278">
        <ele>527.9</ele>
        <time>2014-11-01T11:30:26Z</time>
      </trkpt>
      <trkpt lat="43.96209" lon="5.19288">
        <ele>529.34</ele>
        <time>2014-11-01T11:30:42Z</time>
      </trkpt>
      <trkpt lat="43.96192" lon="5.19292">
        <ele>530.3</ele>
        <time>2014-11-01T11:30:58Z</time>
      </trkpt>
      <trkpt lat="43.96173" lon="5.19295">
        <ele>531.27</ele>
        <time>2014-11-01T11:31:13Z</time>
      </trkpt>
      <trkpt lat="43.96153" lon="5.19299">
        <ele>532.23</ele>
        <time>2014-11-01T11:31:30Z</time>
      </trkpt>
      <trkpt lat="43.96137" lon="5.19302">
        <ele>534.63</ele>
        <time>2014-11-01T11:31:46Z</time>
      </trkpt>
      <trkpt lat="43.96129" lon="5.19305">
        <ele>536.07</ele>
        <time>2014-11-01T11:31:59Z</time>
      </trkpt>
      <trkpt lat="43.96113" lon="5.19312">
        <ele>537.99</ele>
        <time>2014-11-01T11:32:16Z</time>
      </trkpt>
      <trkpt lat="43.96095" lon="5.19319">
        <ele>538.48</ele>
        <time>2014-11-01T11:32:33Z</time>
      </trkpt>
      <trkpt lat="43.96077" lon="5.19326">
        <ele>539.92</ele>
        <time>2014-11-01T11:32:50Z</time>
      </trkpt>
      <trkpt lat="43.96068" lon="5.19329">
        <ele>540.4</ele>
        <time>2014-11-01T11:33:05Z</time>
      </trkpt>
      <trkpt lat="43.96059" lon="5.19329">
        <ele>541.36</ele>
        <time>2014-11-01T11:33:21Z</time>
      </trkpt>
      <trkpt lat="43.96054" lon="5.19338">
        <ele>541.84</ele>
        <time>2014-11-01T11:33:35Z</time>
      </trkpt>
      <trkpt lat="43.96053" lon="5.19338">
        <ele>541.36</ele>
        <time>2014-11-01T11:33:36Z</time>
      </trkpt>
      <trkpt lat="43.96046" lon="5.19348">
        <ele>542.8</ele>
        <time>2014-11-01T11:33:52Z</time>
      </trkpt>
      <trkpt lat="43.96045" lon="5.1935">
        <ele>543.28</ele>
        <time>2014-11-01T11:34:13Z</time>
      </trkpt>
      <trkpt lat="43.96045" lon="5.19351">
        <ele>543.76</ele>
        <time>2014-11-01T11:34:48Z</time>
      </trkpt>
      <trkpt lat="43.96046" lon="5.19349">
        <ele>543.76</ele>
        <time>2014-11-01T11:35:18Z</time>
      </trkpt>
      <trkpt lat="43.96045" lon="5.1935">
        <ele>542.8</ele>
        <time>2014-11-01T11:35:34Z</time>
      </trkpt>
      <trkpt lat="43.96047" lon="5.19348">
        <ele>542.32</ele>
        <time>2014-11-01T11:36:15Z</time>
      </trkpt>
      <trkpt lat="43.96044" lon="5.19348">
        <ele>542.32</ele>
        <time>2014-11-01T11:37:03Z</time>
      </trkpt>
      <trkpt lat="43.96045" lon="5.19348">
        <ele>542.32</ele>
        <time>2014-11-01T11:37:49Z</time>
      </trkpt>
      <trkpt lat="43.96045" lon="5.19349">
        <ele>542.32</ele>
        <time>2014-11-01T11:38:34Z</time>
      </trkpt>
      <trkpt lat="43.96046" lon="5.19347">
        <ele>542.32</ele>
        <time>2014-11-01T11:39:16Z</time>
      </trkpt>
      <trkpt lat="43.96046" lon="5.19348">
        <ele>542.8</ele>
        <time>2014-11-01T11:40:02Z</time>
      </trkpt>
      <trkpt lat="43.96046" lon="5.19346">
        <ele>542.8</ele>
        <time>2014-11-01T11:40:49Z</time>
      </trkpt>
      <trkpt lat="43.96046" lon="5.19347">
        <ele>542.8</ele>
        <time>2014-11-01T11:41:27Z</time>
      </trkpt>
      <trkpt lat="43.96045" lon="5.19347">
        <ele>542.8</ele>
        <time>2014-11-01T11:42:04Z</time>
      </trkpt>
      <trkpt lat="43.96047" lon="5.19348">
        <ele>542.8</ele>
        <time>2014-11-01T11:42:45Z</time>
      </trkpt>
      <trkpt lat="43.96044" lon="5.19348">
        <ele>542.8</ele>
        <time>2014-11-01T11:43:31Z</time>
      </trkpt>
      <trkpt lat="43.96045" lon="5.19348">
        <ele>542.8</ele>
        <time>2014-11-01T11:44:07Z</time>
      </trkpt>
      <trkpt lat="43.96045" lon="5.19349">
        <ele>542.8</ele>
        <time>2014-11-01T11:44:40Z</time>
      </trkpt>
      <trkpt lat="43.96046" lon="5.19347">
        <ele>542.8</ele>
        <time>2014-11-01T11:45:16Z</time>
      </trkpt>
      <trkpt lat="43.96045" lon="5.19347">
        <ele>542.8</ele>
        <time>2014-11-01T11:45:58Z</time>
      </trkpt>
      <trkpt lat="43.96046" lon="5.19348">
        <ele>543.28</ele>
        <time>2014-11-01T11:46:26Z</time>
      </trkpt>
      <trkpt lat="43.96045" lon="5.19347">
        <ele>543.28</ele>
        <time>2014-11-01T11:47:01Z</time>
      </trkpt>
      <trkpt lat="43.96046" lon="5.19349">
        <ele>543.28</ele>
        <time>2014-11-01T11:47:31Z</time>
      </trkpt>
      <trkpt lat="43.96045" lon="5.19349">
        <ele>543.28</ele>
        <time>2014-11-01T11:48:10Z</time>
      </trkpt>
      <trkpt lat="43.96045" lon="5.19349">
        <ele>543.28</ele>
        <time>2014-11-01T11:48:42Z</time>
      </trkpt>
      <trkpt lat="43.96043" lon="5.19347">
        <ele>543.28</ele>
        <time>2014-11-01T11:49:20Z</time>
      </trkpt>
      <trkpt lat="43.96043" lon="5.19348">
        <ele>543.28</ele>
        <time>2014-11-01T11:49:50Z</time>
      </trkpt>
      <trkpt lat="43.96041" lon="5.19347">
        <ele>543.28</ele>
        <time>2014-11-01T11:50:08Z</time>
      </trkpt>
      <trkpt lat="43.96042" lon="5.19348">
        <ele>543.28</ele>
        <time>2014-11-01T11:50:36Z</time>
      </trkpt>
      <trkpt lat="43.96041" lon="5.19348">
        <ele>542.8</ele>
        <time>2014-11-01T11:51:04Z</time>
      </trkpt>
      <trkpt lat="43.96042" lon="5.19347">
        <ele>542.8</ele>
        <time>2014-11-01T11:51:25Z</time>
      </trkpt>
      <trkpt lat="43.96044" lon="5.19348">
        <ele>542.8</ele>
        <time>2014-11-01T11:51:49Z</time>
      </trkpt>
      <trkpt lat="43.96044" lon="5.19348">
        <ele>542.8</ele>
        <time>2014-11-01T11:52:15Z</time>
      </trkpt>
      <trkpt lat="43.96042" lon="5.19347">
        <ele>542.8</ele>
        <time>2014-11-01T11:52:40Z</time>
      </trkpt>
      <trkpt lat="43.96041" lon="5.19347">
        <ele>542.8</ele>
        <time>2014-11-01T11:53:01Z</time>
      </trkpt>
      <trkpt lat="43.96041" lon="5.19348">
        <ele>542.8</ele>
        <time>2014-11-01T11:53:22Z</time>
      </trkpt>
      <trkpt lat="43.96042" lon="5.19347">
        <ele>542.8</ele>
        <time>2014-11-01T11:53:44Z</time>
      </trkpt>
      <trkpt lat="43.96045" lon="5.1935">
        <ele>542.8</ele>
        <time>2014-11-01T11:54:08Z</time>
      </trkpt>
      <trkpt lat="43.96045" lon="5.19347">
        <ele>542.8</ele>
        <time>2014-11-01T11:54:40Z</time>
      </trkpt>
      <trkpt lat="43.96047" lon="5.19348">
        <ele>542.8</ele>
        <time>2014-11-01T11:55:09Z</time>
      </trkpt>
      <trkpt lat="43.96047" lon="5.1935">
        <ele>542.8</ele>
        <time>2014-11-01T11:55:39Z</time>
      </trkpt>
      <trkpt lat="43.96045" lon="5.19351">
        <ele>542.8</ele>
        <time>2014-11-01T11:56:11Z</time>
      </trkpt>
      <trkpt lat="43.96045" lon="5.19348">
        <ele>542.8</ele>
        <time>2014-11-01T11:56:45Z</time>
      </trkpt>
      <trkpt lat="43.96044" lon="5.19349">
        <ele>542.8</ele>
        <time>2014-11-01T11:57:18Z</time>
      </trkpt>
      <trkpt lat="43.96043" lon="5.19347">
        <ele>542.8</ele>
        <time>2014-11-01T11:57:52Z</time>
      </trkpt>
      <trkpt lat="43.96044" lon="5.19348">
        <ele>542.8</ele>
        <time>2014-11-01T11:58:22Z</time>
      </trkpt>
      <trkpt lat="43.96046" lon="5.19349">
        <ele>542.8</ele>
        <time>2014-11-01T11:58:56Z</time>
      </trkpt>
      <trkpt lat="43.96043" lon="5.19347">
        <ele>542.8</ele>
        <time>2014-11-01T11:59:27Z</time>
      </trkpt>
      <trkpt lat="43.96044" lon="5.19348">
        <ele>542.32</ele>
        <time>2014-11-01T11:59:57Z</time>
      </trkpt>
      <trkpt lat="43.96044" lon="5.19347">
        <ele>542.32</ele>
        <time>2014-11-01T12:00:35Z</time>
      </trkpt>
      <trkpt lat="43.96043" lon="5.19347">
        <ele>542.32</ele>
        <time>2014-11-01T12:01:08Z</time>
      </trkpt>
      <trkpt lat="43.96044" lon="5.19347">
        <ele>542.32</ele>
        <time>2014-11-01T12:01:43Z</time>
      </trkpt>
      <trkpt lat="43.96045" lon="5.19348">
        <ele>542.32</ele>
        <time>2014-11-01T12:02:11Z</time>
      </trkpt>
      <trkpt lat="43.96045" lon="5.19347">
        <ele>542.32</ele>
        <time>2014-11-01T12:02:53Z</time>
      </trkpt>
      <trkpt lat="43.96045" lon="5.19348">
        <ele>542.32</ele>
        <time>2014-11-01T12:03:24Z</time>
      </trkpt>
      <trkpt lat="43.96045" lon="5.1935">
        <ele>542.32</ele>
        <time>2014-11-01T12:03:58Z</time>
      </trkpt>
      <trkpt lat="43.96046" lon="5.19348">
        <ele>542.32</ele>
        <time>2014-11-01T12:04:40Z</time>
      </trkpt>
      <trkpt lat="43.96046" lon="5.1935">
        <ele>542.32</ele>
        <time>2014-11-01T12:05:28Z</time>
      </trkpt>
      <trkpt lat="43.96045" lon="5.19348">
        <ele>542.8</ele>
        <time>2014-11-01T12:06:03Z</time>
      </trkpt>
      <trkpt lat="43.96045" lon="5.19348">
        <ele>542.8</ele>
        <time>2014-11-01T12:06:45Z</time>
      </trkpt>
      <trkpt lat="43.96046" lon="5.19348">
        <ele>542.8</ele>
        <time>2014-11-01T12:07:27Z</time>
      </trkpt>
      <trkpt lat="43.96047" lon="5.19349">
        <ele>542.8</ele>
        <time>2014-11-01T12:08:05Z</time>
      </trkpt>
      <trkpt lat="43.96047" lon="5.19347">
        <ele>542.8</ele>
        <time>2014-11-01T12:08:51Z</time>
      </trkpt>
      <trkpt lat="43.96045" lon="5.19348">
        <ele>542.8</ele>
        <time>2014-11-01T12:09:36Z</time>
      </trkpt>
      <trkpt lat="43.96046" lon="5.19349">
        <ele>542.8</ele>
        <time>2014-11-01T12:10:27Z</time>
      </trkpt>
      <trkpt lat="43.96047" lon="5.1935">
        <ele>543.76</ele>
        <time>2014-11-01T12:11:05Z</time>
      </trkpt>
      <trkpt lat="43.96044" lon="5.19354">
        <ele>544.72</ele>
        <time>2014-11-01T12:11:23Z</time>
      </trkpt>
      <trkpt lat="43.96043" lon="5.19356">
        <ele>544.72</ele>
        <time>2014-11-01T12:11:57Z</time>
      </trkpt>
      <trkpt lat="43.96045" lon="5.19348">
        <ele>544.72</ele>
        <time>2014-11-01T12:12:12Z</time>
      </trkpt>
      <trkpt lat="43.96046" lon="5.19349">
        <ele>544.72</ele>
        <time>2014-11-01T12:12:42Z</time>
      </trkpt>
      <trkpt lat="43.96037" lon="5.1935">
        <ele>544.72</ele>
        <time>2014-11-01T12:12:59Z</time>
      </trkpt>
      <trkpt lat="43.96027" lon="5.19348">
        <ele>545.2</ele>
        <time>2014-11-01T12:13:13Z</time>
      </trkpt>
      <trkpt lat="43.96016" lon="5.19347">
        <ele>546.17</ele>
        <time>2014-11-01T12:13:26Z</time>
      </trkpt>
      <trkpt lat="43.96003" lon="5.19351">
        <ele>546.65</ele>
        <time>2014-11-01T12:13:40Z</time>
      </trkpt>
      <trkpt lat="43.95997" lon="5.19354">
        <ele>547.61</ele>
        <time>2014-11-01T12:13:46Z</time>
      </trkpt>
      <trkpt lat="43.95984" lon="5.19358">
        <ele>549.05</ele>
        <time>2014-11-01T12:14:00Z</time>
      </trkpt>
      <trkpt lat="43.95972" lon="5.19363">
        <ele>550.01</ele>
        <time>2014-11-01T12:14:13Z</time>
      </trkpt>
      <trkpt lat="43.9597" lon="5.19364">
        <ele>550.01</ele>
        <time>2014-11-01T12:14:15Z</time>
      </trkpt>
      <trkpt lat="43.95968" lon="5.19365">
        <ele>550.01</ele>
        <time>2014-11-01T12:14:17Z</time>
      </trkpt>
      <trkpt lat="43.95956" lon="5.19369">
        <ele>551.45</ele>
        <time>2014-11-01T12:14:30Z</time>
      </trkpt>
      <trkpt lat="43.95943" lon="5.19369">
        <ele>552.9</ele>
        <time>2014-11-01T12:14:44Z</time>
      </trkpt>
      <trkpt lat="43.9593" lon="5.19368">
        <ele>554.34</ele>
        <time>2014-11-01T12:14:59Z</time>
      </trkpt>
      <trkpt lat="43.95915" lon="5.19375">
        <ele>555.78</ele>
        <time>2014-11-01T12:15:15Z</time>
      </trkpt>
      <trkpt lat="43.95902" lon="5.19381">
        <ele>556.74</ele>
        <time>2014-11-01T12:15:29Z</time>
      </trkpt>
      <trkpt lat="43.95891" lon="5.19389">
        <ele>557.7</ele>
        <time>2014-11-01T12:15:43Z</time>
      </trkpt>
      <trkpt lat="43.95878" lon="5.19399">
        <ele>559.14</ele>
        <time>2014-11-01T12:15:58Z</time>
      </trkpt>
      <trkpt lat="43.95869" lon="5.1941">
        <ele>560.11</ele>
        <time>2014-11-01T12:16:13Z</time>
      </trkpt>
      <trkpt lat="43.95862" lon="5.19425">
        <ele>562.03</ele>
        <time>2014-11-01T12:16:28Z</time>
      </trkpt>
      <trkpt lat="43.95853" lon="5.1944">
        <ele>563.95</ele>
        <time>2014-11-01T12:16:44Z</time>
      </trkpt>
      <trkpt lat="43.95845" lon="5.19454">
        <ele>565.39</ele>
        <time>2014-11-01T12:16:59Z</time>
      </trkpt>
      <trkpt lat="43.95836" lon="5.19468">
        <ele>566.83</ele>
        <time>2014-11-01T12:17:15Z</time>
      </trkpt>
      <trkpt lat="43.95832" lon="5.19485">
        <ele>568.76</ele>
        <time>2014-11-01T12:17:32Z</time>
      </trkpt>
      <trkpt lat="43.95826" lon="5.19502">
        <ele>570.68</ele>
        <time>2014-11-01T12:17:48Z</time>
      </trkpt>
      <trkpt lat="43.95826" lon="5.19517">
        <ele>572.6</ele>
        <time>2014-11-01T12:18:02Z</time>
      </trkpt>
      <trkpt lat="43.95827" lon="5.19533">
        <ele>574.04</ele>
        <time>2014-11-01T12:18:16Z</time>
      </trkpt>
      <trkpt lat="43.9583" lon="5.1955">
        <ele>576.45</ele>
        <time>2014-11-01T12:18:32Z</time>
      </trkpt>
      <trkpt lat="43.95832" lon="5.19564">
        <ele>578.37</ele>
        <time>2014-11-01T12:18:46Z</time>
      </trkpt>
      <trkpt lat="43.95835" lon="5.19582">
        <ele>579.81</ele>
        <time>2014-11-01T12:19:02Z</time>
      </trkpt>
      <trkpt lat="43.95833" lon="5.19596">
        <ele>581.73</ele>
        <time>2014-11-01T12:19:16Z</time>
      </trkpt>
      <trkpt lat="43.9583" lon="5.19614">
        <ele>584.14</ele>
        <time>2014-11-01T12:19:32Z</time>
      </trkpt>
      <trkpt lat="43.95832" lon="5.1963">
        <ele>586.06</ele>
        <time>2014-11-01T12:19:47Z</time>
      </trkpt>
      <trkpt lat="43.95836" lon="5.19647">
        <ele>587.5</ele>
        <time>2014-11-01T12:20:02Z</time>
      </trkpt>
      <trkpt lat="43.95842" lon="5.1966">
        <ele>588.95</ele>
        <time>2014-11-01T12:20:16Z</time>
      </trkpt>
      <trkpt lat="43.95847" lon="5.19676">
        <ele>590.87</ele>
        <time>2014-11-01T12:20:30Z</time>
      </trkpt>
      <trkpt lat="43.95849" lon="5.19691">
        <ele>592.31</ele>
        <time>2014-11-01T12:20:44Z</time>
      </trkpt>
      <trkpt lat="43.95855" lon="5.19709">
        <ele>594.23</ele>
        <time>2014-11-01T12:21:01Z</time>
      </trkpt>
      <trkpt lat="43.9586" lon="5.19725">
        <ele>596.15</ele>
        <time>2014-11-01T12:21:16Z</time>
      </trkpt>
      <trkpt lat="43.95864" lon="5.1974">
        <ele>597.12</ele>
        <time>2014-11-01T12:21:30Z</time>
      </trkpt>
      <trkpt lat="43.95865" lon="5.19759">
        <ele>598.56</ele>
        <time>2014-11-01T12:21:44Z</time>
      </trkpt>
      <trkpt lat="43.95864" lon="5.19777">
        <ele>600.48</ele>
        <time>2014-11-01T12:22:01Z</time>
      </trkpt>
      <trkpt lat="43.95864" lon="5.19776">
        <ele>600.96</ele>
        <time>2014-11-01T12:22:23Z</time>
      </trkpt>
      <trkpt lat="43.95867" lon="5.19786">
        <ele>601.92</ele>
        <time>2014-11-01T12:22:38Z</time>
      </trkpt>
      <trkpt lat="43.95863" lon="5.198">
        <ele>602.88</ele>
        <time>2014-11-01T12:22:53Z</time>
      </trkpt>
      <trkpt lat="43.9586" lon="5.19815">
        <ele>605.29</ele>
        <time>2014-11-01T12:23:07Z</time>
      </trkpt>
      <trkpt lat="43.95855" lon="5.19829">
        <ele>607.21</ele>
        <time>2014-11-01T12:23:23Z</time>
      </trkpt>
      <trkpt lat="43.95848" lon="5.19848">
        <ele>608.65</ele>
        <time>2014-11-01T12:23:38Z</time>
      </trkpt>
      <trkpt lat="43.95843" lon="5.1986">
        <ele>610.09</ele>
        <time>2014-11-01T12:23:52Z</time>
      </trkpt>
      <trkpt lat="43.95835" lon="5.19869">
        <ele>611.06</ele>
        <time>2014-11-01T12:24:05Z</time>
      </trkpt>
      <trkpt lat="43.95826" lon="5.19881">
        <ele>612.02</ele>
        <time>2014-11-01T12:24:19Z</time>
      </trkpt>
      <trkpt lat="43.95818" lon="5.19893">
        <ele>612.5</ele>
        <time>2014-11-01T12:24:31Z</time>
      </trkpt>
      <trkpt lat="43.95817" lon="5.19889">
        <ele>612.02</ele>
        <time>2014-11-01T12:24:47Z</time>
      </trkpt>
      <trkpt lat="43.95806" lon="5.19879">
        <ele>612.5</ele>
        <time>2014-11-01T12:25:02Z</time>
      </trkpt>
      <trkpt lat="43.95802" lon="5.19875">
        <ele>612.5</ele>
        <time>2014-11-01T12:25:07Z</time>
      </trkpt>
      <trkpt lat="43.958" lon="5.19872">
        <ele>612.5</ele>
        <time>2014-11-01T12:25:10Z</time>
      </trkpt>
      <trkpt lat="43.95785" lon="5.1986">
        <ele>612.5</ele>
        <time>2014-11-01T12:25:26Z</time>
      </trkpt>
      <trkpt lat="43.95772" lon="5.19846">
        <ele>612.5</ele>
        <time>2014-11-01T12:25:42Z</time>
      </trkpt>
      <trkpt lat="43.95765" lon="5.19835">
        <ele>612.5</ele>
        <time>2014-11-01T12:25:51Z</time>
      </trkpt>
      <trkpt lat="43.95754" lon="5.19824">
        <ele>611.06</ele>
        <time>2014-11-01T12:26:04Z</time>
      </trkpt>
      <trkpt lat="43.9574" lon="5.19808">
        <ele>610.57</ele>
        <time>2014-11-01T12:26:20Z</time>
      </trkpt>
      <trkpt lat="43.95727" lon="5.19797">
        <ele>609.61</ele>
        <time>2014-11-01T12:26:33Z</time>
      </trkpt>
      <trkpt lat="43.95718" lon="5.19789">
        <ele>609.13</ele>
        <time>2014-11-01T12:26:42Z</time>
      </trkpt>
      <trkpt lat="43.95712" lon="5.19787">
        <ele>608.65</ele>
        <time>2014-11-01T12:26:47Z</time>
      </trkpt>
      <trkpt lat="43.95704" lon="5.19775">
        <ele>608.65</ele>
        <time>2014-11-01T12:27:01Z</time>
      </trkpt>
      <trkpt lat="43.95686" lon="5.19763">
        <ele>606.73</ele>
        <time>2014-11-01T12:27:19Z</time>
      </trkpt>
      <trkpt lat="43.95673" lon="5.19755">
        <ele>605.77</ele>
        <time>2014-11-01T12:27:31Z</time>
      </trkpt>
      <trkpt lat="43.95664" lon="5.19746">
        <ele>604.81</ele>
        <time>2014-11-01T12:27:40Z</time>
      </trkpt>
      <trkpt lat="43.9566" lon="5.19743">
        <ele>604.33</ele>
        <time>2014-11-01T12:27:45Z</time>
      </trkpt>
      <trkpt lat="43.95643" lon="5.19733">
        <ele>602.4</ele>
        <time>2014-11-01T12:28:02Z</time>
      </trkpt>
      <trkpt lat="43.95636" lon="5.1973">
        <ele>601.92</ele>
        <time>2014-11-01T12:28:09Z</time>
      </trkpt>
      <trkpt lat="43.95618" lon="5.19721">
        <ele>600</ele>
        <time>2014-11-01T12:28:26Z</time>
      </trkpt>
      <trkpt lat="43.95605" lon="5.19719">
        <ele>598.08</ele>
        <time>2014-11-01T12:28:39Z</time>
      </trkpt>
      <trkpt lat="43.9559" lon="5.19718">
        <ele>596.64</ele>
        <time>2014-11-01T12:28:51Z</time>
      </trkpt>
      <trkpt lat="43.95578" lon="5.19723">
        <ele>595.19</ele>
        <time>2014-11-01T12:29:00Z</time>
      </trkpt>
      <trkpt lat="43.9556" lon="5.19727">
        <ele>593.27</ele>
        <time>2014-11-01T12:29:17Z</time>
      </trkpt>
      <trkpt lat="43.95559" lon="5.19727">
        <ele>592.79</ele>
        <time>2014-11-01T12:29:18Z</time>
      </trkpt>
      <trkpt lat="43.95542" lon="5.19725">
        <ele>589.91</ele>
        <time>2014-11-01T12:29:33Z</time>
      </trkpt>
      <trkpt lat="43.95525" lon="5.19721">
        <ele>588.95</ele>
        <time>2014-11-01T12:29:49Z</time>
      </trkpt>
      <trkpt lat="43.95523" lon="5.19719">
        <ele>588.95</ele>
        <time>2014-11-01T12:29:51Z</time>
      </trkpt>
      <trkpt lat="43.9551" lon="5.19705">
        <ele>587.98</ele>
        <time>2014-11-01T12:30:06Z</time>
      </trkpt>
      <trkpt lat="43.95499" lon="5.19698">
        <ele>587.02</ele>
        <time>2014-11-01T12:30:17Z</time>
      </trkpt>
      <trkpt lat="43.95483" lon="5.19689">
        <ele>586.06</ele>
        <time>2014-11-01T12:30:33Z</time>
      </trkpt>
      <trkpt lat="43.95467" lon="5.19677">
        <ele>585.1</ele>
        <time>2014-11-01T12:30:48Z</time>
      </trkpt>
      <trkpt lat="43.95449" lon="5.19666">
        <ele>584.14</ele>
        <time>2014-11-01T12:31:06Z</time>
      </trkpt>
      <trkpt lat="43.95433" lon="5.19656">
        <ele>583.18</ele>
        <time>2014-11-01T12:31:21Z</time>
      </trkpt>
      <trkpt lat="43.95433" lon="5.19655">
        <ele>583.18</ele>
        <time>2014-11-01T12:31:22Z</time>
      </trkpt>
      <trkpt lat="43.95429" lon="5.19652">
        <ele>582.7</ele>
        <time>2014-11-01T12:31:26Z</time>
      </trkpt>
      <trkpt lat="43.95412" lon="5.19634">
        <ele>580.77</ele>
        <time>2014-11-01T12:31:44Z</time>
      </trkpt>
      <trkpt lat="43.954" lon="5.19625">
        <ele>579.33</ele>
        <time>2014-11-01T12:31:59Z</time>
      </trkpt>
      <trkpt lat="43.9538" lon="5.19619">
        <ele>577.89</ele>
        <time>2014-11-01T12:32:15Z</time>
      </trkpt>
      <trkpt lat="43.95376" lon="5.19618">
        <ele>577.41</ele>
        <time>2014-11-01T12:32:19Z</time>
      </trkpt>
      <trkpt lat="43.95359" lon="5.19615">
        <ele>576.45</ele>
        <time>2014-11-01T12:32:35Z</time>
      </trkpt>
      <trkpt lat="43.95339" lon="5.19615">
        <ele>575.49</ele>
        <time>2014-11-01T12:32:52Z</time>
      </trkpt>
      <trkpt lat="43.95323" lon="5.19614">
        <ele>574.04</ele>
        <time>2014-11-01T12:33:06Z</time>
      </trkpt>
      <trkpt lat="43.95311" lon="5.19615">
        <ele>572.6</ele>
        <time>2014-11-01T12:33:19Z</time>
      </trkpt>
      <trkpt lat="43.95297" lon="5.19613">
        <ele>571.16</ele>
        <time>2014-11-01T12:33:30Z</time>
      </trkpt>
      <trkpt lat="43.95288" lon="5.19614">
        <ele>570.2</ele>
        <time>2014-11-01T12:33:39Z</time>
      </trkpt>
      <trkpt lat="43.95279" lon="5.19624">
        <ele>569.72</ele>
        <time>2014-11-01T12:33:51Z</time>
      </trkpt>
      <trkpt lat="43.95264" lon="5.19639">
        <ele>568.76</ele>
        <time>2014-11-01T12:34:09Z</time>
      </trkpt>
      <trkpt lat="43.95264" lon="5.19628">
        <ele>568.28</ele>
        <time>2014-11-01T12:34:18Z</time>
      </trkpt>
      <trkpt lat="43.95265" lon="5.19608">
        <ele>567.8</ele>
        <time>2014-11-01T12:34:32Z</time>
      </trkpt>
      <trkpt lat="43.95263" lon="5.19585">
        <ele>566.35</ele>
        <time>2014-11-01T12:34:47Z</time>
      </trkpt>
      <trkpt lat="43.95263" lon="5.19582">
        <ele>565.87</ele>
        <time>2014-11-01T12:34:50Z</time>
      </trkpt>
      <trkpt lat="43.95264" lon="5.19569">
        <ele>565.39</ele>
        <time>2014-11-01T12:34:58Z</time>
      </trkpt>
      <trkpt lat="43.95257" lon="5.19565">
        <ele>565.39</ele>
        <time>2014-11-01T12:35:06Z</time>
      </trkpt>
      <trkpt lat="43.95235" lon="5.19572">
        <ele>565.39</ele>
        <time>2014-11-01T12:35:24Z</time>
      </trkpt>
      <trkpt lat="43.9523" lon="5.19573">
        <ele>565.39</ele>
        <time>2014-11-01T12:35:28Z</time>
      </trkpt>
      <trkpt lat="43.95226" lon="5.19571">
        <ele>566.35</ele>
        <time>2014-11-01T12:35:32Z</time>
      </trkpt>
      <trkpt lat="43.95215" lon="5.19568">
        <ele>566.83</ele>
        <time>2014-11-01T12:35:43Z</time>
      </trkpt>
      <trkpt lat="43.95196" lon="5.19576">
        <ele>567.32</ele>
        <time>2014-11-01T12:36:00Z</time>
      </trkpt>
      <trkpt lat="43.95179" lon="5.19584">
        <ele>567.8</ele>
        <time>2014-11-01T12:36:15Z</time>
      </trkpt>
      <trkpt lat="43.95168" lon="5.19586">
        <ele>568.28</ele>
        <time>2014-11-01T12:36:26Z</time>
      </trkpt>
      <trkpt lat="43.95161" lon="5.19589">
        <ele>568.28</ele>
        <time>2014-11-01T12:36:33Z</time>
      </trkpt>
      <trkpt lat="43.95144" lon="5.19594">
        <ele>569.24</ele>
        <time>2014-11-01T12:36:49Z</time>
      </trkpt>
      <trkpt lat="43.95126" lon="5.19598">
        <ele>570.2</ele>
        <time>2014-11-01T12:37:05Z</time>
      </trkpt>
      <trkpt lat="43.95111" lon="5.196">
        <ele>571.16</ele>
        <time>2014-11-01T12:37:21Z</time>
      </trkpt>
      <trkpt lat="43.95092" lon="5.19604">
        <ele>571.64</ele>
        <time>2014-11-01T12:37:36Z</time>
      </trkpt>
      <trkpt lat="43.95077" lon="5.19605">
        <ele>572.12</ele>
        <time>2014-11-01T12:37:51Z</time>
      </trkpt>
      <trkpt lat="43.95055" lon="5.19604">
        <ele>573.08</ele>
        <time>2014-11-01T12:38:09Z</time>
      </trkpt>
      <trkpt lat="43.95044" lon="5.196">
        <ele>574.04</ele>
        <time>2014-11-01T12:38:22Z</time>
      </trkpt>
      <trkpt lat="43.95031" lon="5.196">
        <ele>575.01</ele>
        <time>2014-11-01T12:38:35Z</time>
      </trkpt>
      <trkpt lat="43.95023" lon="5.19603">
        <ele>575.01</ele>
        <time>2014-11-01T12:38:43Z</time>
      </trkpt>
      <trkpt lat="43.95009" lon="5.19604">
        <ele>575.01</ele>
        <time>2014-11-01T12:38:58Z</time>
      </trkpt>
      <trkpt lat="43.94988" lon="5.19604">
        <ele>573.56</ele>
        <time>2014-11-01T12:39:14Z</time>
      </trkpt>
      <trkpt lat="43.94982" lon="5.19602">
        <ele>572.6</ele>
        <time>2014-11-01T12:39:27Z</time>
      </trkpt>
      <trkpt lat="43.94968" lon="5.19605">
        <ele>570.2</ele>
        <time>2014-11-01T12:39:43Z</time>
      </trkpt>
      <trkpt lat="43.94955" lon="5.19606">
        <ele>568.28</ele>
        <time>2014-11-01T12:39:56Z</time>
      </trkpt>
      <trkpt lat="43.94942" lon="5.19606">
        <ele>566.35</ele>
        <time>2014-11-01T12:40:10Z</time>
      </trkpt>
      <trkpt lat="43.94925" lon="5.19604">
        <ele>563.95</ele>
        <time>2014-11-01T12:40:27Z</time>
      </trkpt>
      <trkpt lat="43.94922" lon="5.19604">
        <ele>563.47</ele>
        <time>2014-11-01T12:40:30Z</time>
      </trkpt>
      <trkpt lat="43.94913" lon="5.19602">
        <ele>562.51</ele>
        <time>2014-11-01T12:40:39Z</time>
      </trkpt>
      <trkpt lat="43.949" lon="5.1961">
        <ele>560.59</ele>
        <time>2014-11-01T12:40:55Z</time>
      </trkpt>
      <trkpt lat="43.94888" lon="5.19604">
        <ele>559.14</ele>
        <time>2014-11-01T12:41:08Z</time>
      </trkpt>
      <trkpt lat="43.94886" lon="5.19603">
        <ele>558.66</ele>
        <time>2014-11-01T12:41:10Z</time>
      </trkpt>
      <trkpt lat="43.94879" lon="5.196">
        <ele>558.18</ele>
        <time>2014-11-01T12:41:16Z</time>
      </trkpt>
      <trkpt lat="43.94863" lon="5.19586">
        <ele>556.74</ele>
        <time>2014-11-01T12:41:33Z</time>
      </trkpt>
      <trkpt lat="43.94848" lon="5.19579">
        <ele>554.82</ele>
        <time>2014-11-01T12:41:49Z</time>
      </trkpt>
      <trkpt lat="43.94831" lon="5.19572">
        <ele>552.41</ele>
        <time>2014-11-01T12:42:06Z</time>
      </trkpt>
      <trkpt lat="43.94812" lon="5.1957">
        <ele>550.49</ele>
        <time>2014-11-01T12:42:23Z</time>
      </trkpt>
      <trkpt lat="43.94797" lon="5.19572">
        <ele>549.05</ele>
        <time>2014-11-01T12:42:38Z</time>
      </trkpt>
      <trkpt lat="43.94782" lon="5.19568">
        <ele>547.61</ele>
        <time>2014-11-01T12:42:53Z</time>
      </trkpt>
      <trkpt lat="43.94768" lon="5.19566">
        <ele>546.65</ele>
        <time>2014-11-01T12:43:07Z</time>
      </trkpt>
      <trkpt lat="43.94747" lon="5.19564">
        <ele>545.2</ele>
        <time>2014-11-01T12:43:23Z</time>
      </trkpt>
      <trkpt lat="43.94732" lon="5.19557">
        <ele>543.28</ele>
        <time>2014-11-01T12:43:39Z</time>
      </trkpt>
      <trkpt lat="43.94713" lon="5.19554">
        <ele>541.36</ele>
        <time>2014-11-01T12:43:54Z</time>
      </trkpt>
      <trkpt lat="43.94697" lon="5.1955">
        <ele>539.44</ele>
        <time>2014-11-01T12:44:09Z</time>
      </trkpt>
      <trkpt lat="43.94686" lon="5.19546">
        <ele>538.48</ele>
        <time>2014-11-01T12:44:23Z</time>
      </trkpt>
      <trkpt lat="43.94676" lon="5.1954">
        <ele>537.51</ele>
        <time>2014-11-01T12:44:39Z</time>
      </trkpt>
      <trkpt lat="43.94665" lon="5.1954">
        <ele>535.59</ele>
        <time>2014-11-01T12:44:51Z</time>
      </trkpt>
      <trkpt lat="43.94649" lon="5.19544">
        <ele>533.67</ele>
        <time>2014-11-01T12:45:07Z</time>
      </trkpt>
      <trkpt lat="43.94631" lon="5.19542">
        <ele>531.27</ele>
        <time>2014-11-01T12:45:23Z</time>
      </trkpt>
      <trkpt lat="43.94616" lon="5.19546">
        <ele>529.34</ele>
        <time>2014-11-01T12:45:38Z</time>
      </trkpt>
      <trkpt lat="43.94601" lon="5.19561">
        <ele>527.42</ele>
        <time>2014-11-01T12:45:54Z</time>
      </trkpt>
      <trkpt lat="43.94593" lon="5.19572">
        <ele>525.5</ele>
        <time>2014-11-01T12:46:06Z</time>
      </trkpt>
      <trkpt lat="43.94585" lon="5.19589">
        <ele>523.58</ele>
        <time>2014-11-01T12:46:21Z</time>
      </trkpt>
      <trkpt lat="43.94577" lon="5.19608">
        <ele>522.61</ele>
        <time>2014-11-01T12:46:35Z</time>
      </trkpt>
      <trkpt lat="43.94567" lon="5.19618">
        <ele>520.69</ele>
        <time>2014-11-01T12:46:48Z</time>
      </trkpt>
      <trkpt lat="43.94557" lon="5.19623">
        <ele>518.77</ele>
        <time>2014-11-01T12:47:03Z</time>
      </trkpt>
      <trkpt lat="43.94545" lon="5.19631">
        <ele>516.37</ele>
        <time>2014-11-01T12:47:17Z</time>
      </trkpt>
      <trkpt lat="43.94535" lon="5.19636">
        <ele>514.92</ele>
        <time>2014-11-01T12:47:32Z</time>
      </trkpt>
      <trkpt lat="43.9452" lon="5.19645">
        <ele>511.56</ele>
        <time>2014-11-01T12:47:47Z</time>
      </trkpt>
      <trkpt lat="43.94504" lon="5.19656">
        <ele>508.67</ele>
        <time>2014-11-01T12:48:03Z</time>
      </trkpt>
      <trkpt lat="43.94487" lon="5.19668">
        <ele>506.27</ele>
        <time>2014-11-01T12:48:21Z</time>
      </trkpt>
      <trkpt lat="43.94467" lon="5.19674">
        <ele>503.87</ele>
        <time>2014-11-01T12:48:37Z</time>
      </trkpt>
      <trkpt lat="43.9445" lon="5.19674">
        <ele>502.91</ele>
        <time>2014-11-01T12:48:52Z</time>
      </trkpt>
      <trkpt lat="43.94442" lon="5.19678">
        <ele>502.91</ele>
        <time>2014-11-01T12:49:05Z</time>
      </trkpt>
      <trkpt lat="43.9444" lon="5.19678">
        <ele>502.91</ele>
        <time>2014-11-01T12:49:34Z</time>
      </trkpt>
      <trkpt lat="43.94438" lon="5.19677">
        <ele>502.43</ele>
        <time>2014-11-01T12:50:08Z</time>
      </trkpt>
      <trkpt lat="43.94438" lon="5.19678">
        <ele>502.43</ele>
        <time>2014-11-01T12:50:37Z</time>
      </trkpt>
      <trkpt lat="43.94441" lon="5.19684">
        <ele>502.43</ele>
        <time>2014-11-01T12:51:05Z</time>
      </trkpt>
      <trkpt lat="43.94437" lon="5.1968">
        <ele>502.43</ele>
        <time>2014-11-01T12:51:27Z</time>
      </trkpt>
      <trkpt lat="43.94436" lon="5.1968">
        <ele>501.95</ele>
        <time>2014-11-01T12:51:59Z</time>
      </trkpt>
      <trkpt lat="43.9443" lon="5.1968">
        <ele>501.95</ele>
        <time>2014-11-01T12:52:15Z</time>
      </trkpt>
      <trkpt lat="43.94425" lon="5.1968">
        <ele>503.39</ele>
        <time>2014-11-01T12:52:24Z</time>
      </trkpt>
      <trkpt lat="43.94419" lon="5.19684">
        <ele>503.39</ele>
        <time>2014-11-01T12:52:41Z</time>
      </trkpt>
      <trkpt lat="43.94405" lon="5.19687">
        <ele>503.87</ele>
        <time>2014-11-01T12:52:56Z</time>
      </trkpt>
      <trkpt lat="43.94388" lon="5.19695">
        <ele>504.35</ele>
        <time>2014-11-01T12:53:10Z</time>
      </trkpt>
      <trkpt lat="43.94372" lon="5.19705">
        <ele>504.35</ele>
        <time>2014-11-01T12:53:24Z</time>
      </trkpt>
      <trkpt lat="43.9436" lon="5.19725">
        <ele>504.83</ele>
        <time>2014-11-01T12:53:41Z</time>
      </trkpt>
      <trkpt lat="43.94352" lon="5.19736">
        <ele>504.83</ele>
        <time>2014-11-01T12:53:51Z</time>
      </trkpt>
      <trkpt lat="43.9434" lon="5.19747">
        <ele>504.83</ele>
        <time>2014-11-01T12:54:08Z</time>
      </trkpt>
      <trkpt lat="43.94332" lon="5.19759">
        <ele>504.83</ele>
        <time>2014-11-01T12:54:21Z</time>
      </trkpt>
      <trkpt lat="43.94331" lon="5.19762">
        <ele>503.39</ele>
        <time>2014-11-01T12:54:23Z</time>
      </trkpt>
      <trkpt lat="43.94332" lon="5.19769">
        <ele>502.91</ele>
        <time>2014-11-01T12:54:36Z</time>
      </trkpt>
      <trkpt lat="43.9433" lon="5.1977">
        <ele>502.91</ele>
        <time>2014-11-01T12:55:04Z</time>
      </trkpt>
      <trkpt lat="43.94329" lon="5.19777">
        <ele>502.43</ele>
        <time>2014-11-01T12:55:25Z</time>
      </trkpt>
      <trkpt lat="43.9433" lon="5.19779">
        <ele>502.43</ele>
        <time>2014-11-01T12:55:55Z</time>
      </trkpt>
      <trkpt lat="43.94336" lon="5.19784">
        <ele>501.46</ele>
        <time>2014-11-01T12:56:10Z</time>
      </trkpt>
      <trkpt lat="43.94336" lon="5.19791">
        <ele>500.98</ele>
        <time>2014-11-01T12:56:15Z</time>
      </trkpt>
      <trkpt lat="43.94344" lon="5.19807">
        <ele>498.58</ele>
        <time>2014-11-01T12:56:30Z</time>
      </trkpt>
      <trkpt lat="43.9435" lon="5.19829">
        <ele>495.7</ele>
        <time>2014-11-01T12:56:46Z</time>
      </trkpt>
      <trkpt lat="43.94355" lon="5.19847">
        <ele>493.77</ele>
        <time>2014-11-01T12:57:01Z</time>
      </trkpt>
      <trkpt lat="43.94361" lon="5.19863">
        <ele>491.37</ele>
        <time>2014-11-01T12:57:17Z</time>
      </trkpt>
      <trkpt lat="43.94368" lon="5.19877">
        <ele>488.49</ele>
        <time>2014-11-01T12:57:31Z</time>
      </trkpt>
      <trkpt lat="43.9437" lon="5.19892">
        <ele>485.6</ele>
        <time>2014-11-01T12:57:46Z</time>
      </trkpt>
      <trkpt lat="43.94369" lon="5.19904">
        <ele>483.2</ele>
        <time>2014-11-01T12:58:02Z</time>
      </trkpt>
      <trkpt lat="43.94367" lon="5.19921">
        <ele>481.28</ele>
        <time>2014-11-01T12:58:20Z</time>
      </trkpt>
      <trkpt lat="43.94366" lon="5.19942">
        <ele>478.87</ele>
        <time>2014-11-01T12:58:35Z</time>
      </trkpt>
      <trkpt lat="43.94365" lon="5.19948">
        <ele>478.39</ele>
        <time>2014-11-01T12:58:40Z</time>
      </trkpt>
      <trkpt lat="43.9436" lon="5.19968">
        <ele>475.99</ele>
        <time>2014-11-01T12:58:54Z</time>
      </trkpt>
      <trkpt lat="43.94358" lon="5.19991">
        <ele>474.55</ele>
        <time>2014-11-01T12:59:07Z</time>
      </trkpt>
      <trkpt lat="43.94354" lon="5.20008">
        <ele>473.11</ele>
        <time>2014-11-01T12:59:20Z</time>
      </trkpt>
      <trkpt lat="43.94354" lon="5.20011">
        <ele>472.63</ele>
        <time>2014-11-01T12:59:21Z</time>
      </trkpt>
      <trkpt lat="43.94359" lon="5.20034">
        <ele>471.18</ele>
        <time>2014-11-01T12:59:36Z</time>
      </trkpt>
      <trkpt lat="43.94368" lon="5.2005">
        <ele>469.74</ele>
        <time>2014-11-01T12:59:50Z</time>
      </trkpt>
      <trkpt lat="43.94369" lon="5.20055">
        <ele>469.74</ele>
        <time>2014-11-01T13:00:05Z</time>
      </trkpt>
      <trkpt lat="43.94376" lon="5.20062">
        <ele>469.74</ele>
        <time>2014-11-01T13:00:25Z</time>
      </trkpt>
      <trkpt lat="43.94385" lon="5.20081">
        <ele>469.74</ele>
        <time>2014-11-01T13:00:40Z</time>
      </trkpt>
      <trkpt lat="43.94392" lon="5.201">
        <ele>471.18</ele>
        <time>2014-11-01T13:00:55Z</time>
      </trkpt>
      <trkpt lat="43.94395" lon="5.2012">
        <ele>473.11</ele>
        <time>2014-11-01T13:01:09Z</time>
      </trkpt>
      <trkpt lat="43.94399" lon="5.20139">
        <ele>474.07</ele>
        <time>2014-11-01T13:01:24Z</time>
      </trkpt>
      <trkpt lat="43.94396" lon="5.20151">
        <ele>475.03</ele>
        <time>2014-11-01T13:01:33Z</time>
      </trkpt>
      <trkpt lat="43.94389" lon="5.20161">
        <ele>475.99</ele>
        <time>2014-11-01T13:01:44Z</time>
      </trkpt>
      <trkpt lat="43.94375" lon="5.20159">
        <ele>477.43</ele>
        <time>2014-11-01T13:02:00Z</time>
      </trkpt>
      <trkpt lat="43.94362" lon="5.2015">
        <ele>479.35</ele>
        <time>2014-11-01T13:02:15Z</time>
      </trkpt>
      <trkpt lat="43.94349" lon="5.20145">
        <ele>481.28</ele>
        <time>2014-11-01T13:02:30Z</time>
      </trkpt>
      <trkpt lat="43.94335" lon="5.2014">
        <ele>482.72</ele>
        <time>2014-11-01T13:02:45Z</time>
      </trkpt>
      <trkpt lat="43.9433" lon="5.20139">
        <ele>483.68</ele>
        <time>2014-11-01T13:02:51Z</time>
      </trkpt>
      <trkpt lat="43.94317" lon="5.2014">
        <ele>486.08</ele>
        <time>2014-11-01T13:03:06Z</time>
      </trkpt>
      <trkpt lat="43.943" lon="5.20145">
        <ele>488.01</ele>
        <time>2014-11-01T13:03:23Z</time>
      </trkpt>
      <trkpt lat="43.94299" lon="5.20145">
        <ele>488.01</ele>
        <time>2014-11-01T13:03:24Z</time>
      </trkpt>
      <trkpt lat="43.94292" lon="5.20148">
        <ele>488.97</ele>
        <time>2014-11-01T13:03:30Z</time>
      </trkpt>
      <trkpt lat="43.94289" lon="5.20149">
        <ele>489.45</ele>
        <time>2014-11-01T13:03:33Z</time>
      </trkpt>
      <trkpt lat="43.94284" lon="5.20159">
        <ele>490.89</ele>
        <time>2014-11-01T13:03:44Z</time>
      </trkpt>
      <trkpt lat="43.94279" lon="5.20163">
        <ele>491.37</ele>
        <time>2014-11-01T13:03:58Z</time>
      </trkpt>
      <trkpt lat="43.94278" lon="5.20164">
        <ele>491.37</ele>
        <time>2014-11-01T13:04:00Z</time>
      </trkpt>
      <trkpt lat="43.94266" lon="5.2017">
        <ele>492.81</ele>
        <time>2014-11-01T13:04:14Z</time>
      </trkpt>
      <trkpt lat="43.94256" lon="5.20176">
        <ele>494.26</ele>
        <time>2014-11-01T13:04:28Z</time>
      </trkpt>
      <trkpt lat="43.94247" lon="5.20187">
        <ele>496.66</ele>
        <time>2014-11-01T13:04:41Z</time>
      </trkpt>
      <trkpt lat="43.94244" lon="5.20188">
        <ele>497.14</ele>
        <time>2014-11-01T13:04:44Z</time>
      </trkpt>
      <trkpt lat="43.94231" lon="5.20188">
        <ele>499.06</ele>
        <time>2014-11-01T13:04:59Z</time>
      </trkpt>
      <trkpt lat="43.94217" lon="5.20192">
        <ele>501.46</ele>
        <time>2014-11-01T13:05:15Z</time>
      </trkpt>
      <trkpt lat="43.94204" lon="5.20196">
        <ele>504.35</ele>
        <time>2014-11-01T13:05:31Z</time>
      </trkpt>
      <trkpt lat="43.94198" lon="5.20197">
        <ele>504.83</ele>
        <time>2014-11-01T13:05:46Z</time>
      </trkpt>
      <trkpt lat="43.94193" lon="5.20197">
        <ele>505.79</ele>
        <time>2014-11-01T13:06:09Z</time>
      </trkpt>
      <trkpt lat="43.94181" lon="5.20198">
        <ele>507.23</ele>
        <time>2014-11-01T13:06:20Z</time>
      </trkpt>
      <trkpt lat="43.94169" lon="5.20196">
        <ele>509.16</ele>
        <time>2014-11-01T13:06:33Z</time>
      </trkpt>
      <trkpt lat="43.94159" lon="5.20196">
        <ele>512.04</ele>
        <time>2014-11-01T13:06:48Z</time>
      </trkpt>
      <trkpt lat="43.94157" lon="5.20196">
        <ele>512.04</ele>
        <time>2014-11-01T13:06:50Z</time>
      </trkpt>
      <trkpt lat="43.94144" lon="5.20194">
        <ele>513.48</ele>
        <time>2014-11-01T13:07:03Z</time>
      </trkpt>
      <trkpt lat="43.94132" lon="5.2019">
        <ele>514.92</ele>
        <time>2014-11-01T13:07:17Z</time>
      </trkpt>
      <trkpt lat="43.94122" lon="5.20186">
        <ele>515.88</ele>
        <time>2014-11-01T13:07:32Z</time>
      </trkpt>
      <trkpt lat="43.94115" lon="5.20184">
        <ele>515.88</ele>
        <time>2014-11-01T13:07:45Z</time>
      </trkpt>
      <trkpt lat="43.94111" lon="5.20184">
        <ele>515.88</ele>
        <time>2014-11-01T13:07:49Z</time>
      </trkpt>
      <trkpt lat="43.94088" lon="5.20184">
        <ele>515.88</ele>
        <time>2014-11-01T13:08:08Z</time>
      </trkpt>
      <trkpt lat="43.94085" lon="5.20185">
        <ele>515.4</ele>
        <time>2014-11-01T13:08:11Z</time>
      </trkpt>
      <trkpt lat="43.94066" lon="5.20182">
        <ele>516.37</ele>
        <time>2014-11-01T13:08:28Z</time>
      </trkpt>
      <trkpt lat="43.94051" lon="5.20177">
        <ele>518.29</ele>
        <time>2014-11-01T13:08:43Z</time>
      </trkpt>
      <trkpt lat="43.94043" lon="5.20171">
        <ele>518.77</ele>
        <time>2014-11-01T13:08:52Z</time>
      </trkpt>
      <trkpt lat="43.94029" lon="5.20172">
        <ele>520.69</ele>
        <time>2014-11-01T13:09:06Z</time>
      </trkpt>
      <trkpt lat="43.94028" lon="5.20169">
        <ele>520.69</ele>
        <time>2014-11-01T13:09:20Z</time>
      </trkpt>
      <trkpt lat="43.94027" lon="5.20171">
        <ele>521.17</ele>
        <time>2014-11-01T13:09:47Z</time>
      </trkpt>
      <trkpt lat="43.94028" lon="5.20174">
        <ele>521.17</ele>
        <time>2014-11-01T13:10:25Z</time>
      </trkpt>
      <trkpt lat="43.94022" lon="5.20178">
        <ele>521.17</ele>
        <time>2014-11-01T13:10:46Z</time>
      </trkpt>
      <trkpt lat="43.94013" lon="5.20188">
        <ele>522.61</ele>
        <time>2014-11-01T13:11:00Z</time>
      </trkpt>
      <trkpt lat="43.94011" lon="5.20191">
        <ele>522.61</ele>
        <time>2014-11-01T13:11:04Z</time>
      </trkpt>
      <trkpt lat="43.94002" lon="5.20204">
        <ele>523.58</ele>
        <time>2014-11-01T13:11:17Z</time>
      </trkpt>
      <trkpt lat="43.93992" lon="5.20218">
        <ele>524.54</ele>
        <time>2014-11-01T13:11:30Z</time>
      </trkpt>
      <trkpt lat="43.93987" lon="5.20228">
        <ele>524.54</ele>
        <time>2014-11-01T13:11:48Z</time>
      </trkpt>
      <trkpt lat="43.93988" lon="5.20219">
        <ele>525.02</ele>
        <time>2014-11-01T13:12:21Z</time>
      </trkpt>
      <trkpt lat="43.93982" lon="5.20214">
        <ele>525.02</ele>
        <time>2014-11-01T13:12:44Z</time>
      </trkpt>
      <trkpt lat="43.93971" lon="5.20204">
        <ele>524.06</ele>
        <time>2014-11-01T13:12:58Z</time>
      </trkpt>
      <trkpt lat="43.93954" lon="5.20205">
        <ele>523.09</ele>
        <time>2014-11-01T13:13:15Z</time>
      </trkpt>
      <trkpt lat="43.93942" lon="5.20206">
        <ele>522.13</ele>
        <time>2014-11-01T13:13:25Z</time>
      </trkpt>
      <trkpt lat="43.93924" lon="5.20203">
        <ele>520.69</ele>
        <time>2014-11-01T13:13:41Z</time>
      </trkpt>
      <trkpt lat="43.93919" lon="5.202">
        <ele>520.21</ele>
        <time>2014-11-01T13:13:45Z</time>
      </trkpt>
      <trkpt lat="43.93909" lon="5.20184">
        <ele>519.73</ele>
        <time>2014-11-01T13:13:57Z</time>
      </trkpt>
      <trkpt lat="43.93896" lon="5.20158">
        <ele>519.73</ele>
        <time>2014-11-01T13:14:13Z</time>
      </trkpt>
      <trkpt lat="43.9389" lon="5.20132">
        <ele>519.73</ele>
        <time>2014-11-01T13:14:30Z</time>
      </trkpt>
      <trkpt lat="43.93888" lon="5.20124">
        <ele>519.73</ele>
        <time>2014-11-01T13:14:35Z</time>
      </trkpt>
      <trkpt lat="43.93889" lon="5.20113">
        <ele>518.77</ele>
        <time>2014-11-01T13:14:42Z</time>
      </trkpt>
      <trkpt lat="43.93889" lon="5.2009">
        <ele>516.85</ele>
        <time>2014-11-01T13:14:56Z</time>
      </trkpt>
      <trkpt lat="43.93888" lon="5.20083">
        <ele>517.33</ele>
        <time>2014-11-01T13:15:13Z</time>
      </trkpt>
      <trkpt lat="43.93888" lon="5.20067">
        <ele>516.85</ele>
        <time>2014-11-01T13:15:37Z</time>
      </trkpt>
      <trkpt lat="43.93889" lon="5.20052">
        <ele>516.85</ele>
        <time>2014-11-01T13:15:47Z</time>
      </trkpt>
      <trkpt lat="43.93889" lon="5.20047">
        <ele>516.85</ele>
        <time>2014-11-01T13:15:50Z</time>
      </trkpt>
      <trkpt lat="43.93889" lon="5.20023">
        <ele>518.29</ele>
        <time>2014-11-01T13:16:06Z</time>
      </trkpt>
      <trkpt lat="43.93898" lon="5.2002">
        <ele>518.29</ele>
        <time>2014-11-01T13:16:19Z</time>
      </trkpt>
      <trkpt lat="43.93905" lon="5.20022">
        <ele>516.85</ele>
        <time>2014-11-01T13:16:29Z</time>
      </trkpt>
      <trkpt lat="43.93925" lon="5.20021">
        <ele>515.4</ele>
        <time>2014-11-01T13:16:44Z</time>
      </trkpt>
      <trkpt lat="43.93936" lon="5.20019">
        <ele>514.44</ele>
        <time>2014-11-01T13:16:59Z</time>
      </trkpt>
      <trkpt lat="43.93947" lon="5.2002">
        <ele>512.52</ele>
        <time>2014-11-01T13:17:14Z</time>
      </trkpt>
      <trkpt lat="43.93953" lon="5.20021">
        <ele>511.56</ele>
        <time>2014-11-01T13:17:20Z</time>
      </trkpt>
      <trkpt lat="43.93975" lon="5.20014">
        <ele>510.6</ele>
        <time>2014-11-01T13:17:35Z</time>
      </trkpt>
      <trkpt lat="43.93991" lon="5.20013">
        <ele>509.16</ele>
        <time>2014-11-01T13:17:52Z</time>
      </trkpt>
      <trkpt lat="43.94" lon="5.20007">
        <ele>508.67</ele>
        <time>2014-11-01T13:18:00Z</time>
      </trkpt>
      <trkpt lat="43.94012" lon="5.19993">
        <ele>510.12</ele>
        <time>2014-11-01T13:18:16Z</time>
      </trkpt>
      <trkpt lat="43.94021" lon="5.19984">
        <ele>511.08</ele>
        <time>2014-11-01T13:18:28Z</time>
      </trkpt>
      <trkpt lat="43.94027" lon="5.19971">
        <ele>513.48</ele>
        <time>2014-11-01T13:18:43Z</time>
      </trkpt>
      <trkpt lat="43.94031" lon="5.19962">
        <ele>516.85</ele>
        <time>2014-11-01T13:18:58Z</time>
      </trkpt>
      <trkpt lat="43.94036" lon="5.19953">
        <ele>519.73</ele>
        <time>2014-11-01T13:19:13Z</time>
      </trkpt>
      <trkpt lat="43.94042" lon="5.19946">
        <ele>522.13</ele>
        <time>2014-11-01T13:19:26Z</time>
      </trkpt>
      <trkpt lat="43.94049" lon="5.19932">
        <ele>523.09</ele>
        <time>2014-11-01T13:19:42Z</time>
      </trkpt>
      <trkpt lat="43.94051" lon="5.19914">
        <ele>523.09</ele>
        <time>2014-11-01T13:19:56Z</time>
      </trkpt>
      <trkpt lat="43.94047" lon="5.19898">
        <ele>521.65</ele>
        <time>2014-11-01T13:20:09Z</time>
      </trkpt>
      <trkpt lat="43.94041" lon="5.19888">
        <ele>521.65</ele>
        <time>2014-11-01T13:20:20Z</time>
      </trkpt>
      <trkpt lat="43.94039" lon="5.19885">
        <ele>521.65</ele>
        <time>2014-11-01T13:20:24Z</time>
      </trkpt>
      <trkpt lat="43.94028" lon="5.19878">
        <ele>521.17</ele>
        <time>2014-11-01T13:20:38Z</time>
      </trkpt>
      <trkpt lat="43.94025" lon="5.1987">
        <ele>520.69</ele>
        <time>2014-11-01T13:20:52Z</time>
      </trkpt>
      <trkpt lat="43.94022" lon="5.19861">
        <ele>520.21</ele>
        <time>2014-11-01T13:21:15Z</time>
      </trkpt>
      <trkpt lat="43.94012" lon="5.19856">
        <ele>519.25</ele>
        <time>2014-11-01T13:21:29Z</time>
      </trkpt>
      <trkpt lat="43.93996" lon="5.19856">
        <ele>518.77</ele>
        <time>2014-11-01T13:21:44Z</time>
      </trkpt>
      <trkpt lat="43.93982" lon="5.1985">
        <ele>518.77</ele>
        <time>2014-11-01T13:22:00Z</time>
      </trkpt>
      <trkpt lat="43.93974" lon="5.19841">
        <ele>517.81</ele>
        <time>2014-11-01T13:22:11Z</time>
      </trkpt>
      <trkpt lat="43.93963" lon="5.19838">
        <ele>515.88</ele>
        <time>2014-11-01T13:22:24Z</time>
      </trkpt>
      <trkpt lat="43.93951" lon="5.19841">
        <ele>515.88</ele>
        <time>2014-11-01T13:22:38Z</time>
      </trkpt>
      <trkpt lat="43.93941" lon="5.19845">
        <ele>517.33</ele>
        <time>2014-11-01T13:22:50Z</time>
      </trkpt>
      <trkpt lat="43.93931" lon="5.19852">
        <ele>518.29</ele>
        <time>2014-11-01T13:23:06Z</time>
      </trkpt>
      <trkpt lat="43.93919" lon="5.19854">
        <ele>520.21</ele>
        <time>2014-11-01T13:23:20Z</time>
      </trkpt>
      <trkpt lat="43.93904" lon="5.19852">
        <ele>518.77</ele>
        <time>2014-11-01T13:23:36Z</time>
      </trkpt>
      <trkpt lat="43.93892" lon="5.19854">
        <ele>520.21</ele>
        <time>2014-11-01T13:23:49Z</time>
      </trkpt>
      <trkpt lat="43.9388" lon="5.19851">
        <ele>520.21</ele>
        <time>2014-11-01T13:24:03Z</time>
      </trkpt>
      <trkpt lat="43.93866" lon="5.19846">
        <ele>520.21</ele>
        <time>2014-11-01T13:24:16Z</time>
      </trkpt>
      <trkpt lat="43.93863" lon="5.19843">
        <ele>518.77</ele>
        <time>2014-11-01T13:24:19Z</time>
      </trkpt>
      <trkpt lat="43.93852" lon="5.19831">
        <ele>518.29</ele>
        <time>2014-11-01T13:24:33Z</time>
      </trkpt>
      <trkpt lat="43.9384" lon="5.19827">
        <ele>518.29</ele>
        <time>2014-11-01T13:24:45Z</time>
      </trkpt>
      <trkpt lat="43.93826" lon="5.19829">
        <ele>519.73</ele>
        <time>2014-11-01T13:24:58Z</time>
      </trkpt>
      <trkpt lat="43.93814" lon="5.19831">
        <ele>521.65</ele>
        <time>2014-11-01T13:25:13Z</time>
      </trkpt>
      <trkpt lat="43.938" lon="5.19823">
        <ele>521.65</ele>
        <time>2014-11-01T13:25:28Z</time>
      </trkpt>
      <trkpt lat="43.93787" lon="5.19813">
        <ele>520.21</ele>
        <time>2014-11-01T13:25:45Z</time>
      </trkpt>
      <trkpt lat="43.93786" lon="5.19813">
        <ele>520.21</ele>
        <time>2014-11-01T13:25:46Z</time>
      </trkpt>
      <trkpt lat="43.93773" lon="5.19808">
        <ele>520.21</ele>
        <time>2014-11-01T13:26:00Z</time>
      </trkpt>
      <trkpt lat="43.93768" lon="5.19803">
        <ele>520.21</ele>
        <time>2014-11-01T13:26:06Z</time>
      </trkpt>
      <trkpt lat="43.93757" lon="5.19796">
        <ele>520.21</ele>
        <time>2014-11-01T13:26:20Z</time>
      </trkpt>
      <trkpt lat="43.93746" lon="5.19789">
        <ele>521.17</ele>
        <time>2014-11-01T13:26:34Z</time>
      </trkpt>
      <trkpt lat="43.93733" lon="5.19785">
        <ele>522.61</ele>
        <time>2014-11-01T13:26:49Z</time>
      </trkpt>
      <trkpt lat="43.93721" lon="5.19779">
        <ele>522.61</ele>
        <time>2014-11-01T13:27:07Z</time>
      </trkpt>
      <trkpt lat="43.9371" lon="5.19773">
        <ele>522.61</ele>
        <time>2014-11-01T13:27:20Z</time>
      </trkpt>
      <trkpt lat="43.93698" lon="5.19768">
        <ele>522.61</ele>
        <time>2014-11-01T13:27:33Z</time>
      </trkpt>
      <trkpt lat="43.93684" lon="5.19763">
        <ele>523.58</ele>
        <time>2014-11-01T13:27:48Z</time>
      </trkpt>
      <trkpt lat="43.93671" lon="5.19757">
        <ele>524.06</ele>
        <time>2014-11-01T13:28:03Z</time>
      </trkpt>
      <trkpt lat="43.93662" lon="5.19747">
        <ele>525.02</ele>
        <time>2014-11-01T13:28:17Z</time>
      </trkpt>
      <trkpt lat="43.93651" lon="5.19734">
        <ele>525.02</ele>
        <time>2014-11-01T13:28:34Z</time>
      </trkpt>
      <trkpt lat="43.93649" lon="5.19732">
        <ele>523.58</ele>
        <time>2014-11-01T13:28:39Z</time>
      </trkpt>
      <trkpt lat="43.93638" lon="5.19722">
        <ele>523.58</ele>
        <time>2014-11-01T13:28:54Z</time>
      </trkpt>
      <trkpt lat="43.9363" lon="5.19711">
        <ele>523.09</ele>
        <time>2014-11-01T13:29:07Z</time>
      </trkpt>
      <trkpt lat="43.9362" lon="5.19701">
        <ele>524.54</ele>
        <time>2014-11-01T13:29:22Z</time>
      </trkpt>
      <trkpt lat="43.93616" lon="5.19694">
        <ele>523.09</ele>
        <time>2014-11-01T13:29:30Z</time>
      </trkpt>
      <trkpt lat="43.93616" lon="5.19693">
        <ele>523.09</ele>
        <time>2014-11-01T13:29:31Z</time>
      </trkpt>
      <trkpt lat="43.93609" lon="5.19678">
        <ele>521.65</ele>
        <time>2014-11-01T13:29:44Z</time>
      </trkpt>
      <trkpt lat="43.93601" lon="5.19663">
        <ele>521.17</ele>
        <time>2014-11-01T13:29:58Z</time>
      </trkpt>
      <trkpt lat="43.93592" lon="5.1965">
        <ele>520.69</ele>
        <time>2014-11-01T13:30:12Z</time>
      </trkpt>
      <trkpt lat="43.93585" lon="5.19639">
        <ele>520.21</ele>
        <time>2014-11-01T13:30:25Z</time>
      </trkpt>
      <trkpt lat="43.93575" lon="5.19624">
        <ele>519.73</ele>
        <time>2014-11-01T13:30:40Z</time>
      </trkpt>
      <trkpt lat="43.9357" lon="5.19605">
        <ele>519.25</ele>
        <time>2014-11-01T13:30:53Z</time>
      </trkpt>
      <trkpt lat="43.9357" lon="5.19599">
        <ele>519.25</ele>
        <time>2014-11-01T13:30:58Z</time>
      </trkpt>
      <trkpt lat="43.93565" lon="5.19584">
        <ele>519.25</ele>
        <time>2014-11-01T13:31:11Z</time>
      </trkpt>
      <trkpt lat="43.93559" lon="5.19569">
        <ele>519.25</ele>
        <time>2014-11-01T13:31:24Z</time>
      </trkpt>
      <trkpt lat="43.93554" lon="5.19557">
        <ele>519.25</ele>
        <time>2014-11-01T13:31:36Z</time>
      </trkpt>
      <trkpt lat="43.93551" lon="5.19549">
        <ele>518.77</ele>
        <time>2014-11-01T13:31:42Z</time>
      </trkpt>
      <trkpt lat="43.93542" lon="5.19535">
        <ele>518.77</ele>
        <time>2014-11-01T13:31:56Z</time>
      </trkpt>
      <trkpt lat="43.93533" lon="5.19525">
        <ele>520.21</ele>
        <time>2014-11-01T13:32:10Z</time>
      </trkpt>
      <trkpt lat="43.93526" lon="5.1951">
        <ele>520.69</ele>
        <time>2014-11-01T13:32:23Z</time>
      </trkpt>
      <trkpt lat="43.93518" lon="5.19496">
        <ele>520.69</ele>
        <time>2014-11-01T13:32:36Z</time>
      </trkpt>
      <trkpt lat="43.93506" lon="5.19485">
        <ele>520.69</ele>
        <time>2014-11-01T13:32:51Z</time>
      </trkpt>
      <trkpt lat="43.93494" lon="5.19474">
        <ele>520.69</ele>
        <time>2014-11-01T13:33:05Z</time>
      </trkpt>
      <trkpt lat="43.93488" lon="5.1947">
        <ele>520.69</ele>
        <time>2014-11-01T13:33:18Z</time>
      </trkpt>
      <trkpt lat="43.93482" lon="5.19466">
        <ele>520.69</ele>
        <time>2014-11-01T13:33:38Z</time>
      </trkpt>
      <trkpt lat="43.93471" lon="5.19457">
        <ele>520.69</ele>
        <time>2014-11-01T13:33:52Z</time>
      </trkpt>
      <trkpt lat="43.93461" lon="5.19451">
        <ele>519.73</ele>
        <time>2014-11-01T13:34:05Z</time>
      </trkpt>
      <trkpt lat="43.93447" lon="5.19445">
        <ele>519.25</ele>
        <time>2014-11-01T13:34:21Z</time>
      </trkpt>
      <trkpt lat="43.93433" lon="5.19435">
        <ele>518.29</ele>
        <time>2014-11-01T13:34:35Z</time>
      </trkpt>
      <trkpt lat="43.93422" lon="5.19433">
        <ele>518.29</ele>
        <time>2014-11-01T13:34:46Z</time>
      </trkpt>
      <trkpt lat="43.93407" lon="5.19432">
        <ele>518.77</ele>
        <time>2014-11-01T13:35:01Z</time>
      </trkpt>
      <trkpt lat="43.93406" lon="5.19432">
        <ele>518.77</ele>
        <time>2014-11-01T13:35:02Z</time>
      </trkpt>
      <trkpt lat="43.93392" lon="5.19425">
        <ele>518.77</ele>
        <time>2014-11-01T13:35:19Z</time>
      </trkpt>
      <trkpt lat="43.93391" lon="5.19425">
        <ele>518.77</ele>
        <time>2014-11-01T13:35:20Z</time>
      </trkpt>
      <trkpt lat="43.93377" lon="5.19417">
        <ele>516.85</ele>
        <time>2014-11-01T13:35:35Z</time>
      </trkpt>
      <trkpt lat="43.93366" lon="5.19411">
        <ele>516.85</ele>
        <time>2014-11-01T13:35:48Z</time>
      </trkpt>
      <trkpt lat="43.93354" lon="5.1941">
        <ele>516.37</ele>
        <time>2014-11-01T13:36:01Z</time>
      </trkpt>
      <trkpt lat="43.93343" lon="5.19411">
        <ele>515.88</ele>
        <time>2014-11-01T13:36:11Z</time>
      </trkpt>
      <trkpt lat="43.93327" lon="5.19414">
        <ele>514.92</ele>
        <time>2014-11-01T13:36:27Z</time>
      </trkpt>
      <trkpt lat="43.93313" lon="5.19414">
        <ele>514.44</ele>
        <time>2014-11-01T13:36:44Z</time>
      </trkpt>
      <trkpt lat="43.93307" lon="5.19413">
        <ele>515.88</ele>
        <time>2014-11-01T13:36:49Z</time>
      </trkpt>
      <trkpt lat="43.93289" lon="5.19407">
        <ele>516.37</ele>
        <time>2014-11-01T13:37:05Z</time>
      </trkpt>
      <trkpt lat="43.93275" lon="5.19401">
        <ele>516.37</ele>
        <time>2014-11-01T13:37:18Z</time>
      </trkpt>
      <trkpt lat="43.9326" lon="5.19395">
        <ele>516.37</ele>
        <time>2014-11-01T13:37:34Z</time>
      </trkpt>
      <trkpt lat="43.93248" lon="5.19393">
        <ele>516.37</ele>
        <time>2014-11-01T13:37:46Z</time>
      </trkpt>
      <trkpt lat="43.93236" lon="5.19386">
        <ele>516.85</ele>
        <time>2014-11-01T13:38:01Z</time>
      </trkpt>
      <trkpt lat="43.93226" lon="5.19377">
        <ele>517.33</ele>
        <time>2014-11-01T13:38:15Z</time>
      </trkpt>
      <trkpt lat="43.93212" lon="5.19367">
        <ele>517.81</ele>
        <time>2014-11-01T13:38:31Z</time>
      </trkpt>
      <trkpt lat="43.93202" lon="5.19354">
        <ele>517.81</ele>
        <time>2014-11-01T13:38:45Z</time>
      </trkpt>
      <trkpt lat="43.93201" lon="5.19349">
        <ele>517.81</ele>
        <time>2014-11-01T13:38:49Z</time>
      </trkpt>
      <trkpt lat="43.932" lon="5.19346">
        <ele>516.37</ele>
        <time>2014-11-01T13:38:51Z</time>
      </trkpt>
      <trkpt lat="43.93192" lon="5.19335">
        <ele>516.37</ele>
        <time>2014-11-01T13:39:04Z</time>
      </trkpt>
      <trkpt lat="43.93179" lon="5.19337">
        <ele>517.81</ele>
        <time>2014-11-01T13:39:19Z</time>
      </trkpt>
      <trkpt lat="43.93169" lon="5.1933">
        <ele>516.85</ele>
        <time>2014-11-01T13:39:34Z</time>
      </trkpt>
      <trkpt lat="43.93158" lon="5.19326">
        <ele>516.85</ele>
        <time>2014-11-01T13:39:48Z</time>
      </trkpt>
      <trkpt lat="43.93142" lon="5.19325">
        <ele>519.25</ele>
        <time>2014-11-01T13:40:05Z</time>
      </trkpt>
      <trkpt lat="43.93129" lon="5.1932">
        <ele>519.73</ele>
        <time>2014-11-01T13:40:22Z</time>
      </trkpt>
      <trkpt lat="43.93116" lon="5.19312">
        <ele>520.21</ele>
        <time>2014-11-01T13:40:36Z</time>
      </trkpt>
      <trkpt lat="43.93106" lon="5.19302">
        <ele>519.25</ele>
        <time>2014-11-01T13:40:49Z</time>
      </trkpt>
      <trkpt lat="43.93106" lon="5.19301">
        <ele>519.25</ele>
        <time>2014-11-01T13:40:50Z</time>
      </trkpt>
      <trkpt lat="43.93094" lon="5.19292">
        <ele>518.77</ele>
        <time>2014-11-01T13:41:03Z</time>
      </trkpt>
      <trkpt lat="43.93086" lon="5.19282">
        <ele>518.29</ele>
        <time>2014-11-01T13:41:16Z</time>
      </trkpt>
      <trkpt lat="43.93078" lon="5.19273">
        <ele>517.33</ele>
        <time>2014-11-01T13:41:29Z</time>
      </trkpt>
      <trkpt lat="43.93065" lon="5.19265">
        <ele>517.33</ele>
        <time>2014-11-01T13:41:44Z</time>
      </trkpt>
      <trkpt lat="43.93053" lon="5.1926">
        <ele>517.33</ele>
        <time>2014-11-01T13:41:58Z</time>
      </trkpt>
      <trkpt lat="43.93044" lon="5.19254">
        <ele>516.85</ele>
        <time>2014-11-01T13:42:15Z</time>
      </trkpt>
      <trkpt lat="43.93041" lon="5.19251">
        <ele>516.85</ele>
        <time>2014-11-01T13:42:30Z</time>
      </trkpt>
      <trkpt lat="43.93039" lon="5.19253">
        <ele>516.85</ele>
        <time>2014-11-01T13:42:51Z</time>
      </trkpt>
      <trkpt lat="43.93039" lon="5.19252">
        <ele>516.85</ele>
        <time>2014-11-01T13:43:22Z</time>
      </trkpt>
      <trkpt lat="43.9304" lon="5.19248">
        <ele>516.85</ele>
        <time>2014-11-01T13:43:44Z</time>
      </trkpt>
      <trkpt lat="43.93042" lon="5.1925">
        <ele>516.37</ele>
        <time>2014-11-01T13:44:05Z</time>
      </trkpt>
      <trkpt lat="43.93041" lon="5.19252">
        <ele>515.88</ele>
        <time>2014-11-01T13:44:32Z</time>
      </trkpt>
      <trkpt lat="43.93041" lon="5.1925">
        <ele>515.88</ele>
        <time>2014-11-01T13:44:55Z</time>
      </trkpt>
      <trkpt lat="43.93042" lon="5.19249">
        <ele>515.88</ele>
        <time>2014-11-01T13:45:24Z</time>
      </trkpt>
      <trkpt lat="43.93038" lon="5.19247">
        <ele>515.88</ele>
        <time>2014-11-01T13:45:56Z</time>
      </trkpt>
      <trkpt lat="43.93034" lon="5.19238">
        <ele>513.48</ele>
        <time>2014-11-01T13:46:09Z</time>
      </trkpt>
      <trkpt lat="43.9303" lon="5.19229">
        <ele>511.56</ele>
        <time>2014-11-01T13:46:20Z</time>
      </trkpt>
      <trkpt lat="43.93022" lon="5.19218">
        <ele>510.12</ele>
        <time>2014-11-01T13:46:32Z</time>
      </trkpt>
      <trkpt lat="43.93009" lon="5.19209">
        <ele>509.64</ele>
        <time>2014-11-01T13:46:47Z</time>
      </trkpt>
      <trkpt lat="43.92998" lon="5.19208">
        <ele>509.64</ele>
        <time>2014-11-01T13:47:01Z</time>
      </trkpt>
      <trkpt lat="43.92997" lon="5.19207">
        <ele>510.6</ele>
        <time>2014-11-01T13:47:03Z</time>
      </trkpt>
      <trkpt lat="43.92988" lon="5.19201">
        <ele>509.64</ele>
        <time>2014-11-01T13:47:15Z</time>
      </trkpt>
      <trkpt lat="43.92976" lon="5.19197">
        <ele>507.71</ele>
        <time>2014-11-01T13:47:30Z</time>
      </trkpt>
      <trkpt lat="43.92968" lon="5.19184">
        <ele>506.75</ele>
        <time>2014-11-01T13:47:45Z</time>
      </trkpt>
      <trkpt lat="43.92959" lon="5.1917">
        <ele>505.31</ele>
        <time>2014-11-01T13:47:59Z</time>
      </trkpt>
      <trkpt lat="43.92948" lon="5.19171">
        <ele>506.27</ele>
        <time>2014-11-01T13:48:15Z</time>
      </trkpt>
      <trkpt lat="43.92934" lon="5.19172">
        <ele>505.79</ele>
        <time>2014-11-01T13:48:29Z</time>
      </trkpt>
      <trkpt lat="43.92923" lon="5.19165">
        <ele>505.79</ele>
        <time>2014-11-01T13:48:43Z</time>
      </trkpt>
      <trkpt lat="43.92918" lon="5.19153">
        <ele>504.35</ele>
        <time>2014-11-01T13:48:58Z</time>
      </trkpt>
      <trkpt lat="43.92917" lon="5.1915">
        <ele>503.39</ele>
        <time>2014-11-01T13:49:14Z</time>
      </trkpt>
      <trkpt lat="43.92916" lon="5.1914">
        <ele>501.95</ele>
        <time>2014-11-01T13:49:29Z</time>
      </trkpt>
      <trkpt lat="43.9291" lon="5.19134">
        <ele>500.98</ele>
        <time>2014-11-01T13:49:42Z</time>
      </trkpt>
      <trkpt lat="43.92902" lon="5.19125">
        <ele>500.5</ele>
        <time>2014-11-01T13:50:00Z</time>
      </trkpt>
      <trkpt lat="43.92895" lon="5.19118">
        <ele>500.5</ele>
        <time>2014-11-01T13:50:13Z</time>
      </trkpt>
      <trkpt lat="43.92888" lon="5.19109">
        <ele>500.5</ele>
        <time>2014-11-01T13:50:27Z</time>
      </trkpt>
      <trkpt lat="43.92879" lon="5.19104">
        <ele>500.5</ele>
        <time>2014-11-01T13:50:41Z</time>
      </trkpt>
      <trkpt lat="43.92866" lon="5.19101">
        <ele>501.95</ele>
        <time>2014-11-01T13:50:55Z</time>
      </trkpt>
      <trkpt lat="43.92853" lon="5.1909">
        <ele>502.43</ele>
        <time>2014-11-01T13:51:10Z</time>
      </trkpt>
      <trkpt lat="43.92849" lon="5.19084">
        <ele>502.43</ele>
        <time>2014-11-01T13:51:17Z</time>
      </trkpt>
      <trkpt lat="43.92839" lon="5.19071">
        <ele>500.5</ele>
        <time>2014-11-01T13:51:31Z</time>
      </trkpt>
      <trkpt lat="43.92828" lon="5.19062">
        <ele>500.98</ele>
        <time>2014-11-01T13:51:45Z</time>
      </trkpt>
      <trkpt lat="43.92819" lon="5.19049">
        <ele>500.02</ele>
        <time>2014-11-01T13:51:59Z</time>
      </trkpt>
      <trkpt lat="43.92812" lon="5.19037">
        <ele>498.58</ele>
        <time>2014-11-01T13:52:13Z</time>
      </trkpt>
      <trkpt lat="43.92799" lon="5.19029">
        <ele>498.58</ele>
        <time>2014-11-01T13:52:29Z</time>
      </trkpt>
      <trkpt lat="43.92784" lon="5.19024">
        <ele>498.58</ele>
        <time>2014-11-01T13:52:46Z</time>
      </trkpt>
      <trkpt lat="43.92774" lon="5.1901">
        <ele>498.58</ele>
        <time>2014-11-01T13:53:01Z</time>
      </trkpt>
      <trkpt lat="43.92765" lon="5.18999">
        <ele>497.62</ele>
        <time>2014-11-01T13:53:15Z</time>
      </trkpt>
      <trkpt lat="43.9276" lon="5.18991">
        <ele>497.14</ele>
        <time>2014-11-01T13:53:29Z</time>
      </trkpt>
      <trkpt lat="43.92759" lon="5.1898">
        <ele>495.7</ele>
        <time>2014-11-01T13:53:43Z</time>
      </trkpt>
      <trkpt lat="43.92757" lon="5.18977">
        <ele>495.22</ele>
        <time>2014-11-01T13:53:59Z</time>
      </trkpt>
      <trkpt lat="43.92759" lon="5.18975">
        <ele>494.74</ele>
        <time>2014-11-01T13:54:15Z</time>
      </trkpt>
      <trkpt lat="43.92757" lon="5.18976">
        <ele>494.26</ele>
        <time>2014-11-01T13:54:40Z</time>
      </trkpt>
      <trkpt lat="43.92754" lon="5.18972">
        <ele>495.22</ele>
        <time>2014-11-01T13:54:51Z</time>
      </trkpt>
      <trkpt lat="43.92752" lon="5.18969">
        <ele>495.22</ele>
        <time>2014-11-01T13:55:04Z</time>
      </trkpt>
      <trkpt lat="43.92752" lon="5.18973">
        <ele>495.22</ele>
        <time>2014-11-01T13:55:22Z</time>
      </trkpt>
      <trkpt lat="43.92746" lon="5.18967">
        <ele>493.77</ele>
        <time>2014-11-01T13:55:35Z</time>
      </trkpt>
      <trkpt lat="43.92737" lon="5.18961">
        <ele>492.81</ele>
        <time>2014-11-01T13:55:49Z</time>
      </trkpt>
      <trkpt lat="43.92719" lon="5.18949">
        <ele>492.81</ele>
        <time>2014-11-01T13:56:07Z</time>
      </trkpt>
      <trkpt lat="43.92709" lon="5.18936">
        <ele>492.33</ele>
        <time>2014-11-01T13:56:21Z</time>
      </trkpt>
      <trkpt lat="43.92699" lon="5.18926">
        <ele>491.37</ele>
        <time>2014-11-01T13:56:36Z</time>
      </trkpt>
      <trkpt lat="43.92692" lon="5.18917">
        <ele>490.41</ele>
        <time>2014-11-01T13:56:47Z</time>
      </trkpt>
      <trkpt lat="43.92679" lon="5.18912">
        <ele>489.45</ele>
        <time>2014-11-01T13:57:01Z</time>
      </trkpt>
      <trkpt lat="43.9266" lon="5.18911">
        <ele>488.97</ele>
        <time>2014-11-01T13:57:18Z</time>
      </trkpt>
      <trkpt lat="43.92645" lon="5.18906">
        <ele>487.53</ele>
        <time>2014-11-01T13:57:35Z</time>
      </trkpt>
      <trkpt lat="43.92631" lon="5.18894">
        <ele>486.08</ele>
        <time>2014-11-01T13:57:50Z</time>
      </trkpt>
      <trkpt lat="43.9262" lon="5.18878">
        <ele>484.64</ele>
        <time>2014-11-01T13:58:04Z</time>
      </trkpt>
      <trkpt lat="43.92606" lon="5.1886">
        <ele>484.16</ele>
        <time>2014-11-01T13:58:18Z</time>
      </trkpt>
      <trkpt lat="43.92592" lon="5.18843">
        <ele>482.72</ele>
        <time>2014-11-01T13:58:36Z</time>
      </trkpt>
      <trkpt lat="43.92577" lon="5.18826">
        <ele>481.76</ele>
        <time>2014-11-01T13:58:51Z</time>
      </trkpt>
      <trkpt lat="43.92561" lon="5.18805">
        <ele>480.32</ele>
        <time>2014-11-01T13:59:09Z</time>
      </trkpt>
      <trkpt lat="43.92551" lon="5.18789">
        <ele>479.84</ele>
        <time>2014-11-01T13:59:22Z</time>
      </trkpt>
      <trkpt lat="43.9254" lon="5.18772">
        <ele>478.87</ele>
        <time>2014-11-01T13:59:37Z</time>
      </trkpt>
      <trkpt lat="43.92525" lon="5.18755">
        <ele>477.91</ele>
        <time>2014-11-01T13:59:53Z</time>
      </trkpt>
      <trkpt lat="43.92515" lon="5.1874">
        <ele>476.95</ele>
        <time>2014-11-01T14:00:09Z</time>
      </trkpt>
      <trkpt lat="43.92509" lon="5.1872">
        <ele>476.95</ele>
        <time>2014-11-01T14:00:24Z</time>
      </trkpt>
      <trkpt lat="43.92495" lon="5.18706">
        <ele>476.95</ele>
        <time>2014-11-01T14:00:39Z</time>
      </trkpt>
      <trkpt lat="43.92478" lon="5.18703">
        <ele>476.47</ele>
        <time>2014-11-01T14:00:55Z</time>
      </trkpt>
      <trkpt lat="43.92472" lon="5.18707">
        <ele>475.99</ele>
        <time>2014-11-01T14:01:01Z</time>
      </trkpt>
      <trkpt lat="43.92456" lon="5.18705">
        <ele>475.03</ele>
        <time>2014-11-01T14:01:15Z</time>
      </trkpt>
      <trkpt lat="43.92441" lon="5.18711">
        <ele>473.11</ele>
        <time>2014-11-01T14:01:28Z</time>
      </trkpt>
      <trkpt lat="43.92429" lon="5.18715">
        <ele>472.14</ele>
        <time>2014-11-01T14:01:39Z</time>
      </trkpt>
      <trkpt lat="43.92417" lon="5.18716">
        <ele>470.7</ele>
        <time>2014-11-01T14:01:52Z</time>
      </trkpt>
      <trkpt lat="43.92404" lon="5.18706">
        <ele>469.74</ele>
        <time>2014-11-01T14:02:08Z</time>
      </trkpt>
      <trkpt lat="43.92404" lon="5.18703">
        <ele>469.74</ele>
        <time>2014-11-01T14:02:28Z</time>
      </trkpt>
      <trkpt lat="43.92407" lon="5.18694">
        <ele>469.74</ele>
        <time>2014-11-01T14:02:43Z</time>
      </trkpt>
      <trkpt lat="43.92407" lon="5.18692">
        <ele>469.74</ele>
        <time>2014-11-01T14:02:52Z</time>
      </trkpt>
      <trkpt lat="43.92411" lon="5.18676">
        <ele>472.14</ele>
        <time>2014-11-01T14:03:07Z</time>
      </trkpt>
      <trkpt lat="43.92411" lon="5.18659">
        <ele>472.14</ele>
        <time>2014-11-01T14:03:19Z</time>
      </trkpt>
      <trkpt lat="43.92404" lon="5.18647">
        <ele>471.18</ele>
        <time>2014-11-01T14:03:31Z</time>
      </trkpt>
      <trkpt lat="43.924" lon="5.18647">
        <ele>471.18</ele>
        <time>2014-11-01T14:03:35Z</time>
      </trkpt>
      <trkpt lat="43.92396" lon="5.18647">
        <ele>470.7</ele>
        <time>2014-11-01T14:03:39Z</time>
      </trkpt>
      <trkpt lat="43.92392" lon="5.18647">
        <ele>469.74</ele>
        <time>2014-11-01T14:03:44Z</time>
      </trkpt>
      <trkpt lat="43.92389" lon="5.18648">
        <ele>469.74</ele>
        <time>2014-11-01T14:03:48Z</time>
      </trkpt>
      <trkpt lat="43.92386" lon="5.18647">
        <ele>468.78</ele>
        <time>2014-11-01T14:03:51Z</time>
      </trkpt>
      <trkpt lat="43.92382" lon="5.18646">
        <ele>468.78</ele>
        <time>2014-11-01T14:03:55Z</time>
      </trkpt>
      <trkpt lat="43.92365" lon="5.1865">
        <ele>468.3</ele>
        <time>2014-11-01T14:04:10Z</time>
      </trkpt>
      <trkpt lat="43.92354" lon="5.1867">
        <ele>466.86</ele>
        <time>2014-11-01T14:04:27Z</time>
      </trkpt>
      <trkpt lat="43.92353" lon="5.18663">
        <ele>466.38</ele>
        <time>2014-11-01T14:04:40Z</time>
      </trkpt>
      <trkpt lat="43.92355" lon="5.18657">
        <ele>466.38</ele>
        <time>2014-11-01T14:04:48Z</time>
      </trkpt>
      <trkpt lat="43.92365" lon="5.18646">
        <ele>467.34</ele>
        <time>2014-11-01T14:04:58Z</time>
      </trkpt>
      <trkpt lat="43.92376" lon="5.18638">
        <ele>468.3</ele>
        <time>2014-11-01T14:05:13Z</time>
      </trkpt>
      <trkpt lat="43.92379" lon="5.18636">
        <ele>468.3</ele>
        <time>2014-11-01T14:05:16Z</time>
      </trkpt>
      <trkpt lat="43.92392" lon="5.18629">
        <ele>468.78</ele>
        <time>2014-11-01T14:05:30Z</time>
      </trkpt>
      <trkpt lat="43.92412" lon="5.18619">
        <ele>469.26</ele>
        <time>2014-11-01T14:05:48Z</time>
      </trkpt>
      <trkpt lat="43.92416" lon="5.18618">
        <ele>469.74</ele>
        <time>2014-11-01T14:06:00Z</time>
      </trkpt>
      <trkpt lat="43.9243" lon="5.1861">
        <ele>469.74</ele>
        <time>2014-11-01T14:06:14Z</time>
      </trkpt>
      <trkpt lat="43.92432" lon="5.18608">
        <ele>469.74</ele>
        <time>2014-11-01T14:06:16Z</time>
      </trkpt>
      <trkpt lat="43.92437" lon="5.18605">
        <ele>469.74</ele>
        <time>2014-11-01T14:06:22Z</time>
      </trkpt>
      <trkpt lat="43.9245" lon="5.18602">
        <ele>466.86</ele>
        <time>2014-11-01T14:06:38Z</time>
      </trkpt>
      <trkpt lat="43.92463" lon="5.18601">
        <ele>464.45</ele>
        <time>2014-11-01T14:06:51Z</time>
      </trkpt>
      <trkpt lat="43.92473" lon="5.18604">
        <ele>462.53</ele>
        <time>2014-11-01T14:07:03Z</time>
      </trkpt>
      <trkpt lat="43.92485" lon="5.18609">
        <ele>459.65</ele>
        <time>2014-11-01T14:07:17Z</time>
      </trkpt>
      <trkpt lat="43.92492" lon="5.18611">
        <ele>459.17</ele>
        <time>2014-11-01T14:07:30Z</time>
      </trkpt>
      <trkpt lat="43.92503" lon="5.18619">
        <ele>457.72</ele>
        <time>2014-11-01T14:07:46Z</time>
      </trkpt>
      <trkpt lat="43.92512" lon="5.18623">
        <ele>455.8</ele>
        <time>2014-11-01T14:07:57Z</time>
      </trkpt>
      <trkpt lat="43.9252" lon="5.18626">
        <ele>453.88</ele>
        <time>2014-11-01T14:08:07Z</time>
      </trkpt>
      <trkpt lat="43.92531" lon="5.18635">
        <ele>451.48</ele>
        <time>2014-11-01T14:08:22Z</time>
      </trkpt>
      <trkpt lat="43.92544" lon="5.18642">
        <ele>449.55</ele>
        <time>2014-11-01T14:08:37Z</time>
      </trkpt>
      <trkpt lat="43.92553" lon="5.1865">
        <ele>448.11</ele>
        <time>2014-11-01T14:08:49Z</time>
      </trkpt>
      <trkpt lat="43.92563" lon="5.18661">
        <ele>446.19</ele>
        <time>2014-11-01T14:09:03Z</time>
      </trkpt>
      <trkpt lat="43.92573" lon="5.18672">
        <ele>444.27</ele>
        <time>2014-11-01T14:09:17Z</time>
      </trkpt>
      <trkpt lat="43.92585" lon="5.1868">
        <ele>441.86</ele>
        <time>2014-11-01T14:09:32Z</time>
      </trkpt>
      <trkpt lat="43.92596" lon="5.18686">
        <ele>439.46</ele>
        <time>2014-11-01T14:09:46Z</time>
      </trkpt>
      <trkpt lat="43.92606" lon="5.18691">
        <ele>437.06</ele>
        <time>2014-11-01T14:10:02Z</time>
      </trkpt>
      <trkpt lat="43.92615" lon="5.18696">
        <ele>434.65</ele>
        <time>2014-11-01T14:10:17Z</time>
      </trkpt>
      <trkpt lat="43.92625" lon="5.18702">
        <ele>432.73</ele>
        <time>2014-11-01T14:10:30Z</time>
      </trkpt>
      <trkpt lat="43.92638" lon="5.18706">
        <ele>430.33</ele>
        <time>2014-11-01T14:10:45Z</time>
      </trkpt>
      <trkpt lat="43.92648" lon="5.18712">
        <ele>428.89</ele>
        <time>2014-11-01T14:10:59Z</time>
      </trkpt>
      <trkpt lat="43.92651" lon="5.18716">
        <ele>428.4</ele>
        <time>2014-11-01T14:11:03Z</time>
      </trkpt>
      <trkpt lat="43.92653" lon="5.18718">
        <ele>428.4</ele>
        <time>2014-11-01T14:11:06Z</time>
      </trkpt>
      <trkpt lat="43.92662" lon="5.18726">
        <ele>427.44</ele>
        <time>2014-11-01T14:11:17Z</time>
      </trkpt>
      <trkpt lat="43.92671" lon="5.18732">
        <ele>426.48</ele>
        <time>2014-11-01T14:11:32Z</time>
      </trkpt>
      <trkpt lat="43.92679" lon="5.18744">
        <ele>425.52</ele>
        <time>2014-11-01T14:11:46Z</time>
      </trkpt>
      <trkpt lat="43.92697" lon="5.18756">
        <ele>424.08</ele>
        <time>2014-11-01T14:12:03Z</time>
      </trkpt>
      <trkpt lat="43.92708" lon="5.18767">
        <ele>422.64</ele>
        <time>2014-11-01T14:12:16Z</time>
      </trkpt>
      <trkpt lat="43.92721" lon="5.18778">
        <ele>420.71</ele>
        <time>2014-11-01T14:12:30Z</time>
      </trkpt>
      <trkpt lat="43.92738" lon="5.18786">
        <ele>418.79</ele>
        <time>2014-11-01T14:12:45Z</time>
      </trkpt>
      <trkpt lat="43.9274" lon="5.18788">
        <ele>418.79</ele>
        <time>2014-11-01T14:12:47Z</time>
      </trkpt>
      <trkpt lat="43.92747" lon="5.18792">
        <ele>418.31</ele>
        <time>2014-11-01T14:12:53Z</time>
      </trkpt>
      <trkpt lat="43.9276" lon="5.18803">
        <ele>416.87</ele>
        <time>2014-11-01T14:13:08Z</time>
      </trkpt>
      <trkpt lat="43.92772" lon="5.18814">
        <ele>415.91</ele>
        <time>2014-11-01T14:13:23Z</time>
      </trkpt>
      <trkpt lat="43.92789" lon="5.18828">
        <ele>414.47</ele>
        <time>2014-11-01T14:13:40Z</time>
      </trkpt>
      <trkpt lat="43.92794" lon="5.18833">
        <ele>414.47</ele>
        <time>2014-11-01T14:13:45Z</time>
      </trkpt>
      <trkpt lat="43.92798" lon="5.1884">
        <ele>413.98</ele>
        <time>2014-11-01T14:13:59Z</time>
      </trkpt>
      <trkpt lat="43.92802" lon="5.18842">
        <ele>413.98</ele>
        <time>2014-11-01T14:14:06Z</time>
      </trkpt>
      <trkpt lat="43.92814" lon="5.18856">
        <ele>413.5</ele>
        <time>2014-11-01T14:14:22Z</time>
      </trkpt>
      <trkpt lat="43.92831" lon="5.18865">
        <ele>413.02</ele>
        <time>2014-11-01T14:14:37Z</time>
      </trkpt>
      <trkpt lat="43.92833" lon="5.18867">
        <ele>412.54</ele>
        <time>2014-11-01T14:14:39Z</time>
      </trkpt>
      <trkpt lat="43.92847" lon="5.18878">
        <ele>411.58</ele>
        <time>2014-11-01T14:14:54Z</time>
      </trkpt>
      <trkpt lat="43.92857" lon="5.18881">
        <ele>409.18</ele>
        <time>2014-11-01T14:15:12Z</time>
      </trkpt>
      <trkpt lat="43.92863" lon="5.18889">
        <ele>410.14</ele>
        <time>2014-11-01T14:15:24Z</time>
      </trkpt>
      <trkpt lat="43.92874" lon="5.18897">
        <ele>410.14</ele>
        <time>2014-11-01T14:15:36Z</time>
      </trkpt>
      <trkpt lat="43.92876" lon="5.18898">
        <ele>408.7</ele>
        <time>2014-11-01T14:15:39Z</time>
      </trkpt>
      <trkpt lat="43.92889" lon="5.18902">
        <ele>405.81</ele>
        <time>2014-11-01T14:15:54Z</time>
      </trkpt>
      <trkpt lat="43.92909" lon="5.18898">
        <ele>403.41</ele>
        <time>2014-11-01T14:16:10Z</time>
      </trkpt>
      <trkpt lat="43.92926" lon="5.189">
        <ele>401.01</ele>
        <time>2014-11-01T14:16:25Z</time>
      </trkpt>
      <trkpt lat="43.92942" lon="5.189">
        <ele>398.6</ele>
        <time>2014-11-01T14:16:40Z</time>
      </trkpt>
      <trkpt lat="43.92954" lon="5.18895">
        <ele>396.2</ele>
        <time>2014-11-01T14:16:52Z</time>
      </trkpt>
      <trkpt lat="43.92965" lon="5.18896">
        <ele>393.8</ele>
        <time>2014-11-01T14:17:06Z</time>
      </trkpt>
      <trkpt lat="43.9298" lon="5.18894">
        <ele>390.43</ele>
        <time>2014-11-01T14:17:23Z</time>
      </trkpt>
      <trkpt lat="43.92993" lon="5.18897">
        <ele>388.51</ele>
        <time>2014-11-01T14:17:35Z</time>
      </trkpt>
      <trkpt lat="43.92999" lon="5.18896">
        <ele>386.11</ele>
        <time>2014-11-01T14:17:48Z</time>
      </trkpt>
      <trkpt lat="43.93003" lon="5.18894">
        <ele>385.63</ele>
        <time>2014-11-01T14:18:02Z</time>
      </trkpt>
      <trkpt lat="43.93017" lon="5.18899">
        <ele>383.7</ele>
        <time>2014-11-01T14:18:16Z</time>
      </trkpt>
      <trkpt lat="43.9302" lon="5.18899">
        <ele>383.22</ele>
        <time>2014-11-01T14:18:19Z</time>
      </trkpt>
      <trkpt lat="43.93033" lon="5.18904">
        <ele>382.26</ele>
        <time>2014-11-01T14:18:33Z</time>
      </trkpt>
      <trkpt lat="43.93034" lon="5.18904">
        <ele>381.78</ele>
        <time>2014-11-01T14:18:34Z</time>
      </trkpt>
      <trkpt lat="43.9305" lon="5.18908">
        <ele>381.3</ele>
        <time>2014-11-01T14:18:52Z</time>
      </trkpt>
      <trkpt lat="43.93069" lon="5.18911">
        <ele>381.3</ele>
        <time>2014-11-01T14:19:06Z</time>
      </trkpt>
      <trkpt lat="43.93083" lon="5.18912">
        <ele>380.34</ele>
        <time>2014-11-01T14:19:22Z</time>
      </trkpt>
      <trkpt lat="43.93082" lon="5.18908">
        <ele>379.38</ele>
        <time>2014-11-01T14:19:26Z</time>
      </trkpt>
      <trkpt lat="43.93082" lon="5.18887">
        <ele>378.42</ele>
        <time>2014-11-01T14:19:39Z</time>
      </trkpt>
      <trkpt lat="43.93082" lon="5.18881">
        <ele>377.94</ele>
        <time>2014-11-01T14:19:54Z</time>
      </trkpt>
      <trkpt lat="43.93085" lon="5.18885">
        <ele>377.94</ele>
        <time>2014-11-01T14:20:12Z</time>
      </trkpt>
      <trkpt lat="43.93085" lon="5.18888">
        <ele>378.42</ele>
        <time>2014-11-01T14:20:26Z</time>
      </trkpt>
      <trkpt lat="43.93085" lon="5.18885">
        <ele>378.42</ele>
        <time>2014-11-01T14:20:46Z</time>
      </trkpt>
      <trkpt lat="43.93085" lon="5.18897">
        <ele>378.42</ele>
        <time>2014-11-01T14:21:10Z</time>
      </trkpt>
      <trkpt lat="43.93082" lon="5.18897">
        <ele>378.9</ele>
        <time>2014-11-01T14:21:35Z</time>
      </trkpt>
      <trkpt lat="43.93082" lon="5.18899">
        <ele>379.38</ele>
        <time>2014-11-01T14:22:01Z</time>
      </trkpt>
      <trkpt lat="43.93081" lon="5.18896">
        <ele>379.38</ele>
        <time>2014-11-01T14:22:24Z</time>
      </trkpt>
      <trkpt lat="43.93084" lon="5.18896">
        <ele>379.86</ele>
        <time>2014-11-01T14:22:47Z</time>
      </trkpt>
    </trkseg>
  </trk>
</gpx>